Provisional Data: Baldwin Creek near Lowman, NY


Please select a monitoring station.
Please select start date.
Please select start date.

Toggle Unit: C/F Toggle Unit: C/F
Sample Time Temperature (C) Temperature (F) Specific Conductivity (mS/cm) pH   Turbidity (NTU+) DO (mg/L)
3/7/2021 12:00:00 AM 0.19 32.342 0.175 7.24 3.62 14.06
3/7/2021 12:15:00 AM 0.17 32.306 0.175 7.24 3.56 14.08
3/7/2021 12:30:00 AM 0.15 32.27 0.175 7.24 3.67 14.09
3/7/2021 12:45:00 AM 0.12 32.216 0.175 7.24 3.66 14.1
3/7/2021 1:00:00 AM 0.09 32.162 0.175 7.24 3.61 14.1
3/7/2021 1:15:00 AM 0.04 32.072 0.176 7.24 3.51 14.12
3/7/2021 1:30:00 AM 0 32 0.176 7.23 3.43 14.14
3/7/2021 1:45:00 AM -0.04 31.928 0.176 7.24 3.5 14.15
3/7/2021 2:00:00 AM -0.05 31.91 0.176 7.25 3.56 14.17
3/7/2021 2:15:00 AM -0.03 31.946 0.176 7.28 3.85 14.19
3/7/2021 2:30:00 AM -0.03 31.946 0.177 7.28 3.69 14.2
3/7/2021 2:45:00 AM -0.03 31.946 0.177 7.27 4.07 14.21
3/7/2021 3:00:00 AM -0.03 31.946 0.177 7.27 3.73 14.21
3/7/2021 3:15:00 AM -0.03 31.946 0.177 7.26 3.74 14.21
3/7/2021 3:30:00 AM -0.03 31.946 0.178 7.26 4.09 14.21
3/7/2021 3:45:00 AM -0.03 31.946 0.178 7.26 4.56 14.21
3/7/2021 4:00:00 AM -0.03 31.946 0.178 7.26 4.22 14.21
3/7/2021 4:15:00 AM -0.03 31.946 0.178 7.26 4.27 14.21
3/7/2021 4:30:00 AM -0.03 31.946 0.179 7.26 4.18 14.21
3/7/2021 4:45:00 AM -0.03 31.946 0.18 7.26 4.2 14.22
3/7/2021 5:00:00 AM -0.03 31.946 0.18 7.27 3.95 14.22
3/7/2021 5:15:00 AM -0.02 31.964 0.18 7.27 4.02 14.23
3/7/2021 5:30:00 AM -0.02 31.964 0.181 7.14 3.85 14.22
3/7/2021 5:45:00 AM -0.02 31.964 0.181 7.26 4.27 14.23
3/7/2021 6:00:00 AM -0.02 31.964 0.181 7.26 3.9 14.23
3/7/2021 6:15:00 AM -0.02 31.964 0.181 7.26 3.76 14.24
3/7/2021 6:30:00 AM -0.02 31.964 0.182 7.26 3.76 14.24
3/7/2021 6:45:00 AM -0.02 31.964 0.182 7.27 3.66 14.26
3/7/2021 7:00:00 AM -0.02 31.964 0.182 7.26 3.71 14.28
3/7/2021 7:15:00 AM -0.02 31.964 0.183 7.27 3.75 14.33
3/7/2021 7:30:00 AM -0.02 31.964 0.183 7.28 3.95 14.39
3/7/2021 7:45:00 AM -0.02 31.964 0.183 7.29 4.03 14.45
3/7/2021 8:00:00 AM -0.02 31.964 0.183 7.3 4.07 14.51
3/7/2021 8:15:00 AM -0.02 31.964 0.183 7.3 3.04 14.57
3/7/2021 8:30:00 AM -0.02 31.964 0.183 7.33 2.86 14.64
3/7/2021 8:45:00 AM -0.02 31.964 0.183 7.34 3 14.69
3/7/2021 9:00:00 AM -0.01 31.982 0.183 7.35 3.2 14.73
3/7/2021 9:15:00 AM -0.01 31.982 0.182 7.37 3.08 14.76
3/7/2021 9:30:00 AM 0 32 0.182 7.36 3.08 14.78
3/7/2021 9:45:00 AM 0.07 32.126 0.182 7.36 3.47 14.78
3/7/2021 10:00:00 AM 0.07 32.126 0.181 7.37 3.58 14.78
3/7/2021 10:15:00 AM 0.08 32.144 0.18 7.38 3.34 14.77
3/7/2021 10:30:00 AM 0.12 32.216 0.18 7.38 3.57 14.74
3/7/2021 10:45:00 AM 0.23 32.414 0.18 7.39 3.6 14.73
3/7/2021 11:00:00 AM 0.36 32.648 0.179 7.4 3.75 14.71
3/7/2021 11:15:00 AM 0.53 32.954 0.18 7.4 3.61 14.68
3/7/2021 11:30:00 AM 0.86 33.548 0.18 7.42 3.4 14.63
3/7/2021 11:45:00 AM 1.13 34.034 0.181 7.44 3.36 14.57
3/7/2021 12:00:00 PM 1.34 34.412 0.182 7.41 3.17 14.51
3/7/2021 12:15:00 PM 1.54 34.772 0.182 7.44 3.35 14.48
3/7/2021 12:30:00 PM 1.58 34.844 0.183 7.42 3.41 14.44
3/7/2021 12:45:00 PM 1.67 35.006 0.183 7.42 3.46 14.42
3/7/2021 1:00:00 PM 1.8 35.24 0.183 7.43 3.51 14.42
3/7/2021 1:15:00 PM 1.79 35.222 0.181 7.42 3.53 14.41
3/7/2021 1:30:00 PM 1.8 35.24 0.178 7.41 3.58 14.41
3/7/2021 1:45:00 PM 1.78 35.204 0.175 7.42 3.59 14.39
3/7/2021 2:00:00 PM 1.83 35.294 0.174 7.43 3.55 14.38
3/7/2021 2:15:00 PM 1.81 35.258 0.173 7.42 3.59 14.36
3/7/2021 2:30:00 PM 1.83 35.294 0.173 7.42 3.6 14.33
3/7/2021 2:45:00 PM 1.87 35.366 0.173 7.44 3.54 14.31
3/7/2021 3:00:00 PM 1.92 35.456 0.173 7.44 3.53 14.27
3/7/2021 3:15:00 PM 1.95 35.51 0.174 7.44 3.53 14.25
3/7/2021 3:30:00 PM 1.94 35.492 0.175 7.43 3.52 14.22
3/7/2021 3:45:00 PM 1.89 35.402 0.176 7.42 3.58 14.2
3/7/2021 4:00:00 PM 1.89 35.402 0.176 7.43 3.58 14.17
3/7/2021 4:15:00 PM 1.86 35.348 0.177 7.42 3.63 14.16
3/7/2021 4:30:00 PM 1.81 35.258 0.177 7.41 3.7 14.13
3/7/2021 4:45:00 PM 1.76 35.168 0.177 7.41 3.71 14.11
3/7/2021 5:00:00 PM 1.7 35.06 0.178 7.4 3.75 14.07
3/7/2021 5:15:00 PM 1.65 34.97 0.178 7.39 3.59 14.04
3/7/2021 5:30:00 PM 1.62 34.916 0.178 7.38 3.57 14.01
3/7/2021 5:45:00 PM 1.58 34.844 0.178 7.38 3.64 13.98
3/7/2021 6:00:00 PM 1.54 34.772 0.179 7.37 3.7 13.94
3/7/2021 6:15:00 PM 1.5 34.7 0.179 7.35 3.66 13.89
3/7/2021 6:30:00 PM 1.45 34.61 0.179 7.32 3.95 13.84
3/7/2021 6:45:00 PM 1.39 34.502 0.179 7.31 3.9 13.81
3/7/2021 7:00:00 PM 1.32 34.376 0.179 7.31 3.74 13.8
3/7/2021 7:15:00 PM 1.25 34.25 0.18 7.29 3.63 13.79
3/7/2021 7:30:00 PM 1.18 34.124 0.18 7.29 3.76 13.8
3/7/2021 7:45:00 PM 1.1 33.98 0.18 7.29 3.61 13.81
3/7/2021 8:00:00 PM 1.03 33.854 0.18 7.28 3.73 13.82
3/7/2021 8:15:00 PM 0.95 33.71 0.18 7.25 3.73 13.84
3/7/2021 8:30:00 PM 0.88 33.584 0.18 7.28 3.98 13.86
3/7/2021 8:45:00 PM 0.81 33.458 0.18 7.28 3.76 13.87
3/7/2021 9:00:00 PM 0.74 33.332 0.18 7.27 3.65 13.89
3/7/2021 9:15:00 PM 0.68 33.224 0.18 7.29 3.71 13.91
3/7/2021 9:30:00 PM 0.62 33.116 0.18 7.27 3.68 13.92
3/7/2021 9:45:00 PM 0.56 33.008 0.179 7.27 3.54 13.94
3/7/2021 10:00:00 PM 0.5 32.9 0.179 7.27 3.5 13.96
3/7/2021 10:15:00 PM 0.44 32.792 0.179 7.27 3.57 13.99
3/7/2021 10:30:00 PM 0.39 32.702 0.179 7.27 3.71 14
3/7/2021 10:45:00 PM 0.33 32.594 0.178 7.27 3.59 14.02
3/7/2021 11:00:00 PM 0.28 32.504 0.178 7.27 3.72 14.05
3/7/2021 11:15:00 PM 0.22 32.396 0.178 7.27 3.81 14.06
3/7/2021 11:30:00 PM 0.16 32.288 0.178 7.26 3.63 14.09
3/7/2021 11:45:00 PM 0.11 32.198 0.178 7.27 3.75 14.1
3/8/2021 12:00:00 AM 0.06 32.108 0.178 7.26 3.67 14.12
3/8/2021 12:15:00 AM 0 32 0.178 7.26 3.57 14.15
3/8/2021 12:30:00 AM -0.05 31.91 0.178 7.27 3.84 14.17
3/8/2021 12:45:00 AM -0.04 31.928 0.178 7.31 3.43 14.2
3/8/2021 1:00:00 AM -0.03 31.946 0.178 7.3 3.91 14.22
3/8/2021 1:15:00 AM -0.03 31.946 0.179 7.29 3.95 14.24
3/8/2021 1:30:00 AM -0.03 31.946 0.179 7.29 4.04 14.26
3/8/2021 1:45:00 AM -0.03 31.946 0.179 7.29 3.89 14.27
3/8/2021 2:00:00 AM -0.03 31.946 0.18 7.29 4.16 14.27
3/8/2021 2:15:00 AM -0.03 31.946 0.18 7.29 4.14 14.28
3/8/2021 2:30:00 AM -0.03 31.946 0.18 7.28 3.9 14.29
3/8/2021 2:45:00 AM -0.03 31.946 0.181 7.28 3.49 14.29
3/8/2021 3:00:00 AM -0.03 31.946 0.181 7.27 3.94 14.3
3/8/2021 3:15:00 AM -0.03 31.946 0.181 7.27 3.72 14.3
3/8/2021 3:30:00 AM -0.03 31.946 0.182 7.27 3.65 14.3
3/8/2021 3:45:00 AM -0.03 31.946 0.182 7.27 3.51 14.29
3/8/2021 4:00:00 AM -0.03 31.946 0.182 7.27 3.42 14.3
3/8/2021 4:15:00 AM -0.02 31.964 0.182 7.26 3.39 14.29
3/8/2021 4:30:00 AM -0.02 31.964 0.183 7.26 3.24 14.29
3/8/2021 4:45:00 AM -0.02 31.964 0.182 7.26 3.22 14.29
3/8/2021 5:00:00 AM -0.02 31.964 0.183 7.26 3.13 14.29
3/8/2021 5:15:00 AM -0.02 31.964 0.183 7.26 3.13 14.28
3/8/2021 5:30:00 AM -0.02 31.964 0.183 7.26 3.09 14.28
3/8/2021 5:45:00 AM -0.02 31.964 0.183 7.25 3.11 14.28
3/8/2021 6:00:00 AM -0.02 31.964 0.184 7.25 3.12 14.27
3/8/2021 6:15:00 AM -0.02 31.964 0.184 7.24 3.02 14.27
3/8/2021 6:30:00 AM -0.02 31.964 0.184 7.19 3.01 14.27
3/8/2021 6:45:00 AM -0.02 31.964 0.185 7.22 2.97 14.27
3/8/2021 7:00:00 AM -0.02 31.964 0.185 7.31 2.99 14.28
3/8/2021 7:15:00 AM -0.02 31.964 0.185 7.24 3.01 14.31
3/8/2021 7:30:00 AM -0.02 31.964 0.186 7.21 3.29 14.36
3/8/2021 7:45:00 AM -0.02 31.964 0.186 7.22 3.48 14.43
3/8/2021 8:00:00 AM -0.02 31.964 0.186 7.24 3.23 14.5
3/8/2021 8:15:00 AM -0.01 31.982 0.186 7.27 3.3 14.57
3/8/2021 8:30:00 AM -0.01 31.982 0.186 7.29 3.02 14.65
3/8/2021 8:45:00 AM 0 32 0.186 7.27 2.99 14.71
3/8/2021 9:00:00 AM 0.01 32.018 0.185 7.33 3.42 14.79
3/8/2021 9:15:00 AM 0.02 32.036 0.185 7.34 3.39 14.85
3/8/2021 9:30:00 AM 0.08 32.144 0.185 7.3 3.49 14.88
3/8/2021 9:45:00 AM 0.09 32.162 0.185 7.35 3.9 14.89
3/8/2021 10:00:00 AM 0.1 32.18 0.184 7.38 3.84 14.88
3/8/2021 10:15:00 AM 0.11 32.198 0.184 7.39 4.05 14.84
3/8/2021 10:30:00 AM 0.15 32.27 0.184 7.39 4.08 14.78
3/8/2021 10:45:00 AM 0.18 32.324 0.185 7.39 3.83 14.74
3/8/2021 11:00:00 AM 0.22 32.396 0.186 7.39 3.62 14.71
3/8/2021 11:15:00 AM 0.28 32.504 0.187 7.35 3.78 14.69
3/8/2021 11:30:00 AM 0.35 32.63 0.188 7.38 3.79 14.67
3/8/2021 11:45:00 AM 0.46 32.828 0.189 7.42 3.55 14.64
3/8/2021 12:00:00 PM 0.55 32.99 0.19 7.39 3.28 14.61
3/8/2021 12:15:00 PM 0.63 33.134 0.19 7.44 3.26 14.59
3/8/2021 12:30:00 PM 0.81 33.458 0.19 7.45 3.21 14.57
3/8/2021 12:45:00 PM 0.98 33.764 0.19 7.45 3.29 14.56
3/8/2021 1:00:00 PM 1.1 33.98 0.19 7.44 3.31 14.55
3/8/2021 1:15:00 PM 1.16 34.088 0.19 7.44 3.67 14.54
3/8/2021 1:30:00 PM 1.23 34.214 0.189 7.45 3.82 14.54
3/8/2021 1:45:00 PM 1.31 34.358 0.187 7.45 4.03 14.53
3/8/2021 2:00:00 PM 1.37 34.466 0.186 7.46 4.08 14.53
3/8/2021 2:15:00 PM 1.4 34.52 0.183 7.46 4.25 14.52
3/8/2021 2:30:00 PM 1.4 34.52 0.18 7.4 4.52 14.51
3/8/2021 2:45:00 PM 1.39 34.502 0.178 7.45 4.45 14.5
3/8/2021 3:00:00 PM 1.43 34.574 0.177 7.41 4.4 14.49
3/8/2021 3:15:00 PM 1.5 34.7 0.178 7.45 4.35 14.48
3/8/2021 3:30:00 PM 1.47 34.646 0.178 7.45 4.33 14.46
3/8/2021 3:45:00 PM 1.48 34.664 0.179 7.45 4.28 14.46
3/8/2021 4:00:00 PM 1.49 34.682 0.18 7.45 4.27 14.44
3/8/2021 4:15:00 PM 1.45 34.61 0.181 7.45 4.28 14.43
3/8/2021 4:30:00 PM 1.42 34.556 0.182 7.44 4.21 14.41
3/8/2021 4:45:00 PM 1.39 34.502 0.183 7.45 4.29 14.39
3/8/2021 5:00:00 PM 1.34 34.412 0.184 7.42 4.42 14.36
3/8/2021 5:15:00 PM 1.3 34.34 0.185 7.44 4.39 14.34
3/8/2021 5:30:00 PM 1.26 34.268 0.185 7.43 4.38 14.31
3/8/2021 5:45:00 PM 1.22 34.196 0.186 7.4 4.25 14.27
3/8/2021 6:00:00 PM 1.17 34.106 0.186 7.39 4.36 14.21
3/8/2021 6:15:00 PM 1.13 34.034 0.187 7.38 4.54 14.14
3/8/2021 6:30:00 PM 1.09 33.962 0.187 7.38 4.37 14.08
3/8/2021 6:45:00 PM 1.07 33.926 0.187 7.36 4.44 14.03
3/8/2021 7:00:00 PM 1.05 33.89 0.187 7.35 4.45 13.99
3/8/2021 7:15:00 PM 1.03 33.854 0.187 7.3 4.48 13.97
3/8/2021 7:30:00 PM 1.02 33.836 0.187 7.33 4.63 13.95
3/8/2021 7:45:00 PM 1.02 33.836 0.187 7.3 4.54 13.93
3/8/2021 8:00:00 PM 1 33.8 0.186 7.32 4.41 13.92
3/8/2021 8:15:00 PM 0.98 33.764 0.186 7.28 4.54 13.92
3/8/2021 8:30:00 PM 0.95 33.71 0.186 7.3 4.34 13.91
3/8/2021 8:45:00 PM 0.92 33.656 0.185 7.3 4.57 13.92
3/8/2021 9:00:00 PM 0.88 33.584 0.185 7.3 4.39 13.91
3/8/2021 9:15:00 PM 0.85 33.53 0.184 7.29 4.4 13.92
3/8/2021 9:30:00 PM 0.81 33.458 0.184 7.29 4.27 13.92
3/8/2021 9:45:00 PM 0.77 33.386 0.183 7.28 4.38 13.93
3/8/2021 10:00:00 PM 0.74 33.332 0.183 7.28 4.35 13.93
3/8/2021 10:15:00 PM 0.71 33.278 0.182 7.28 4.35 13.93
3/8/2021 10:30:00 PM 0.69 33.242 0.182 7.28 4.3 13.94
3/8/2021 10:45:00 PM 0.69 33.242 0.182 7.27 4.09 13.94
3/8/2021 11:00:00 PM 0.69 33.242 0.182 7.28 4.29 13.94
3/8/2021 11:15:00 PM 0.7 33.26 0.181 7.28 4.11 13.93
3/8/2021 11:30:00 PM 0.7 33.26 0.181 7.27 4.04 13.93
3/8/2021 11:45:00 PM 0.7 33.26 0.181 7.27 4.2 13.93
3/9/2021 12:00:00 AM 0.68 33.224 0.181 7.28 4.19 13.93
3/9/2021 12:15:00 AM 0.67 33.206 0.181 7.28 4.15 13.92
3/9/2021 12:30:00 AM 0.65 33.17 0.181 7.26 4.13 13.93
3/9/2021 12:45:00 AM 0.63 33.134 0.181 7.22 4.1 13.93
3/9/2021 1:00:00 AM 0.6 33.08 0.181 7.26 4.12 13.94
3/9/2021 1:15:00 AM 0.59 33.062 0.181 7.26 4 13.95
3/9/2021 1:30:00 AM 0.57 33.026 0.181 7.27 4.1 13.95
3/9/2021 1:45:00 AM 0.54 32.972 0.181 7.23 3.97 13.96
3/9/2021 2:00:00 AM 0.51 32.918 0.181 7.26 3.94 13.97
3/9/2021 2:15:00 AM 0.48 32.864 0.181 7.27 4.01 13.98
3/9/2021 2:30:00 AM 0.45 32.81 0.181 7.27 3.76 13.98
3/9/2021 2:45:00 AM 0.43 32.774 0.181 7.26 4.26 13.99
3/9/2021 3:00:00 AM 0.43 32.774 0.181 7.24 3.87 13.99
3/9/2021 3:15:00 AM 0.43 32.774 0.181 7.27 3.8 13.99
3/9/2021 3:30:00 AM 0.42 32.756 0.181 7.27 3.66 14
3/9/2021 3:45:00 AM 0.41 32.738 0.181 7.27 3.76 14
3/9/2021 4:00:00 AM 0.39 32.702 0.181 7.26 3.57 14.01
3/9/2021 4:15:00 AM 0.36 32.648 0.181 7.26 3.63 14.02
3/9/2021 4:30:00 AM 0.33 32.594 0.181 7.21 3.63 14.03
3/9/2021 4:45:00 AM 0.29 32.522 0.181 7.26 3.55 14.04
3/9/2021 5:00:00 AM 0.26 32.468 0.181 7.26 3.49 14.05
3/9/2021 5:15:00 AM 0.22 32.396 0.181 7.26 3.62 14.06
3/9/2021 5:30:00 AM 0.19 32.342 0.181 7.26 3.48 14.09
3/9/2021 5:45:00 AM 0.16 32.288 0.181 7.2 3.36 14.09
3/9/2021 6:00:00 AM 0.12 32.216 0.181 7.25 3.71 14.1
3/9/2021 6:15:00 AM 0.09 32.162 0.181 7.25 3.46 14.12
3/9/2021 6:30:00 AM 0.07 32.126 0.181 7.25 3.34 14.13
3/9/2021 6:45:00 AM 0.05 32.09 0.182 7.25 3.62 14.16
3/9/2021 7:00:00 AM 0.04 32.072 0.181 7.27 3.38 14.23
3/9/2021 7:15:00 AM 0.04 32.072 0.181 7.29 3.41 14.32
3/9/2021 7:30:00 AM 0.05 32.09 0.181 7.31 3.52 14.42
3/9/2021 7:45:00 AM 0.08 32.144 0.181 7.32 3.42 14.51
3/9/2021 8:00:00 AM 0.13 32.234 0.181 7.35 3.61 14.59
3/9/2021 8:15:00 AM 0.18 32.324 0.181 7.35 3.53 14.67
3/9/2021 8:30:00 AM 0.26 32.468 0.181 7.38 3.71 14.73
3/9/2021 8:45:00 AM 0.39 32.702 0.181 7.41 3.6 14.76
3/9/2021 9:00:00 AM 0.54 32.972 0.181 7.4 3.47 14.76
3/9/2021 9:15:00 AM 0.72 33.296 0.181 7.43 3.38 14.76
3/9/2021 9:30:00 AM 0.92 33.656 0.181 7.45 3.3 14.75
3/9/2021 9:45:00 AM 1.13 34.034 0.181 7.46 3.28 14.73
3/9/2021 10:00:00 AM 1.36 34.448 0.181 7.48 3.32 14.68
3/9/2021 10:15:00 AM 1.62 34.916 0.181 7.48 3.12 14.64
3/9/2021 10:30:00 AM 1.86 35.348 0.181 7.46 3.28 14.58
3/9/2021 10:45:00 AM 2.07 35.726 0.181 7.48 3.24 14.54
3/9/2021 11:00:00 AM 2.34 36.212 0.181 7.51 3.22 14.48
3/9/2021 11:15:00 AM 2.61 36.698 0.181 7.47 3.28 14.42
3/9/2021 11:30:00 AM 2.86 37.148 0.18 7.52 3.21 14.36
3/9/2021 11:45:00 AM 3.1 37.58 0.18 7.48 3.27 14.3
3/9/2021 12:00:00 PM 3.33 37.994 0.179 7.53 3.23 14.23
3/9/2021 12:15:00 PM 3.53 38.354 0.179 7.54 3.33 14.17
3/9/2021 12:30:00 PM 3.7 38.66 0.179 7.53 3.44 14.11
3/9/2021 12:45:00 PM 3.84 38.912 0.179 7.53 3.33 14.06
3/9/2021 1:00:00 PM 3.97 39.146 0.178 7.5 3.38 14.01
3/9/2021 1:15:00 PM 4.09 39.362 0.178 7.54 3.47 13.96
3/9/2021 1:30:00 PM 4.19 39.542 0.178 7.55 3.45 13.89
3/9/2021 1:45:00 PM 4.27 39.686 0.178 7.52 3.74 13.84
3/9/2021 2:00:00 PM 4.33 39.794 0.178 7.54 3.79 13.79
3/9/2021 2:15:00 PM 4.39 39.902 0.178 7.54 3.84 13.74
3/9/2021 2:30:00 PM 4.43 39.974 0.178 7.55 3.67 13.69
3/9/2021 2:45:00 PM 4.46 40.028 0.178 7.54 3.83 13.63
3/9/2021 3:00:00 PM 4.49 40.082 0.178 7.49 3.82 13.59
3/9/2021 3:15:00 PM 4.51 40.118 0.178 7.53 4.14 13.55
3/9/2021 3:30:00 PM 4.53 40.154 0.178 7.54 3.94 13.5
3/9/2021 3:45:00 PM 4.54 40.172 0.178 7.54 3.93 13.45
3/9/2021 4:00:00 PM 4.55 40.19 0.178 7.54 4.13 13.41
3/9/2021 4:15:00 PM 4.55 40.19 0.178 7.48 4.11 13.36
3/9/2021 4:30:00 PM 4.55 40.19 0.179 7.52 4.63 13.3
3/9/2021 4:45:00 PM 4.55 40.19 0.179 7.49 4.47 13.25
3/9/2021 5:00:00 PM 4.53 40.154 0.179 7.48 4.76 13.18
3/9/2021 5:15:00 PM 4.51 40.118 0.18 7.46 5.07 13.12
3/9/2021 5:30:00 PM 4.5 40.1 0.181 7.44 5.75 13.06
3/9/2021 5:45:00 PM 4.46 40.028 0.181 7.36 6.52 13
3/9/2021 6:00:00 PM 4.42 39.956 0.182 7.36 7.16 12.94
3/9/2021 6:15:00 PM 4.36 39.848 0.182 7.35 8.54 12.89
3/9/2021 6:30:00 PM 4.26 39.668 0.183 7.32 9.86 12.85
3/9/2021 6:45:00 PM 4.14 39.452 0.183 7.31 11.87 12.85
3/9/2021 7:00:00 PM 4.01 39.218 0.183 7.29 13.43 12.85
3/9/2021 7:15:00 PM 3.89 39.002 0.182 7.22 13.67 12.86
3/9/2021 7:30:00 PM 3.78 38.804 0.182 7.26 15.15 12.88
3/9/2021 7:45:00 PM 3.67 38.606 0.181 7.26 16.9 12.9
3/9/2021 8:00:00 PM 3.56 38.408 0.18 7.21 17.36 12.92
3/9/2021 8:15:00 PM 3.45 38.21 0.178 7.23 19.73 12.95
3/9/2021 8:30:00 PM 3.35 38.03 0.176 7.23 15.86 12.97
3/9/2021 8:45:00 PM 3.24 37.832 0.174 7.22 24.53 13
3/9/2021 9:00:00 PM 3.12 37.616 0.171 7.23 25.7 13.04
3/9/2021 9:15:00 PM 3 37.4 0.169 7.18 28.72 13.08
3/9/2021 9:30:00 PM 2.88 37.184 0.167 7.21 28.73 13.12
3/9/2021 9:45:00 PM 2.75 36.95 0.166 7.21 25.57 13.16
3/9/2021 10:00:00 PM 2.63 36.734 0.165 7.2 36.32 13.2
3/9/2021 10:15:00 PM 2.51 36.518 0.164 7.2 23.98 13.24
3/9/2021 10:30:00 PM 2.4 36.32 0.163 7.21 28.06 13.28
3/9/2021 10:45:00 PM 2.3 36.14 0.163 7.2 27.26 13.32
3/9/2021 11:00:00 PM 2.19 35.942 0.162 7.19 27.16 13.37
3/9/2021 11:15:00 PM 2.1 35.78 0.162 7.2 34.36 13.41
3/9/2021 11:30:00 PM 2.01 35.618 0.161 7.18 25.24 13.44
3/9/2021 11:45:00 PM 1.93 35.474 0.161 7.2 27.22 13.47
3/10/2021 12:00:00 AM 1.84 35.312 0.16 7.21 27.35 13.5
3/10/2021 12:15:00 AM 1.76 35.168 0.16 7.2 22.68 13.53
3/10/2021 12:30:00 AM 1.68 35.024 0.159 7.19 29.33 13.57
3/10/2021 12:45:00 AM 1.6 34.88 0.159 7.2 32.6 13.6
3/10/2021 1:00:00 AM 1.52 34.736 0.159 7.15 22.44 13.64
3/10/2021 1:15:00 AM 1.44 34.592 0.158 7.18 20.75 13.67
3/10/2021 1:30:00 AM 1.36 34.448 0.158 7.17 20.93 13.7
3/10/2021 1:45:00 AM 1.29 34.322 0.158 7.2 24.45 13.73
3/10/2021 2:00:00 AM 1.22 34.196 0.158 7.2 17.1 13.76
3/10/2021 2:15:00 AM 1.15 34.07 0.157 7.19 20.89 13.79
3/10/2021 2:30:00 AM 1.08 33.944 0.157 7.19 21.43 13.82
3/10/2021 2:45:00 AM 1.02 33.836 0.157 7.19 14.14 13.84
3/10/2021 3:00:00 AM 0.97 33.746 0.157 7.19 17.52 13.86
3/10/2021 3:15:00 AM 0.91 33.638 0.157 7.13 17.27 13.89
3/10/2021 3:30:00 AM 0.86 33.548 0.157 7.17 16.34 13.91
3/10/2021 3:45:00 AM 0.81 33.458 0.156 7.17 15.54 13.93
3/10/2021 4:00:00 AM 0.76 33.368 0.156 7.17 15.34 13.95
3/10/2021 4:15:00 AM 0.72 33.296 0.156 7.16 15.37 13.96
3/10/2021 4:30:00 AM 0.68 33.224 0.156 7.18 14.7 13.98
3/10/2021 4:45:00 AM 0.64 33.152 0.157 7.14 14.44 14
3/10/2021 5:00:00 AM 0.6 33.08 0.157 7.13 13.69 14.01
3/10/2021 5:15:00 AM 0.56 33.008 0.157 7.16 13.63 14.03
3/10/2021 5:30:00 AM 0.53 32.954 0.157 7.17 13.4 14.05
3/10/2021 5:45:00 AM 0.49 32.882 0.157 7.16 12.57 14.07
3/10/2021 6:00:00 AM 0.46 32.828 0.157 7.19 12.09 14.08
3/10/2021 6:15:00 AM 0.43 32.774 0.157 7.18 11.57 14.09
3/10/2021 6:30:00 AM 0.41 32.738 0.157 7.14 11.32 14.1
3/10/2021 6:45:00 AM 0.38 32.684 0.158 7.16 11.06 14.15
3/10/2021 7:00:00 AM 0.36 32.648 0.158 7.16 10.81 14.19
3/10/2021 7:15:00 AM 0.34 32.612 0.158 7.21 10.57 14.27
3/10/2021 7:30:00 AM 0.34 32.612 0.158 7.18 10.13 14.33
3/10/2021 7:45:00 AM 0.34 32.612 0.158 7.24 10.21 14.38
3/10/2021 8:00:00 AM 0.36 32.648 0.158 7.25 9.66 14.44
3/10/2021 8:15:00 AM 0.41 32.738 0.159 7.27 9.21 14.5
3/10/2021 8:30:00 AM 0.47 32.846 0.159 7.28 8.93 14.55
3/10/2021 8:45:00 AM 0.55 32.99 0.159 7.29 8.8 14.57
3/10/2021 9:00:00 AM 0.65 33.17 0.159 7.31 8.64 14.6
3/10/2021 9:15:00 AM 0.76 33.368 0.159 7.32 8.39 14.61
3/10/2021 9:30:00 AM 0.91 33.638 0.159 7.29 8.61 14.62
3/10/2021 9:45:00 AM 1.08 33.944 0.159 7.34 8.37 14.61
3/10/2021 10:00:00 AM 1.26 34.268 0.159 7.32 7.99 14.59
3/10/2021 10:15:00 AM 1.47 34.646 0.159 7.36 7.99 14.57
3/10/2021 10:30:00 AM 1.69 35.042 0.159 7.37 8.02 14.53
3/10/2021 10:45:00 AM 1.91 35.438 0.159 7.34 7.96 14.5
3/10/2021 11:00:00 AM 2.12 35.816 0.159 7.39 7.84 14.46
3/10/2021 11:15:00 AM 2.34 36.212 0.159 7.41 7.77 14.41
3/10/2021 11:30:00 AM 2.57 36.626 0.159 7.39 7.48 14.35
3/10/2021 11:45:00 AM 2.79 37.022 0.159 7.38 7.51 14.3
3/10/2021 12:00:00 PM 3.01 37.418 0.159 7.43 7.73 14.23
3/10/2021 12:15:00 PM 3.23 37.814 0.159 7.41 7.48 14.15
3/10/2021 12:30:00 PM 3.44 38.192 0.159 7.44 7.51 14.1
3/10/2021 12:45:00 PM 3.64 38.552 0.159 7.44 7.25 14.02
3/10/2021 1:00:00 PM 3.83 38.894 0.159 7.42 7.28 13.95
3/10/2021 1:15:00 PM 4 39.2 0.159 7.45 7.21 13.88
3/10/2021 1:30:00 PM 4.16 39.488 0.159 7.43 7.18 13.81
3/10/2021 1:45:00 PM 4.29 39.722 0.159 7.46 7.35 13.75
3/10/2021 2:00:00 PM 4.41 39.938 0.159 7.46 7.34 13.68
3/10/2021 2:15:00 PM 4.51 40.118 0.159 7.46 7.12 13.6
3/10/2021 2:30:00 PM 4.63 40.334 0.159 7.45 7.11 13.54
3/10/2021 2:45:00 PM 4.74 40.532 0.159 7.47 7.47 13.49
3/10/2021 3:00:00 PM 4.84 40.712 0.159 7.41 7.41 13.44
3/10/2021 3:15:00 PM 4.92 40.856 0.159 7.44 7.68 13.37
3/10/2021 3:30:00 PM 4.98 40.964 0.159 7.44 8.2 13.3
3/10/2021 3:45:00 PM 5.04 41.072 0.159 7.42 8.71 13.22
3/10/2021 4:00:00 PM 5.08 41.144 0.159 7.36 9.72 13.13
3/10/2021 4:15:00 PM 5.12 41.216 0.159 7.38 10.87 13.05
3/10/2021 4:30:00 PM 5.17 41.306 0.159 7.38 12.67 12.95
3/10/2021 4:45:00 PM 5.21 41.378 0.159 7.33 17.95 12.86
3/10/2021 5:00:00 PM 5.24 41.432 0.159 7.35 28.48 12.76
3/10/2021 5:15:00 PM 5.24 41.432 0.159 7.32 30.02 12.67
3/10/2021 5:30:00 PM 5.21 41.378 0.158 7.3 36.93 12.6
3/10/2021 5:45:00 PM 5.15 41.27 0.157 7.23 37.47 12.55
3/10/2021 6:00:00 PM 5.07 41.126 0.155 7.39 48.74 12.51
3/10/2021 6:15:00 PM 4.97 40.946 0.152 7.19 59.13 12.5
3/10/2021 6:30:00 PM 4.84 40.712 0.148 7.23 80.01 12.51
3/10/2021 6:45:00 PM 4.69 40.442 0.145 7.22 111.64 12.54
3/10/2021 7:00:00 PM 4.53 40.154 0.143 7.13 126.89 12.58
3/10/2021 7:15:00 PM 4.36 39.848 0.141 7.15 107.72 12.63
3/10/2021 7:30:00 PM 4.2 39.56 0.139 7.26 143.02 12.68
3/10/2021 7:45:00 PM 4.03 39.254 0.138 7.06 114.84 12.73
3/10/2021 8:00:00 PM 3.85 38.93 0.136 7.08 129.83 12.79
3/10/2021 8:15:00 PM 3.67 38.606 0.134 7.09 149.98 12.85
3/10/2021 8:30:00 PM 3.5 38.3 0.132 7.06 124.53 12.9
3/10/2021 8:45:00 PM 3.32 37.976 0.13 7.08 121.11 12.97
3/10/2021 9:00:00 PM 3.15 37.67 0.129 7.06 164.75 13.03
3/10/2021 9:15:00 PM 3 37.4 0.127 7.06 107.54 13.1
3/10/2021 9:30:00 PM 2.86 37.148 0.126 7.06 93.38 13.15
3/10/2021 9:45:00 PM 2.72 36.896 0.124 7.01 136.9 13.21
3/10/2021 10:00:00 PM 2.6 36.68 0.123 7.01 137.35 13.25
3/10/2021 10:15:00 PM 2.5 36.5 0.121 7.05 102.03 13.29
3/10/2021 10:30:00 PM 2.39 36.302 0.12 7.06 81.76 13.33
3/10/2021 10:45:00 PM 2.3 36.14 0.12 7.05 88.96 13.37
3/10/2021 11:00:00 PM 2.22 35.996 0.119 7 89.48 13.4
3/10/2021 11:15:00 PM 2.15 35.87 0.119 7.05 84.62 13.43
3/10/2021 11:30:00 PM 2.09 35.762 0.119 7.06 106.34 13.44
3/10/2021 11:45:00 PM 2.04 35.672 0.119 7.04 78.65 13.47
3/11/2021 12:00:00 AM 2 35.6 0.119 7.06 84.61 13.48
3/11/2021 12:15:00 AM 1.95 35.51 0.119 7.05 85.12 13.5
3/11/2021 12:30:00 AM 1.91 35.438 0.119 6.97 72.51 13.51
3/11/2021 12:45:00 AM 1.87 35.366 0.12 7.05 118.38 13.52
3/11/2021 1:00:00 AM 1.83 35.294 0.12 7.04 118.75 13.54
3/11/2021 1:15:00 AM 1.8 35.24 0.12 7 63.05 13.56
3/11/2021 1:30:00 AM 1.77 35.186 0.119 7 66.86 13.56
3/11/2021 1:45:00 AM 1.76 35.168 0.119 7.06 76.64 13.57
3/11/2021 2:00:00 AM 1.74 35.132 0.119 7.06 73.6 13.58
3/11/2021 2:15:00 AM 1.73 35.114 0.119 7.06 63.27 13.58
3/11/2021 2:30:00 AM 1.71 35.078 0.119 7 71.13 13.59
3/11/2021 2:45:00 AM 1.7 35.06 0.119 6.98 51.4 13.59
3/11/2021 3:00:00 AM 1.69 35.042 0.119 7.05 44.49 13.6
3/11/2021 3:15:00 AM 1.69 35.042 0.119 7.02 52.53 13.59
3/11/2021 3:30:00 AM 1.68 35.024 0.118 6.99 53.74 13.6
3/11/2021 3:45:00 AM 1.68 35.024 0.118 7.02 51.14 13.6
3/11/2021 4:00:00 AM 1.68 35.024 0.118 7.04 31.98 13.6
3/11/2021 4:15:00 AM 1.68 35.024 0.118 7.04 52.85 13.6
3/11/2021 4:30:00 AM 1.68 35.024 0.118 7 42.45 13.6
3/11/2021 4:45:00 AM 1.68 35.024 0.118 7.04 61.88 13.6
3/11/2021 5:00:00 AM 1.68 35.024 0.118 6.98 41.19 13.59
3/11/2021 5:15:00 AM 1.69 35.042 0.118 7.03 33.01 13.59
3/11/2021 5:30:00 AM 1.69 35.042 0.118 7.04 39.29 13.59
3/11/2021 5:45:00 AM 1.69 35.042 0.118 6.97 29.49 13.59
3/11/2021 6:00:00 AM 0 32 0 0 0 0
3/11/2021 6:15:00 AM 1.7 35.06 0.118 7.04 40.84 13.58
3/11/2021 6:30:00 AM 1.71 35.078 0.118 7.04 36.56 13.58
3/11/2021 6:45:00 AM 1.71 35.078 0.118 7.02 27.66 13.58
3/11/2021 7:00:00 AM 1.72 35.096 0.118 7.02 34.2 13.59
3/11/2021 7:15:00 AM 1.73 35.114 0.118 7.05 34.83 13.59
3/11/2021 7:30:00 AM 1.75 35.15 0.118 7.06 36.55 13.6
3/11/2021 7:45:00 AM 1.77 35.186 0.118 7.04 30.31 13.62
3/11/2021 8:00:00 AM 1.8 35.24 0.118 6.97 31.28 13.62
3/11/2021 8:15:00 AM 1.82 35.276 0.118 7.05 33.54 13.64
3/11/2021 8:30:00 AM 1.86 35.348 0.118 7.05 26.66 13.66
3/11/2021 8:45:00 AM 1.91 35.438 0.118 7.07 36.08 13.66
3/11/2021 9:00:00 AM 2 35.6 0.118 7.08 24.31 13.68
3/11/2021 9:15:00 AM 2.12 35.816 0.118 7.09 28.17 13.7
3/11/2021 9:30:00 AM 2.26 36.068 0.118 7.1 25.44 13.7
3/11/2021 9:45:00 AM 2.39 36.302 0.118 7.05 25.82 13.69
3/11/2021 10:00:00 AM 2.58 36.644 0.118 7.11 26.12 13.67
3/11/2021 10:15:00 AM 2.68 36.824 0.118 7.11 24.33 13.64
3/11/2021 10:30:00 AM 2.8 37.04 0.118 7.12 31.12 13.59
3/11/2021 10:45:00 AM 2.92 37.256 0.118 7.1 24.59 13.58
3/11/2021 11:00:00 AM 3.1 37.58 0.118 7.13 24.71 13.56
3/11/2021 11:15:00 AM 3.33 37.994 0.118 7.12 24.87 13.52
3/11/2021 11:30:00 AM 3.54 38.372 0.118 7.14 24.13 13.47
3/11/2021 11:45:00 AM 3.75 38.75 0.117 7.16 25.68 13.42
3/11/2021 12:00:00 PM 3.88 38.984 0.117 7.16 24.6 13.36
3/11/2021 12:15:00 PM 4.05 39.29 0.117 7.11 25.16 13.3
3/11/2021 12:30:00 PM 4.21 39.578 0.117 7.21 27.46 13.26
3/11/2021 12:45:00 PM 4.35 39.83 0.117 7.17 25.79 13.2
3/11/2021 1:00:00 PM 4.45 40.01 0.116 7.17 31.59 13.1
3/11/2021 1:15:00 PM 4.55 40.19 0.116 7.11 30.11 13.04
3/11/2021 1:30:00 PM 4.65 40.37 0.116 7.07 37.01 12.99
3/11/2021 1:45:00 PM 4.89 40.802 0.115 7.15 32.57 12.94
3/11/2021 2:00:00 PM 5.02 41.036 0.115 7.13 37.85 12.85
3/11/2021 2:15:00 PM 5.13 41.234 0.114 7.09 80.07 12.72
3/11/2021 2:30:00 PM 5.2 41.36 0.114 7.19 85.29 12.63
3/11/2021 2:45:00 PM 5.25 41.45 0.113 7.09 90.84 12.56
3/11/2021 3:00:00 PM 5.23 41.414 0.112 7.01 82.93 12.51
3/11/2021 3:15:00 PM 5.22 41.396 0.111 7.03 146.53 12.47
3/11/2021 3:30:00 PM 5.23 41.414 0.109 6.97 138.68 12.45
3/11/2021 3:45:00 PM 5.23 41.414 0.108 7.04 187.9 12.43
3/11/2021 4:00:00 PM 5.2 41.36 0.106 6.87 224.07 12.42
3/11/2021 4:15:00 PM 5.15 41.27 0.105 6.93 223.07 12.43
3/11/2021 4:30:00 PM 5.05 41.09 0.103 6.9 274.34 12.45
3/11/2021 4:45:00 PM 4.95 40.91 0.101 6.9 231.96 12.49
3/11/2021 5:00:00 PM 4.83 40.694 0.099 6.88 257.65 12.52
3/11/2021 5:15:00 PM 4.74 40.532 0.098 6.91 287.19 12.55
3/11/2021 5:30:00 PM 4.65 40.37 0.096 6.87 317.61 12.57
3/11/2021 5:45:00 PM 4.58 40.244 0.094 6.85 316.74 12.59
3/11/2021 6:00:00 PM 4.51 40.118 0.093 6.9 283.7 12.6
3/11/2021 6:15:00 PM 4.43 39.974 0.092 6.78 285.43 12.62
3/11/2021 6:30:00 PM 4.37 39.866 0.091 6.82 313.13 12.64
3/11/2021 6:45:00 PM 4.31 39.758 0.091 6.85 250.89 12.64
3/11/2021 7:00:00 PM 4.23 39.614 0.09 6.74 348.43 12.66
3/11/2021 7:15:00 PM 4.16 39.488 0.089 6.82 240.51 12.68
3/11/2021 7:30:00 PM 4.11 39.398 0.089 6.84 220.91 12.69
3/11/2021 7:45:00 PM 4.04 39.272 0.088 6.83 330.83 12.71
3/11/2021 8:00:00 PM 3.98 39.164 0.087 6.76 236.46 12.72
3/11/2021 8:15:00 PM 3.94 39.092 0.087 6.76 239.48 12.74
3/11/2021 8:30:00 PM 3.89 39.002 0.086 6.81 209.06 12.75
3/11/2021 8:45:00 PM 3.83 38.894 0.086 6.82 229.41 12.77
3/11/2021 9:00:00 PM 3.79 38.822 0.085 6.8 182.19 12.79
3/11/2021 9:15:00 PM 3.77 38.786 0.085 6.82 191.37 12.8
3/11/2021 9:30:00 PM 3.75 38.75 0.085 6.83 177.14 12.81
3/11/2021 9:45:00 PM 3.72 38.696 0.085 6.76 171.39 12.82
3/11/2021 10:00:00 PM 3.7 38.66 0.084 6.82 152.88 12.82
3/11/2021 10:15:00 PM 3.69 38.642 0.084 6.74 201.24 12.83
3/11/2021 10:30:00 PM 3.67 38.606 0.084 6.82 189.72 12.84
3/11/2021 10:45:00 PM 3.67 38.606 0.084 6.82 146.74 12.84
3/11/2021 11:00:00 PM 3.65 38.57 0.084 6.83 156.64 12.84
3/11/2021 11:15:00 PM 3.64 38.552 0.084 6.83 134.79 12.84
3/11/2021 11:30:00 PM 3.63 38.534 0.084 6.8 152.53 12.85
3/11/2021 11:45:00 PM 3.6 38.48 0.085 6.82 148.74 12.85
3/12/2021 12:00:00 AM 3.58 38.444 0.085 6.81 110.42 12.86
3/12/2021 12:15:00 AM 3.56 38.408 0.085 6.79 95.77 12.86
3/12/2021 12:30:00 AM 3.54 38.372 0.085 6.83 111.5 12.87
3/12/2021 12:45:00 AM 3.52 38.336 0.085 6.76 108.92 12.87
3/12/2021 1:00:00 AM 3.51 38.318 0.085 6.77 99.89 12.88
3/12/2021 1:15:00 AM 3.52 38.336 0.086 6.84 101.32 12.88
3/12/2021 1:30:00 AM 3.52 38.336 0.086 6.84 87.63 12.89
3/12/2021 1:45:00 AM 3.52 38.336 0.086 6.8 104.88 12.89
3/12/2021 2:00:00 AM 3.51 38.318 0.086 6.81 72.64 12.9
3/12/2021 2:15:00 AM 3.49 38.282 0.086 6.84 88.1 12.91
3/12/2021 2:30:00 AM 3.47 38.246 0.087 6.85 87.25 12.91
3/12/2021 2:45:00 AM 3.46 38.228 0.087 6.85 90.53 12.93
3/12/2021 3:00:00 AM 3.45 38.21 0.087 6.85 82.49 12.93
3/12/2021 3:15:00 AM 3.44 38.192 0.087 6.77 102.85 12.93
3/12/2021 3:30:00 AM 3.42 38.156 0.087 6.85 76.24 12.94
3/12/2021 3:45:00 AM 3.41 38.138 0.088 6.85 75.87 12.95
3/12/2021 4:00:00 AM 3.39 38.102 0.088 6.83 72.43 12.95
3/12/2021 4:15:00 AM 3.37 38.066 0.088 6.85 76.29 12.96
3/12/2021 4:30:00 AM 3.33 37.994 0.088 6.85 124.76 12.97
3/12/2021 4:45:00 AM 3.31 37.958 0.089 6.8 81.31 12.98
3/12/2021 5:00:00 AM 3.27 37.886 0.089 6.85 69.02 12.99
3/12/2021 5:15:00 AM 3.22 37.796 0.089 6.86 65.99 13
3/12/2021 5:30:00 AM 3.18 37.724 0.089 6.78 69.01 13.01
3/12/2021 5:45:00 AM 3.14 37.652 0.089 6.87 70.56 13.02
3/12/2021 6:00:00 AM 3.1 37.58 0.089 6.79 86.15 13.04
3/12/2021 6:15:00 AM 3.06 37.508 0.089 6.86 61.25 13.06
3/12/2021 6:30:00 AM 3.01 37.418 0.09 6.85 62.94 13.07
3/12/2021 6:45:00 AM 2.96 37.328 0.09 6.86 61.25 13.09
3/12/2021 7:00:00 AM 2.92 37.256 0.09 6.86 73.66 13.1
3/12/2021 7:15:00 AM 2.88 37.184 0.09 6.87 71.63 13.12
3/12/2021 7:30:00 AM 2.84 37.112 0.09 6.82 62.11 13.13
3/12/2021 7:45:00 AM 2.81 37.058 0.09 6.88 55.74 13.16
3/12/2021 8:00:00 AM 2.8 37.04 0.09 6.8 74.33 13.18
3/12/2021 8:15:00 AM 2.8 37.04 0.091 6.88 54.51 13.2
3/12/2021 8:30:00 AM 2.81 37.058 0.091 6.85 52.31 13.22
3/12/2021 8:45:00 AM 2.84 37.112 0.091 6.9 58.56 13.23
3/12/2021 9:00:00 AM 2.89 37.202 0.091 6.89 44.39 13.23
3/12/2021 9:15:00 AM 2.96 37.328 0.091 6.87 51.44 13.23
3/12/2021 9:30:00 AM 3.04 37.472 0.091 6.91 50.04 13.24
3/12/2021 9:45:00 AM 3.14 37.652 0.091 6.87 41.93 13.23
3/12/2021 10:00:00 AM 3.24 37.832 0.092 6.93 37.39 13.22
3/12/2021 10:15:00 AM 3.36 38.048 0.092 6.94 45.51 13.21
3/12/2021 10:30:00 AM 3.49 38.282 0.092 6.9 49.65 13.18
3/12/2021 10:45:00 AM 3.63 38.534 0.092 6.91 43.26 13.16
3/12/2021 11:00:00 AM 3.78 38.804 0.092 6.94 42.13 13.12
3/12/2021 11:15:00 AM 3.93 39.074 0.092 6.95 41.52 13.09
3/12/2021 11:30:00 AM 4.1 39.38 0.092 6.87 41.29 13.05
3/12/2021 11:45:00 AM 4.26 39.668 0.092 6.97 40.25 13
3/12/2021 12:00:00 PM 4.43 39.974 0.092 6.96 42.66 12.94
3/12/2021 12:15:00 PM 4.61 40.298 0.092 6.97 41.06 12.9
3/12/2021 12:30:00 PM 4.78 40.604 0.092 6.9 33.7 12.84
3/12/2021 12:45:00 PM 4.95 40.91 0.092 6.97 33 12.79
3/12/2021 1:00:00 PM 5.11 41.198 0.092 6.9 34.92 12.72
3/12/2021 1:15:00 PM 5.27 41.486 0.093 6.99 43.69 12.67
3/12/2021 1:30:00 PM 5.43 41.774 0.093 6.99 41.21 12.6
3/12/2021 1:45:00 PM 5.58 42.044 0.093 6.99 35.47 12.54
3/12/2021 2:00:00 PM 5.72 42.296 0.093 6.99 39.66 12.48
3/12/2021 2:15:00 PM 5.85 42.53 0.093 6.94 34.84 12.42
3/12/2021 2:30:00 PM 5.97 42.746 0.093 6.91 34.63 12.37
3/12/2021 2:45:00 PM 6.08 42.944 0.093 6.98 35.18 12.32
3/12/2021 3:00:00 PM 6.17 43.106 0.093 6.96 44.64 12.27
3/12/2021 3:15:00 PM 6.25 43.25 0.093 6.95 77.55 12.22
3/12/2021 3:30:00 PM 6.3 43.34 0.092 6.95 40.54 12.19
3/12/2021 3:45:00 PM 6.34 43.412 0.092 6.95 39.19 12.15
3/12/2021 4:00:00 PM 6.36 43.448 0.092 6.94 30.37 12.12
3/12/2021 4:15:00 PM 6.36 43.448 0.092 6.95 37.44 12.1
3/12/2021 4:30:00 PM 6.33 43.394 0.092 6.94 32.15 12.08
3/12/2021 4:45:00 PM 6.29 43.322 0.092 6.82 54.48 12.07
3/12/2021 5:00:00 PM 6.22 43.196 0.092 6.91 35.81 12.06
3/12/2021 5:15:00 PM 6.14 43.052 0.092 6.9 44.21 12.06
3/12/2021 5:30:00 PM 6.06 42.908 0.092 6.92 35.39 12.07
3/12/2021 5:45:00 PM 5.97 42.746 0.091 6.88 42.49 12.08
3/12/2021 6:00:00 PM 5.88 42.584 0.091 6.9 40.59 12.1
3/12/2021 6:15:00 PM 5.77 42.386 0.091 6.9 39.92 12.11
3/12/2021 6:30:00 PM 5.66 42.188 0.091 6.87 33.75 12.14
3/12/2021 6:45:00 PM 5.54 41.972 0.091 6.93 39.84 12.17
3/12/2021 7:00:00 PM 5.42 41.756 0.091 6.93 38.34 12.2
3/12/2021 7:15:00 PM 5.3 41.54 0.091 6.87 31.17 12.24
3/12/2021 7:30:00 PM 5.19 41.342 0.09 6.84 35.73 12.27
3/12/2021 7:45:00 PM 5.1 41.18 0.09 6.89 35.7 12.29
3/12/2021 8:00:00 PM 5 41 0.09 6.88 47.74 12.33
3/12/2021 8:15:00 PM 4.9 40.82 0.09 6.83 42.11 12.36
3/12/2021 8:30:00 PM 4.82 40.676 0.09 6.89 36.55 12.4
3/12/2021 8:45:00 PM 4.75 40.55 0.09 6.81 32.05 12.42
3/12/2021 9:00:00 PM 4.67 40.406 0.09 6.89 38.16 12.45
3/12/2021 9:15:00 PM 4.6 40.28 0.09 6.88 33.01 12.48
3/12/2021 9:30:00 PM 4.51 40.118 0.09 6.88 42.1 12.5
3/12/2021 9:45:00 PM 4.43 39.974 0.09 6.89 37.42 12.52
3/12/2021 10:00:00 PM 4.34 39.812 0.09 6.86 37.18 12.56
3/12/2021 10:15:00 PM 4.24 39.632 0.09 6.88 54.44 12.59
3/12/2021 10:30:00 PM 4.15 39.47 0.09 6.89 28.89 12.62
3/12/2021 10:45:00 PM 4.05 39.29 0.09 6.86 34.65 12.66
3/12/2021 11:00:00 PM 3.94 39.092 0.09 6.88 40.84 12.69
3/12/2021 11:15:00 PM 3.83 38.894 0.09 6.87 32.15 12.72
3/12/2021 11:30:00 PM 3.73 38.714 0.091 6.88 34.35 12.76
3/12/2021 11:45:00 PM 3.63 38.534 0.091 6.85 30.62 12.8
3/13/2021 12:00:00 AM 3.54 38.372 0.091 6.88 28.64 12.83
3/13/2021 12:15:00 AM 3.44 38.192 0.091 6.9 32.24 12.87
3/13/2021 12:30:00 AM 3.34 38.012 0.091 6.86 31.68 12.91
3/13/2021 12:45:00 AM 3.23 37.814 0.091 6.89 27.66 12.95
3/13/2021 1:00:00 AM 3.13 37.634 0.091 6.81 24.12 12.98
3/13/2021 1:15:00 AM 3.03 37.454 0.091 6.88 33.25 13.02
3/13/2021 1:30:00 AM 2.94 37.292 0.091 6.89 30.86 13.05
3/13/2021 1:45:00 AM 2.86 37.148 0.092 6.9 29.46 13.09
3/13/2021 2:00:00 AM 2.77 36.986 0.092 6.86 30.02 13.13
3/13/2021 2:15:00 AM 2.68 36.824 0.092 6.9 20.37 13.16
3/13/2021 2:30:00 AM 2.58 36.644 0.092 6.89 28.78 13.19
3/13/2021 2:45:00 AM 2.5 36.5 0.092 6.92 27.67 13.23
3/13/2021 3:00:00 AM 2.42 36.356 0.092 6.84 41.57 13.27
3/13/2021 3:15:00 AM 2.35 36.23 0.092 6.9 24.47 13.3
3/13/2021 3:30:00 AM 2.27 36.086 0.092 6.91 22.62 13.33
3/13/2021 3:45:00 AM 2.18 35.924 0.093 6.9 27.1 13.36
3/13/2021 4:00:00 AM 2.11 35.798 0.093 6.84 30.82 13.39
3/13/2021 4:15:00 AM 2.03 35.654 0.093 6.9 22.38 13.42
3/13/2021 4:30:00 AM 1.97 35.546 0.093 6.9 31.7 13.44
3/13/2021 4:45:00 AM 1.9 35.42 0.093 6.9 25.59 13.47
3/13/2021 5:00:00 AM 1.83 35.294 0.093 6.9 24.47 13.51
3/13/2021 5:15:00 AM 1.76 35.168 0.093 6.89 21.83 13.53
3/13/2021 5:30:00 AM 1.7 35.06 0.093 6.88 23.33 13.56
3/13/2021 5:45:00 AM 1.63 34.934 0.094 6.88 18.04 13.6
3/13/2021 6:00:00 AM 1.57 34.826 0.094 6.92 28.74 13.62
3/13/2021 6:15:00 AM 1.51 34.718 0.087 6.86 21.85 13.65
3/13/2021 6:30:00 AM 1.45 34.61 0.094 6.9 21.96 13.67
3/13/2021 6:45:00 AM 1.39 34.502 0.094 6.85 20.93 13.7
3/13/2021 7:00:00 AM 1.34 34.412 0.094 6.91 21.19 13.73
3/13/2021 7:15:00 AM 1.3 34.34 0.095 6.85 19.76 13.76
3/13/2021 7:30:00 AM 1.27 34.286 0.095 6.92 20.13 13.79
3/13/2021 7:45:00 AM 1.25 34.25 0.085 6.92 18.42 13.82
3/13/2021 8:00:00 AM 1.24 34.232 0.093 6.93 18.98 13.86
3/13/2021 8:15:00 AM 1.22 34.196 0.095 6.9 19.71 13.89
3/13/2021 8:30:00 AM 1.2 34.16 0.084 6.89 21.28 13.91
3/13/2021 8:45:00 AM 1.25 34.25 0.095 6.95 20.07 13.93
3/13/2021 9:00:00 AM 1.29 34.322 0.095 6.96 19.37 13.95
3/13/2021 9:15:00 AM 1.35 34.43 0.096 6.98 18.22 13.96
3/13/2021 9:30:00 AM 1.43 34.574 0.096 6.98 17.14 13.96
3/13/2021 9:45:00 AM 1.53 34.754 0.096 6.93 19.92 13.97
3/13/2021 10:00:00 AM 1.65 34.97 0.096 6.99 17.45 13.96
3/13/2021 10:15:00 AM 1.78 35.204 0.096 7 17.01 13.93
3/13/2021 10:30:00 AM 1.92 35.456 0.096 6.95 15.43 13.91
3/13/2021 10:45:00 AM 2.08 35.744 0.096 6.97 15.41 13.89
3/13/2021 11:00:00 AM 2.23 36.014 0.096 7.02 16.88 13.85
3/13/2021 11:15:00 AM 2.37 36.266 0.096 6.94 12.6 13.82
3/13/2021 11:30:00 AM 2.52 36.536 0.096 7.02 16.49 13.78
3/13/2021 11:45:00 AM 2.67 36.806 0.096 7 16.34 13.74
3/13/2021 12:00:00 PM 2.83 37.094 0.096 7.02 15.54 13.7
3/13/2021 12:15:00 PM 2.99 37.382 0.096 6.98 15.83 13.64
3/13/2021 12:30:00 PM 3.14 37.652 0.096 7.01 15.27 13.58
3/13/2021 12:45:00 PM 3.29 37.922 0.096 7.02 15.09 13.54
3/13/2021 1:00:00 PM 3.43 38.174 0.096 7 16.14 13.48
3/13/2021 1:15:00 PM 3.57 38.426 0.097 6.99 14.89 13.42
3/13/2021 1:30:00 PM 3.7 38.66 0.097 7.02 14.77 13.36
3/13/2021 1:45:00 PM 3.83 38.894 0.097 7.04 14.29 13.3
3/13/2021 2:00:00 PM 3.96 39.128 0.097 7.01 14.53 13.24
3/13/2021 2:15:00 PM 4.07 39.326 0.097 6.97 14.34 13.18
3/13/2021 2:30:00 PM 4.18 39.524 0.097 7.01 14.56 13.13
3/13/2021 2:45:00 PM 4.28 39.704 0.097 7 14.4 13.07
3/13/2021 3:00:00 PM 4.37 39.866 0.097 7.04 14.47 13.01
3/13/2021 3:15:00 PM 4.45 40.01 0.097 7.02 14.8 12.96
3/13/2021 3:30:00 PM 4.52 40.136 0.097 7.02 14.66 12.91
3/13/2021 3:45:00 PM 4.58 40.244 0.097 7.03 14.81 12.87
3/13/2021 4:00:00 PM 4.62 40.316 0.098 7.01 14.24 12.83
3/13/2021 4:15:00 PM 4.65 40.37 0.098 6.98 14.75 12.79
3/13/2021 4:30:00 PM 4.67 40.406 0.098 7.01 14.26 12.75
3/13/2021 4:45:00 PM 4.67 40.406 0.098 7 14.31 12.72
3/13/2021 5:00:00 PM 4.66 40.388 0.098 7.01 14.12 12.69
3/13/2021 5:15:00 PM 4.63 40.334 0.098 6.99 13.6 12.67
3/13/2021 5:30:00 PM 4.59 40.262 0.098 6.92 14.37 12.65
3/13/2021 5:45:00 PM 4.54 40.172 0.098 6.99 13.97 12.64
3/13/2021 6:00:00 PM 4.49 40.082 0.098 6.94 10.34 12.62
3/13/2021 6:15:00 PM 4.44 39.992 0.098 6.98 14.46 12.61
3/13/2021 6:30:00 PM 4.37 39.866 0.098 6.96 14.52 12.61
3/13/2021 6:45:00 PM 4.3 39.74 0.098 6.86 14.62 12.61
3/13/2021 7:00:00 PM 4.23 39.614 0.098 6.95 13.77 12.62
3/13/2021 7:15:00 PM 4.15 39.47 0.098 6.91 14.41 12.63
3/13/2021 7:30:00 PM 4.07 39.326 0.099 6.95 14.4 12.64
3/13/2021 7:45:00 PM 3.98 39.164 0.099 6.94 14.4 12.67
3/13/2021 8:00:00 PM 3.88 38.984 0.099 6.94 14.41 12.69
3/13/2021 8:15:00 PM 3.78 38.804 0.099 6.93 14.43 12.71
3/13/2021 8:30:00 PM 3.67 38.606 0.099 6.94 14.68 12.75
3/13/2021 8:45:00 PM 3.57 38.426 0.099 6.93 14.23 12.78
3/13/2021 9:00:00 PM 3.47 38.246 0.099 6.79 14.25 12.82
3/13/2021 9:15:00 PM 3.38 38.084 0.099 6.95 13.84 12.84
3/13/2021 9:30:00 PM 3.28 37.904 0.1 6.95 13.37 12.87
3/13/2021 9:45:00 PM 3.2 37.76 0.1 6.95 13.69 12.9
3/13/2021 10:00:00 PM 3.11 37.598 0.1 6.95 13.6 12.93
3/13/2021 10:15:00 PM 3.03 37.454 0.1 6.94 13.46 12.95
3/13/2021 10:30:00 PM 2.96 37.328 0.1 6.95 13.3 12.99
3/13/2021 10:45:00 PM 2.89 37.202 0.099 6.95 13.6 13
3/13/2021 11:00:00 PM 2.83 37.094 0.1 6.93 13.72 13.02
3/13/2021 11:15:00 PM 2.77 36.986 0.1 6.94 13.02 13.05
3/13/2021 11:30:00 PM 2.72 36.896 0.1 6.95 13.75 13.07
3/13/2021 11:45:00 PM 2.66 36.788 0.095 6.93 12.66 13.09
3/14/2021 12:00:00 AM 2.61 36.698 0.095 7.01 13.21 13.11
3/14/2021 12:15:00 AM 2.56 36.608 0.098 6.91 12.81 13.12
3/14/2021 12:30:00 AM 2.51 36.518 0.1 6.93 13.53 13.14
3/14/2021 12:45:00 AM 2.46 36.428 0.101 6.93 13.12 13.16
3/14/2021 1:00:00 AM 2.41 36.338 0.101 6.94 12.66 13.17
3/14/2021 1:15:00 AM 2.36 36.248 0.101 6.95 12.98 13.19
3/14/2021 1:30:00 AM 2.32 36.176 0.101 6.96 12.69 13.21
3/14/2021 1:45:00 AM 2.28 36.104 0.102 6.95 13.02 13.22
3/14/2021 3:00:00 AM 2.12 35.816 0.102 6.95 12.32 13.29
3/14/2021 4:15:00 AM 2.1 35.78 0.1 6.95 12.31 13.3
3/14/2021 4:30:00 AM 2.08 35.744 0.102 6.96 11.87 13.31
3/14/2021 4:45:00 AM 2.07 35.726 0.103 6.87 12.32 13.32
3/14/2021 5:00:00 AM 2.06 35.708 0.102 6.94 12.19 13.33
3/14/2021 5:15:00 AM 2.05 35.69 0.097 6.95 12.12 13.33
3/14/2021 5:30:00 AM 2.03 35.654 0.103 6.95 11.95 13.33
3/14/2021 5:45:00 AM 2.01 35.618 0.097 6.95 12.11 13.34
3/14/2021 6:00:00 AM 1.98 35.564 0.102 6.95 13.91 13.34
3/14/2021 6:15:00 AM 1.95 35.51 0.097 6.9 12.79 13.35
3/14/2021 6:30:00 AM 1.91 35.438 0.101 6.94 13.04 13.36
3/14/2021 6:45:00 AM 1.87 35.366 0.1 6.95 11.88 13.37
3/14/2021 7:00:00 AM 1.84 35.312 0.103 6.94 12.22 13.38
3/14/2021 7:15:00 AM 1.81 35.258 0.104 6.97 11.34 13.39
3/14/2021 7:30:00 AM 1.79 35.222 0.104 6.97 11.46 13.41
3/14/2021 7:45:00 AM 1.76 35.168 0.104 6.97 11.01 13.43
3/14/2021 8:00:00 AM 1.73 35.114 0.104 6.98 10.79 13.46
3/14/2021 8:15:00 AM 1.72 35.096 0.104 6.98 11.05 13.49
3/14/2021 8:30:00 AM 1.72 35.096 0.104 6.99 10.8 13.52
3/14/2021 8:45:00 AM 1.73 35.114 0.104 6.98 10.93 13.55
3/14/2021 9:00:00 AM 1.76 35.168 0.104 7.02 10.72 13.57
3/14/2021 9:15:00 AM 1.8 35.24 0.104 7.02 10.82 13.59
3/14/2021 9:30:00 AM 1.85 35.33 0.104 7.03 10.7 13.61
3/14/2021 9:45:00 AM 1.92 35.456 0.104 7.03 10.64 13.61
3/14/2021 10:00:00 AM 1.97 35.546 0.104 7.05 10.11 13.62
3/14/2021 10:15:00 AM 2.03 35.654 0.104 7.05 10.35 13.63
3/14/2021 10:30:00 AM 2.12 35.816 0.104 7.06 10.34 13.62
3/14/2021 10:45:00 AM 2.26 36.068 0.104 7.05 9.97 13.61
3/14/2021 11:00:00 AM 2.33 36.194 0.104 7.05 10.11 13.59
3/14/2021 11:15:00 AM 2.46 36.428 0.104 7.08 10.05 13.58
3/14/2021 11:30:00 AM 2.56 36.608 0.105 7.06 10.21 13.55
3/14/2021 11:45:00 AM 2.59 36.662 0.105 7.06 10.02 13.53
3/14/2021 12:00:00 PM 2.61 36.698 0.105 7.06 9.86 13.52
3/14/2021 12:15:00 PM 2.62 36.716 0.105 7.07 9.99 13.51
3/14/2021 12:30:00 PM 2.68 36.824 0.105 7.08 10.19 13.5
3/14/2021 12:45:00 PM 2.75 36.95 0.105 7.08 10.07 13.48
3/14/2021 1:00:00 PM 2.83 37.094 0.105 7.09 10.08 13.46
3/14/2021 1:15:00 PM 2.96 37.328 0.105 7.1 9.96 13.44
3/14/2021 1:30:00 PM 2.93 37.274 0.105 7.08 9.73 13.4
3/14/2021 1:45:00 PM 3.09 37.562 0.105 7.1 10.08 13.38
3/14/2021 2:00:00 PM 3.13 37.634 0.105 7.07 9.72 13.36
3/14/2021 2:15:00 PM 3.21 37.778 0.105 7.09 9.84 13.33
3/14/2021 2:30:00 PM 3.32 37.976 0.105 7.11 9.91 13.31
3/14/2021 2:45:00 PM 3.34 38.012 0.105 7.09 9.64 13.28
3/14/2021 3:00:00 PM 3.4 38.12 0.105 7.18 11.45 13.25
3/14/2021 3:15:00 PM 3.49 38.282 0.105 7.1 9.42 13.23
3/14/2021 3:30:00 PM 3.51 38.318 0.105 7.09 9.27 13.2
3/14/2021 3:45:00 PM 3.61 38.498 0.105 7.12 9.46 13.17
3/14/2021 4:00:00 PM 3.61 38.498 0.105 7.1 9.42 13.14
3/14/2021 4:15:00 PM 3.64 38.552 0.105 7.1 9.29 13.12
3/14/2021 4:30:00 PM 3.65 38.57 0.106 7.09 9.44 13.12
3/14/2021 4:45:00 PM 3.61 38.498 0.106 7.1 9.51 13.11
3/14/2021 5:00:00 PM 3.58 38.444 0.106 7.09 9.6 13.09
3/14/2021 5:15:00 PM 3.58 38.444 0.106 7.11 9.55 13.08
3/14/2021 5:30:00 PM 3.54 38.372 0.106 7.09 9.88 13.07
3/14/2021 5:45:00 PM 3.5 38.3 0.106 7.09 9.64 13.06
3/14/2021 6:00:00 PM 3.43 38.174 0.106 7.08 9.82 13.05
3/14/2021 6:15:00 PM 3.37 38.066 0.106 7.05 9.69 13.04
3/14/2021 6:30:00 PM 3.31 37.958 0.106 7.08 9.89 13.04
3/14/2021 6:45:00 PM 3.25 37.85 0.107 7.07 9.29 13.04
3/14/2021 7:00:00 PM 3.17 37.706 0.107 7.06 9.2 13.04
3/14/2021 7:15:00 PM 3.12 37.616 0.107 7.07 9.5 13.03
3/14/2021 7:30:00 PM 3.06 37.508 0.107 7.06 9.26 13.04
3/14/2021 7:45:00 PM 2.98 37.364 0.107 7.05 9.26 13.04
3/14/2021 8:00:00 PM 2.9 37.22 0.107 7.04 9.22 13.05
3/14/2021 8:15:00 PM 2.82 37.076 0.107 7.05 9.34 13.07
3/14/2021 8:30:00 PM 2.74 36.932 0.107 7.04 9.36 13.09
3/14/2021 8:45:00 PM 2.65 36.77 0.107 7.02 9.48 13.1
3/14/2021 9:00:00 PM 2.58 36.644 0.107 7.03 9.53 13.12
3/14/2021 9:15:00 PM 2.49 36.482 0.107 7.02 9.48 13.15
3/14/2021 9:30:00 PM 2.41 36.338 0.108 7.02 9.56 13.18
3/14/2021 9:45:00 PM 2.33 36.194 0.108 7.01 9.66 13.2
3/14/2021 10:00:00 PM 2.24 36.032 0.108 7.01 9.9 13.24
3/14/2021 10:15:00 PM 2.15 35.87 0.108 7.01 10.03 13.27
3/14/2021 10:30:00 PM 2.04 35.672 0.108 7.01 9.97 13.31
3/14/2021 10:45:00 PM 1.95 35.51 0.108 7.02 9.45 13.34
3/14/2021 11:00:00 PM 1.84 35.312 0.108 6.93 9.93 13.4
3/14/2021 11:15:00 PM 1.73 35.114 0.108 7.02 9.81 13.44
3/14/2021 11:30:00 PM 1.63 34.934 0.108 7.02 9.81 13.47
3/14/2021 11:45:00 PM 1.53 34.754 0.108 7.02 10.02 13.52
3/15/2021 12:00:00 AM 1.44 34.592 0.108 6.99 9.94 13.56
3/15/2021 12:15:00 AM 1.35 34.43 0.109 7.02 9.63 13.6
3/15/2021 12:30:00 AM 1.27 34.286 0.109 7.01 9.05 13.64
3/15/2021 12:45:00 AM 1.2 34.16 0.109 7.01 9.44 13.67
3/15/2021 1:00:00 AM 1.12 34.016 0.109 6.92 9.39 13.71
3/15/2021 1:15:00 AM 1.04 33.872 0.109 7.02 9.37 13.75
3/15/2021 1:30:00 AM 0.97 33.746 0.109 7.01 9.22 13.78
3/15/2021 1:45:00 AM 0.9 33.62 0.109 7.01 9.15 13.81
3/15/2021 2:00:00 AM 0.82 33.476 0.11 7.01 9.14 13.84
3/15/2021 2:15:00 AM 0.75 33.35 0.11 7.02 9.16 13.87
3/15/2021 2:30:00 AM 0.68 33.224 0.11 7.03 8.81 13.89
3/15/2021 2:45:00 AM 0.6 33.08 0.11 7.02 8.77 13.94
3/15/2021 3:00:00 AM 0.53 32.954 0.11 7.02 8.8 13.97
3/15/2021 3:15:00 AM 0.45 32.81 0.11 7.02 9.07 14
3/15/2021 3:30:00 AM 0.37 32.666 0.11 7.01 8.78 14.03
3/15/2021 3:45:00 AM 0.29 32.522 0.111 7.01 8.74 14.06
3/15/2021 4:00:00 AM 0.24 32.432 0.111 7.02 8.85 14.08
3/15/2021 4:15:00 AM 0.17 32.306 0.111 7 8.65 14.11
3/15/2021 4:30:00 AM 0.11 32.198 0.111 7.03 8.79 14.14
3/15/2021 4:45:00 AM 0.05 32.09 0.111 7.02 9.03 14.17
3/15/2021 5:00:00 AM 0 32 0.111 6.89 8.69 14.19
3/15/2021 5:15:00 AM -0.05 31.91 0.112 7.03 8.99 14.22
3/15/2021 5:30:00 AM -0.03 31.946 0.112 7.04 9.2 14.25
3/15/2021 5:45:00 AM -0.02 31.964 0.112 7.06 9.65 14.27
3/15/2021 6:00:00 AM -0.02 31.964 0.112 7.08 10.11 14.29
3/15/2021 6:15:00 AM -0.02 31.964 0.112 7.08 10.06 14.3
3/15/2021 6:30:00 AM -0.02 31.964 0.111 7.07 10.03 14.3
3/15/2021 6:45:00 AM -0.02 31.964 0.112 7.08 9.47 14.31
3/15/2021 7:00:00 AM -0.02 31.964 0.113 7.08 9.12 14.31
3/15/2021 7:15:00 AM -0.02 31.964 0.113 7.08 9.37 14.31
3/15/2021 7:30:00 AM -0.02 31.964 0.113 7.07 8.97 14.33
3/15/2021 7:45:00 AM -0.02 31.964 0.113 6.93 8.5 14.35
3/15/2021 8:00:00 AM -0.02 31.964 0.113 7.09 8.24 14.38
3/15/2021 8:15:00 AM -0.02 31.964 0.114 7.09 8.19 14.41
3/15/2021 8:30:00 AM -0.02 31.964 0.114 7.09 8.56 14.45
3/15/2021 8:45:00 AM -0.02 31.964 0.114 7.1 8.17 14.48
3/15/2021 9:00:00 AM -0.02 31.964 0.114 7.11 8.11 14.51
3/15/2021 9:15:00 AM -0.02 31.964 0.115 7.12 7.96 14.54
3/15/2021 9:30:00 AM -0.01 31.982 0.115 7.13 7.35 14.55
3/15/2021 9:45:00 AM -0.01 31.982 0.115 7.14 8.15 14.56
3/15/2021 10:00:00 AM -0.01 31.982 0.115 7.14 7.63 14.56
3/15/2021 10:15:00 AM 0.01 32.018 0.115 7.14 8.66 14.52
3/15/2021 10:30:00 AM 0.06 32.108 0.115 7.11 8.65 14.52
3/15/2021 10:45:00 AM 0.09 32.162 0.116 7.12 8.84 14.5
3/15/2021 11:00:00 AM 0.15 32.27 0.116 7.11 8.78 14.48
3/15/2021 11:15:00 AM 0.21 32.378 0.116 7.14 8.84 14.46
3/15/2021 11:30:00 AM 0.5 32.9 0.117 7.15 8.51 14.44
3/15/2021 11:45:00 AM 0.8 33.44 0.118 7.17 8.44 14.4
3/15/2021 12:00:00 PM 1.02 33.836 0.119 7.18 7.96 14.37
3/15/2021 12:15:00 PM 1.2 34.16 0.12 7.17 8.23 14.34
3/15/2021 12:30:00 PM 1.37 34.466 0.121 7.16 8.01 14.3
3/15/2021 12:45:00 PM 1.52 34.736 0.121 7.16 7.82 14.26
3/15/2021 1:00:00 PM 1.66 34.988 0.121 7.16 7.82 14.22
3/15/2021 1:15:00 PM 1.79 35.222 0.121 7.17 7.99 14.18
3/15/2021 1:30:00 PM 1.89 35.402 0.119 7.15 8.04 14.14
3/15/2021 1:45:00 PM 1.96 35.528 0.118 7.15 8.3 14.12
3/15/2021 2:00:00 PM 2.04 35.672 0.117 7.15 8.3 14.09
3/15/2021 2:15:00 PM 2.1 35.78 0.116 7.16 8.28 14.06
3/15/2021 2:30:00 PM 2.15 35.87 0.116 7.15 8.64 14.03
3/15/2021 2:45:00 PM 2.18 35.924 0.116 7.15 8.74 14
3/15/2021 3:00:00 PM 2.22 35.996 0.116 7.16 8.72 13.97
3/15/2021 3:15:00 PM 2.27 36.086 0.117 7.14 8.51 13.93
3/15/2021 3:30:00 PM 2.31 36.158 0.117 7.17 8.36 13.9
3/15/2021 3:45:00 PM 2.34 36.212 0.118 7.14 8.28 13.86
3/15/2021 4:00:00 PM 2.35 36.23 0.118 7.15 8.22 13.84
3/15/2021 4:15:00 PM 2.36 36.248 0.118 7.15 8.42 13.81
3/15/2021 4:30:00 PM 2.34 36.212 0.118 7.16 8.35 13.79
3/15/2021 4:45:00 PM 2.32 36.176 0.118 7.16 8.38 13.76
3/15/2021 5:00:00 PM 2.32 36.176 0.118 7.04 8.27 13.74
3/15/2021 5:15:00 PM 2.34 36.212 0.118 7.17 8.61 13.72
3/15/2021 5:30:00 PM 2.32 36.176 0.117 7.16 8.35 13.71
3/15/2021 5:45:00 PM 2.31 36.158 0.116 7.14 8.41 13.67
3/15/2021 6:00:00 PM 2.31 36.158 0.116 7.16 8.73 13.65
3/15/2021 6:15:00 PM 2.3 36.14 0.115 7.17 8.83 13.62
3/15/2021 6:30:00 PM 2.3 36.14 0.115 7.15 8.72 13.6
3/15/2021 6:45:00 PM 2.27 36.086 0.115 7.14 8.71 13.58
3/15/2021 7:00:00 PM 2.23 36.014 0.114 7.08 8.67 13.56
3/15/2021 7:15:00 PM 2.19 35.942 0.114 7.13 8.79 13.53
3/15/2021 7:30:00 PM 2.13 35.834 0.114 7.12 9.13 13.51
3/15/2021 7:45:00 PM 2.07 35.726 0.114 7.11 8.83 13.5
3/15/2021 8:00:00 PM 2.01 35.618 0.114 7.11 8.94 13.5
3/15/2021 8:15:00 PM 1.95 35.51 0.115 7.09 9.39 13.5
3/15/2021 8:30:00 PM 1.9 35.42 0.115 7.09 8.88 13.5
3/15/2021 8:45:00 PM 1.85 35.33 0.115 7.09 8.96 13.51
3/15/2021 9:00:00 PM 1.81 35.258 0.115 7.09 9.15 13.51
3/15/2021 9:15:00 PM 1.78 35.204 0.116 7.09 8.98 13.51
3/15/2021 9:30:00 PM 1.74 35.132 0.116 7.1 9.04 13.52
3/15/2021 9:45:00 PM 1.71 35.078 0.116 7.1 8.84 13.53
3/15/2021 10:00:00 PM 1.68 35.024 0.117 7.09 9.06 13.53
3/15/2021 10:15:00 PM 1.64 34.952 0.117 7.1 8.93 13.53
3/15/2021 10:30:00 PM 1.6 34.88 0.117 7.09 9.01 13.55
3/15/2021 10:45:00 PM 1.54 34.772 0.117 7.07 8.79 13.57
3/15/2021 11:00:00 PM 1.49 34.682 0.117 7.07 8.53 13.59
3/15/2021 11:15:00 PM 1.43 34.574 0.117 7.1 8.38 13.61
3/15/2021 11:30:00 PM 1.37 34.466 0.118 7.09 8.47 13.63
3/15/2021 11:45:00 PM 1.3 34.34 0.118 7.09 8.52 13.66
3/16/2021 12:00:00 AM 1.23 34.214 0.118 7.09 8.06 13.69
3/16/2021 12:15:00 AM 1.15 34.07 0.118 7.09 8.32 13.72
3/16/2021 12:30:00 AM 1.08 33.944 0.118 7.09 8.28 13.76
3/16/2021 12:45:00 AM 1 33.8 0.118 7.07 8.48 13.79
3/16/2021 1:00:00 AM 0.94 33.692 0.118 7.08 8.01 13.82
3/16/2021 1:15:00 AM 0.88 33.584 0.118 7.05 8.22 13.85
3/16/2021 1:30:00 AM 0.82 33.476 0.118 7.05 8.04 13.87
3/16/2021 1:45:00 AM 0.76 33.368 0.118 7.09 7.75 13.89
3/16/2021 2:00:00 AM 0.7 33.26 0.118 7.06 7.89 13.92
3/16/2021 2:15:00 AM 0.65 33.17 0.118 7.01 7.79 13.95
3/16/2021 2:30:00 AM 0.6 33.08 0.119 7.08 7.78 13.96
3/16/2021 2:45:00 AM 0.55 32.99 0.119 7.08 7.34 13.99
3/16/2021 3:00:00 AM 0.51 32.918 0.119 7.07 7.75 14.01
3/16/2021 3:15:00 AM 0.46 32.828 0.119 7.01 7.56 14.03
3/16/2021 3:30:00 AM 0.43 32.774 0.119 7.09 7.88 14.04
3/16/2021 3:45:00 AM 0.39 32.702 0.119 7.08 7.67 14.06
3/16/2021 4:00:00 AM 0.35 32.63 0.119 7.07 7.43 14.07
3/16/2021 4:15:00 AM 0.33 32.594 0.119 7.07 7.52 14.08
3/16/2021 4:30:00 AM 0.31 32.558 0.119 7.07 7.52 14.1
3/16/2021 4:45:00 AM 0.28 32.504 0.119 7.08 7.35 14.1
3/16/2021 5:00:00 AM 0.26 32.468 0.119 7.07 7.25 14.11
3/16/2021 5:15:00 AM 0.24 32.432 0.12 7.07 7.11 14.12
3/16/2021 5:30:00 AM 0.21 32.378 0.12 7.08 7.05 14.12
3/16/2021 5:45:00 AM 0.19 32.342 0.12 7.07 6.95 14.13
3/16/2021 6:00:00 AM 0.17 32.306 0.12 7.08 7.1 14.13
3/16/2021 6:15:00 AM 0.15 32.27 0.12 7.08 6.91 14.14
3/16/2021 6:30:00 AM 0.13 32.234 0.12 7.08 6.57 14.15
3/16/2021 6:45:00 AM 0.12 32.216 0.12 7.08 6.92 14.15
3/16/2021 7:00:00 AM 0.11 32.198 0.12 7.08 7.09 14.16
3/16/2021 7:15:00 AM 0.1 32.18 0.12 7.11 6.85 14.17
3/16/2021 7:30:00 AM 0.09 32.162 0.12 7.05 6.56 14.17
3/16/2021 7:45:00 AM 0.09 32.162 0.121 7.09 6.82 14.19
3/16/2021 8:00:00 AM 0.09 32.162 0.121 7.11 6.57 14.2
3/16/2021 8:15:00 AM 0.09 32.162 0.121 7.1 6.77 14.24
3/16/2021 8:30:00 AM 0.1 32.18 0.121 7.13 6.51 14.27
3/16/2021 8:45:00 AM 0.11 32.198 0.121 7.1 6.51 14.29
3/16/2021 9:00:00 AM 0.12 32.216 0.121 7.13 6.36 14.3
3/16/2021 9:15:00 AM 0.13 32.234 0.122 7.13 6.49 14.32
3/16/2021 9:30:00 AM 0.15 32.27 0.122 7.12 6.27 14.33
3/16/2021 9:45:00 AM 0.17 32.306 0.122 7.12 6.28 14.34
3/16/2021 10:00:00 AM 0.2 32.36 0.122 7.15 6.04 14.35
3/16/2021 10:15:00 AM 0.26 32.468 0.122 7.15 5.93 14.37
3/16/2021 10:30:00 AM 0.31 32.558 0.122 7.17 6.15 14.38
3/16/2021 10:45:00 AM 0.34 32.612 0.122 7.18 6.04 14.38
3/16/2021 11:00:00 AM 0.38 32.684 0.122 7.18 6.12 14.37
3/16/2021 11:15:00 AM 0.42 32.756 0.122 7.17 6.3 14.38
3/16/2021 11:30:00 AM 0.44 32.792 0.122 7.16 5.88 14.36
3/16/2021 11:45:00 AM 0.45 32.81 0.123 7.11 5.82 14.36
3/16/2021 12:00:00 PM 0.48 32.864 0.123 7.18 5.93 14.36
3/16/2021 12:15:00 PM 0.53 32.954 0.123 7.17 5.63 14.36
3/16/2021 12:30:00 PM 0.6 33.08 0.122 7.2 5.72 14.36
3/16/2021 12:45:00 PM 0.65 33.17 0.122 7.19 5.78 14.35
3/16/2021 1:00:00 PM 0.68 33.224 0.123 7.13 5.71 14.32
3/16/2021 1:15:00 PM 0.71 33.278 0.123 7.2 5.62 14.31
3/16/2021 1:30:00 PM 0.75 33.35 0.123 7.19 5.91 14.29
3/16/2021 1:45:00 PM 0.79 33.422 0.123 7.19 5.65 14.28
3/16/2021 2:00:00 PM 0.83 33.494 0.123 7.14 5.75 14.27
3/16/2021 2:15:00 PM 0.9 33.62 0.123 7.2 5.7 14.25
3/16/2021 2:30:00 PM 0.94 33.692 0.123 7.21 5.77 14.23
3/16/2021 2:45:00 PM 0.98 33.764 0.123 7.17 5.39 14.21
3/16/2021 3:00:00 PM 1.01 33.818 0.123 7.2 5.63 14.18
3/16/2021 3:15:00 PM 1.04 33.872 0.124 7.19 5.69 14.16
3/16/2021 3:30:00 PM 1.05 33.89 0.123 7.21 5.57 14.14
3/16/2021 3:45:00 PM 1.05 33.89 0.123 7.2 5.36 14.13
3/16/2021 4:00:00 PM 1.07 33.926 0.124 7.15 5.59 14.12
3/16/2021 4:15:00 PM 1.08 33.944 0.124 7.19 5.49 14.1
3/16/2021 4:30:00 PM 1.09 33.962 0.124 7.21 5.53 14.09
3/16/2021 4:45:00 PM 1.09 33.962 0.124 7.19 5.42 14.06
3/16/2021 5:00:00 PM 1.09 33.962 0.124 7.19 5.39 14.05
3/16/2021 5:15:00 PM 1.11 33.998 0.124 7.19 5.54 14.03
3/16/2021 5:30:00 PM 1.13 34.034 0.124 7.19 5.4 14.04
3/16/2021 5:45:00 PM 1.15 34.07 0.124 7.2 5.42 14.02
3/16/2021 6:00:00 PM 1.17 34.106 0.124 7.2 5.4 14
3/16/2021 6:15:00 PM 1.18 34.124 0.124 7.13 5.36 13.96
3/16/2021 6:30:00 PM 1.18 34.124 0.124 7.2 5.37 13.94
3/16/2021 6:45:00 PM 1.18 34.124 0.124 7.14 5.3 13.9
3/16/2021 7:00:00 PM 1.17 34.106 0.124 7.16 5.64 13.87
3/16/2021 7:15:00 PM 1.17 34.106 0.124 7.17 5.36 13.84
3/16/2021 7:30:00 PM 1.16 34.088 0.124 7.13 5.24 13.82
3/16/2021 7:45:00 PM 1.16 34.088 0.124 7.1 5.3 13.81
3/16/2021 8:00:00 PM 1.16 34.088 0.125 7.16 5.27 13.79
3/16/2021 8:15:00 PM 1.16 34.088 0.125 7.1 5.4 13.78
3/16/2021 8:30:00 PM 1.16 34.088 0.125 7.13 5.44 13.77
3/16/2021 8:45:00 PM 1.16 34.088 0.125 7.07 5.44 13.77
3/16/2021 9:00:00 PM 1.16 34.088 0.125 7.13 5.52 13.76
3/16/2021 9:15:00 PM 1.16 34.088 0.125 7.13 5.3 13.75
3/16/2021 9:30:00 PM 1.16 34.088 0.125 7.14 5.17 13.75
3/16/2021 9:45:00 PM 1.17 34.106 0.125 7.1 5.7 13.75
3/16/2021 10:00:00 PM 1.17 34.106 0.125 7.14 5.39 13.74
3/16/2021 10:15:00 PM 1.17 34.106 0.125 7.13 5.39 13.74
3/16/2021 10:30:00 PM 1.17 34.106 0.125 7.07 5.59 13.73
3/16/2021 10:45:00 PM 1.18 34.124 0.125 7.13 5.61 13.73
3/16/2021 11:00:00 PM 1.18 34.124 0.125 7.08 5.44 13.72
3/16/2021 11:15:00 PM 1.18 34.124 0.125 7.13 5.41 13.72
3/16/2021 11:30:00 PM 1.18 34.124 0.125 7.11 5.22 13.72
3/16/2021 11:45:00 PM 1.19 34.142 0.125 7.1 5.15 13.72
3/17/2021 12:00:00 AM 1.19 34.142 0.125 7.11 5.35 13.72
3/17/2021 12:15:00 AM 1.19 34.142 0.125 7.11 5.39 13.71
3/17/2021 12:30:00 AM 1.19 34.142 0.125 7.11 5.49 13.71
3/17/2021 12:45:00 AM 1.19 34.142 0.125 7.13 5.51 13.71
3/17/2021 1:00:00 AM 1.19 34.142 0.125 7.11 5.37 13.71
3/17/2021 1:15:00 AM 1.19 34.142 0.125 7.08 5.24 13.71
3/17/2021 1:30:00 AM 1.19 34.142 0.125 7.06 5.32 13.71
3/17/2021 1:45:00 AM 1.19 34.142 0.125 7.12 5.26 13.7
3/17/2021 2:00:00 AM 1.19 34.142 0.125 7.06 5.37 13.71
3/17/2021 2:15:00 AM 1.19 34.142 0.125 7.11 5.47 13.7
3/17/2021 2:30:00 AM 1.19 34.142 0.125 7.11 5.42 13.7
3/17/2021 2:45:00 AM 1.19 34.142 0.125 7.12 5.27 13.7
3/17/2021 3:00:00 AM 1.2 34.16 0.125 7.12 5.47 13.7
3/17/2021 3:15:00 AM 1.2 34.16 0.125 7.06 5.34 13.7
3/17/2021 3:30:00 AM 1.2 34.16 0.125 7.11 5.26 13.7
3/17/2021 3:45:00 AM 1.2 34.16 0.125 7.12 5.39 13.7
3/17/2021 4:00:00 AM 1.2 34.16 0.125 7.11 5.34 13.7
3/17/2021 4:15:00 AM 1.2 34.16 0.125 7.11 5.31 13.7
3/17/2021 4:30:00 AM 1.2 34.16 0.125 7.12 5.25 13.7
3/17/2021 4:45:00 AM 1.2 34.16 0.125 7.07 5.45 13.7
3/17/2021 5:00:00 AM 1.2 34.16 0.126 7.12 5.33 13.7
3/17/2021 5:15:00 AM 1.2 34.16 0.126 7.08 5.14 13.69
3/17/2021 5:30:00 AM 1.2 34.16 0.126 7.11 5.08 13.7
3/17/2021 5:45:00 AM 1.2 34.16 0.126 7.11 5.17 13.7
3/17/2021 6:00:00 AM 1.2 34.16 0.126 7.07 5.2 13.7
3/17/2021 6:15:00 AM 1.2 34.16 0.126 7.11 5.16 13.7
3/17/2021 6:30:00 AM 1.2 34.16 0.126 7.06 5.02 13.7
3/17/2021 6:45:00 AM 1.2 34.16 0.126 7.1 5.3 13.7
3/17/2021 7:00:00 AM 1.2 34.16 0.126 7.12 5.22 13.7
3/17/2021 7:15:00 AM 1.2 34.16 0.126 7.1 5.33 13.71
3/17/2021 7:30:00 AM 1.21 34.178 0.126 7.11 5.55 13.71
3/17/2021 7:45:00 AM 1.22 34.196 0.126 7.12 5.34 13.72
3/17/2021 8:00:00 AM 1.23 34.214 0.126 7.12 5.38 13.75
3/17/2021 8:15:00 AM 1.25 34.25 0.126 7.11 5.69 13.78
3/17/2021 8:30:00 AM 1.27 34.286 0.126 7.13 5.45 13.82
3/17/2021 8:45:00 AM 1.31 34.358 0.126 7.14 5.16 13.85
3/17/2021 9:00:00 AM 1.35 34.43 0.126 7.16 5.33 13.89
3/17/2021 9:15:00 AM 1.4 34.52 0.126 7.17 5.24 13.91
3/17/2021 9:30:00 AM 1.46 34.628 0.126 7.2 5.19 13.94
3/17/2021 9:45:00 AM 1.52 34.736 0.126 7.17 5.21 13.94
3/17/2021 10:00:00 AM 1.6 34.88 0.126 7.19 5.43 13.94
3/17/2021 10:15:00 AM 1.68 35.024 0.126 7.2 5.19 13.94
3/17/2021 10:30:00 AM 1.78 35.204 0.126 7.22 5.24 13.94
3/17/2021 10:45:00 AM 1.9 35.42 0.126 7.23 5.13 13.93
3/17/2021 11:00:00 AM 2.02 35.636 0.126 7.23 5.15 13.91
3/17/2021 11:15:00 AM 2.15 35.87 0.126 7.25 5.24 13.9
3/17/2021 11:30:00 AM 2.31 36.158 0.126 7.26 4.91 13.87
3/17/2021 11:45:00 AM 2.47 36.446 0.126 7.25 5.04 13.84
3/17/2021 12:00:00 PM 2.63 36.734 0.126 7.25 5.01 13.8
3/17/2021 12:15:00 PM 2.78 37.004 0.126 7.27 4.99 13.76
3/17/2021 12:30:00 PM 2.94 37.292 0.126 7.24 4.92 13.72
3/17/2021 12:45:00 PM 3.12 37.616 0.126 7.27 4.93 13.67
3/17/2021 1:00:00 PM 3.28 37.904 0.126 7.28 5.09 13.63
3/17/2021 1:15:00 PM 3.5 38.3 0.126 7.31 4.98 13.58
3/17/2021 1:30:00 PM 3.75 38.75 0.126 7.29 4.93 13.51
3/17/2021 1:45:00 PM 3.98 39.164 0.126 7.26 5.32 13.45
3/17/2021 2:00:00 PM 4.2 39.56 0.126 7.31 5.14 13.38
3/17/2021 2:15:00 PM 4.4 39.92 0.126 7.3 5.25 13.3
3/17/2021 2:30:00 PM 4.58 40.244 0.126 7.3 5.08 13.23
3/17/2021 2:45:00 PM 4.75 40.55 0.126 7.31 5.28 13.16
3/17/2021 3:00:00 PM 4.87 40.766 0.126 7.27 4.93 13.1
3/17/2021 3:15:00 PM 4.99 40.982 0.126 7.28 4.99 13.04
3/17/2021 3:30:00 PM 5.1 41.18 0.126 7.31 5.14 12.98
3/17/2021 3:45:00 PM 5.18 41.324 0.126 7.3 5.11 12.93
3/17/2021 4:00:00 PM 5.25 41.45 0.126 7.24 5.14 12.89
3/17/2021 4:15:00 PM 5.31 41.558 0.126 7.3 5.28 12.85
3/17/2021 4:30:00 PM 5.36 41.648 0.126 7.3 5.66 12.81
3/17/2021 4:45:00 PM 5.41 41.738 0.126 7.29 5.24 12.77
3/17/2021 5:00:00 PM 5.46 41.828 0.126 7.24 5.44 12.73
3/17/2021 5:15:00 PM 5.49 41.882 0.126 7.3 5.5 12.68
3/17/2021 5:30:00 PM 5.51 41.918 0.126 7.24 5.41 12.64
3/17/2021 5:45:00 PM 5.5 41.9 0.126 7.27 5.38 12.6
3/17/2021 6:00:00 PM 5.49 41.882 0.126 7.28 5.43 12.57
3/17/2021 6:15:00 PM 5.45 41.81 0.126 7.23 5.6 12.54
3/17/2021 6:30:00 PM 5.42 41.756 0.126 7.24 5.7 12.5
3/17/2021 6:45:00 PM 5.39 41.702 0.126 7.24 5.65 12.47
3/17/2021 7:00:00 PM 5.35 41.63 0.126 7.24 5.67 12.44
3/17/2021 7:15:00 PM 5.29 41.522 0.126 7.19 5.68 12.4
3/17/2021 7:30:00 PM 5.24 41.432 0.126 7.22 5.62 12.36
3/17/2021 7:45:00 PM 5.19 41.342 0.126 7.2 5.71 12.33
3/17/2021 8:00:00 PM 5.13 41.234 0.126 7.18 5.72 12.31
3/17/2021 8:15:00 PM 5.07 41.126 0.126 7.18 5.8 12.3
3/17/2021 8:30:00 PM 5.01 41.018 0.126 7.17 5.93 12.3
3/17/2021 8:45:00 PM 4.96 40.928 0.126 7.16 6.08 12.3
3/17/2021 9:00:00 PM 4.9 40.82 0.126 7.15 6.08 12.3
3/17/2021 9:15:00 PM 4.85 40.73 0.126 7.16 6.13 12.31
3/17/2021 9:30:00 PM 4.8 40.64 0.126 7.16 6.05 12.31
3/17/2021 9:45:00 PM 4.75 40.55 0.126 7.15 6.05 12.32
3/17/2021 10:00:00 PM 4.7 40.46 0.126 7.15 6.15 12.32
3/17/2021 10:15:00 PM 4.64 40.352 0.126 7.14 6.24 12.33
3/17/2021 10:30:00 PM 4.59 40.262 0.126 7.14 6.29 12.33
3/17/2021 10:45:00 PM 4.55 40.19 0.127 7.13 6.05 12.34
3/17/2021 11:00:00 PM 4.51 40.118 0.127 7.14 6.2 12.35
3/17/2021 11:15:00 PM 4.47 40.046 0.126 7.13 6.08 12.36
3/17/2021 11:30:00 PM 4.42 39.956 0.126 7.14 6.34 12.37
3/17/2021 11:45:00 PM 4.37 39.866 0.126 7.03 6.76 12.39
3/18/2021 12:00:00 AM 4.32 39.776 0.126 7.14 6.79 12.41
3/18/2021 12:15:00 AM 4.26 39.668 0.126 7.14 6.95 12.42
3/18/2021 12:30:00 AM 4.21 39.578 0.126 7.13 7.18 12.44
3/18/2021 12:45:00 AM 4.14 39.452 0.126 7.12 7.21 12.46
3/18/2021 1:00:00 AM 4.06 39.308 0.126 7.12 7.42 12.49
3/18/2021 1:15:00 AM 3.99 39.182 0.126 7.03 7.38 12.52
3/18/2021 1:30:00 AM 3.93 39.074 0.126 7.13 7.68 12.54
3/18/2021 1:45:00 AM 3.87 38.966 0.126 7.12 7.34 12.57
3/18/2021 2:00:00 AM 3.82 38.876 0.126 7.12 7.25 12.59
3/18/2021 2:15:00 AM 3.77 38.786 0.126 7.13 7.29 12.61
3/18/2021 2:30:00 AM 3.72 38.696 0.126 7.12 7.21 12.64
3/18/2021 2:45:00 AM 3.67 38.606 0.126 7.13 7.42 12.66
3/18/2021 3:00:00 AM 3.62 38.516 0.126 7.12 7.16 12.68
3/18/2021 3:15:00 AM 3.57 38.426 0.126 7.12 7.31 12.7
3/18/2021 3:30:00 AM 3.52 38.336 0.126 7.12 6.99 12.72
3/18/2021 3:45:00 AM 3.48 38.264 0.126 7.13 7.07 12.74
3/18/2021 4:00:00 AM 3.43 38.174 0.126 7.12 6.89 12.76
3/18/2021 4:15:00 AM 3.39 38.102 0.126 7.12 7.07 12.78
3/18/2021 4:30:00 AM 3.35 38.03 0.126 7.12 6.88 12.79
3/18/2021 4:45:00 AM 3.32 37.976 0.126 7.12 6.93 12.81
3/18/2021 5:00:00 AM 3.29 37.922 0.126 7.11 7.08 12.82
3/18/2021 5:15:00 AM 3.26 37.868 0.126 7.12 6.71 12.83
3/18/2021 5:30:00 AM 3.23 37.814 0.126 7.1 6.94 12.84
3/18/2021 5:45:00 AM 3.2 37.76 0.126 7.1 6.53 12.85
3/18/2021 6:00:00 AM 3.18 37.724 0.126 7.12 6.51 12.86
3/18/2021 6:15:00 AM 3.15 37.67 0.126 7.1 6.66 12.87
3/18/2021 6:30:00 AM 3.13 37.634 0.126 7.1 6.74 12.88
3/18/2021 6:45:00 AM 3.11 37.598 0.126 7.1 6.52 12.89
3/18/2021 7:00:00 AM 3.09 37.562 0.126 7.1 6.58 12.9
3/18/2021 7:15:00 AM 3.07 37.526 0.126 7.1 6.65 12.91
3/18/2021 7:30:00 AM 3.05 37.49 0.126 7.09 6.35 12.91
3/18/2021 7:45:00 AM 3.03 37.454 0.126 7.13 6.59 12.92
3/18/2021 8:00:00 AM 3.01 37.418 0.126 7.09 6.57 12.94
3/18/2021 8:15:00 AM 3 37.4 0.125 7.11 6.54 12.96
3/18/2021 8:30:00 AM 3 37.4 0.125 7.11 6.53 12.98
3/18/2021 8:45:00 AM 2.99 37.382 0.125 7.12 6.25 13.01
3/18/2021 9:00:00 AM 2.99 37.382 0.125 7.12 6.07 13.03
3/18/2021 9:15:00 AM 3 37.4 0.125 7.13 6.53 13.06
3/18/2021 9:30:00 AM 3.01 37.418 0.124 7.15 6.21 13.1
3/18/2021 9:45:00 AM 3.02 37.436 0.124 7.15 6.39 13.12
3/18/2021 10:00:00 AM 3.03 37.454 0.124 7.16 6.52 13.15
3/18/2021 10:15:00 AM 3.04 37.472 0.124 7.16 6.09 13.15
3/18/2021 10:30:00 AM 3.05 37.49 0.124 7.05 6.51 13.16
3/18/2021 10:45:00 AM 3.06 37.508 0.123 7.17 6.58 13.18
3/18/2021 11:00:00 AM 3.08 37.544 0.123 7.18 6.94 13.19
3/18/2021 11:15:00 AM 3.1 37.58 0.123 7.17 7.16 13.21
3/18/2021 11:30:00 AM 3.11 37.598 0.123 7.17 7.26 13.21
3/18/2021 11:45:00 AM 3.14 37.652 0.124 7.19 7.49 13.22
3/18/2021 12:00:00 PM 3.16 37.688 0.126 7.18 8.02 13.22
3/18/2021 12:15:00 PM 3.19 37.742 0.129 7.18 8.09 13.21
3/18/2021 12:30:00 PM 3.21 37.778 0.132 7.18 8.42 13.21
3/18/2021 12:45:00 PM 3.23 37.814 0.134 7.18 8.87 13.22
3/18/2021 1:00:00 PM 3.24 37.832 0.136 7.18 9.57 13.21
3/18/2021 1:15:00 PM 3.26 37.868 0.137 7.17 9.57 13.2
3/18/2021 1:30:00 PM 3.28 37.904 0.139 7.18 10.41 13.2
3/18/2021 1:45:00 PM 3.32 37.976 0.138 7.18 11.11 13.2
3/18/2021 2:00:00 PM 3.38 38.084 0.138 7.19 11.93 13.2
3/18/2021 2:15:00 PM 3.41 38.138 0.137 7.19 13.5 13.19
3/18/2021 2:30:00 PM 3.45 38.21 0.136 7.18 13.46 13.18
3/18/2021 2:45:00 PM 3.47 38.246 0.135 7.18 13.78 13.16
3/18/2021 3:00:00 PM 3.47 38.246 0.135 7.19 16.07 13.12
3/18/2021 3:15:00 PM 3.47 38.246 0.134 7.17 16.68 13.1
3/18/2021 3:30:00 PM 3.48 38.264 0.132 7.16 21.87 13.07
3/18/2021 3:45:00 PM 3.49 38.282 0.131 7.17 24.47 13.05
3/18/2021 4:00:00 PM 3.51 38.318 0.132 7.07 30.2 13.02
3/18/2021 4:15:00 PM 3.52 38.336 0.134 7.16 36.53 12.99
3/18/2021 4:30:00 PM 3.52 38.336 0.138 7.14 40.98 12.95
3/18/2021 4:45:00 PM 3.51 38.318 0.143 7.12 58.16 12.91
3/18/2021 5:00:00 PM 3.5 38.3 0.147 7.11 59.07 12.9
3/18/2021 5:15:00 PM 3.49 38.282 0.149 7.11 63.81 12.89
3/18/2021 5:30:00 PM 3.49 38.282 0.151 7.1 75.97 12.88
3/18/2021 5:45:00 PM 3.47 38.246 0.152 7.09 78.69 12.88
3/18/2021 6:00:00 PM 3.46 38.228 0.151 7.08 114.53 12.88
3/18/2021 6:15:00 PM 3.44 38.192 0.151 7.06 91.29 12.88
3/18/2021 6:30:00 PM 3.42 38.156 0.15 7.03 114.16 12.87
3/18/2021 6:45:00 PM 3.4 38.12 0.15 7.03 83.16 12.87
3/18/2021 7:00:00 PM 3.37 38.066 0.15 7.01 68.02 12.88
3/18/2021 7:15:00 PM 3.34 38.012 0.15 7.02 73.13 12.9
3/18/2021 7:30:00 PM 3.3 37.94 0.149 7.02 93.3 12.91
3/18/2021 7:45:00 PM 3.27 37.886 0.148 7.01 83.35 12.92
3/18/2021 8:00:00 PM 3.24 37.832 0.145 7 89.48 12.93
3/18/2021 8:15:00 PM 3.21 37.778 0.143 7.01 132.63 12.94
3/18/2021 8:30:00 PM 3.18 37.724 0.142 7 69.84 12.95
3/18/2021 8:45:00 PM 3.14 37.652 0.14 6.98 75.85 12.96
3/18/2021 9:00:00 PM 3.11 37.598 0.139 6.98 69.35 12.97
3/18/2021 9:15:00 PM 3.08 37.544 0.138 6.97 72.45 12.98
3/18/2021 9:30:00 PM 3.04 37.472 0.137 6.97 88.71 12.99
3/18/2021 9:45:00 PM 3.01 37.418 0.136 6.98 56.35 13
3/18/2021 10:00:00 PM 2.97 37.346 0.135 6.97 65.46 13.01
3/18/2021 10:15:00 PM 2.94 37.292 0.135 6.98 56.28 13.02
3/18/2021 10:30:00 PM 2.9 37.22 0.134 6.97 72.93 13.03
3/18/2021 10:45:00 PM 2.86 37.148 0.134 6.98 49.27 13.05
3/18/2021 11:00:00 PM 2.83 37.094 0.133 6.97 55.18 13.06
3/18/2021 11:15:00 PM 2.79 37.022 0.133 6.98 48.87 13.07
3/18/2021 11:30:00 PM 2.75 36.95 0.132 6.98 40.16 13.08
3/18/2021 11:45:00 PM 2.7 36.86 0.132 6.97 69.47 13.11
3/19/2021 12:00:00 AM 2.65 36.77 0.131 6.98 42.47 13.11
3/19/2021 12:15:00 AM 2.6 36.68 0.131 6.98 40.9 13.13
3/19/2021 12:30:00 AM 2.55 36.59 0.13 6.99 48.95 13.15
3/19/2021 12:45:00 AM 2.5 36.5 0.13 6.99 38.77 13.17
3/19/2021 1:00:00 AM 2.45 36.41 0.13 7 33.44 13.19
3/19/2021 1:15:00 AM 2.4 36.32 0.129 6.98 38.48 13.2
3/19/2021 1:30:00 AM 2.35 36.23 0.129 6.98 36.38 13.22
3/19/2021 1:45:00 AM 2.3 36.14 0.129 6.99 36.55 13.24
3/19/2021 2:00:00 AM 2.24 36.032 0.128 6.98 38.71 13.26
3/19/2021 2:15:00 AM 2.19 35.942 0.128 6.98 40.91 13.28
3/19/2021 2:30:00 AM 2.13 35.834 0.128 6.98 38.29 13.3
3/19/2021 2:45:00 AM 2.07 35.726 0.128 6.98 32.49 13.32
3/19/2021 3:00:00 AM 1.99 35.582 0.128 6.92 29.29 13.34
3/19/2021 3:15:00 AM 1.92 35.456 0.127 6.98 32.98 13.37
3/19/2021 3:30:00 AM 1.86 35.348 0.127 6.9 25.1 13.4
3/19/2021 3:45:00 AM 1.79 35.222 0.127 6.98 30.43 13.42
3/19/2021 4:00:00 AM 1.72 35.096 0.127 6.97 29.48 13.45
3/19/2021 4:15:00 AM 1.65 34.97 0.127 6.99 31.82 13.47
3/19/2021 4:30:00 AM 1.57 34.826 0.127 6.99 22.37 13.5
3/19/2021 4:45:00 AM 1.51 34.718 0.127 6.98 23.16 13.53
3/19/2021 5:00:00 AM 1.43 34.574 0.127 6.98 25.02 13.56
3/19/2021 5:15:00 AM 1.37 34.466 0.127 6.98 25.15 13.58
3/19/2021 5:30:00 AM 1.3 34.34 0.127 6.97 26.63 13.61
3/19/2021 5:45:00 AM 1.23 34.214 0.127 6.97 24.25 13.64
3/19/2021 6:00:00 AM 1.17 34.106 0.127 6.97 21.86 13.67
3/19/2021 6:15:00 AM 1.12 34.016 0.127 6.98 27.11 13.7
3/19/2021 6:30:00 AM 1.06 33.908 0.127 6.97 16.46 13.73
3/19/2021 6:45:00 AM 0.99 33.782 0.127 6.97 22.1 13.75
3/19/2021 7:00:00 AM 0.93 33.674 0.127 6.97 19.71 13.78
3/19/2021 7:15:00 AM 0.86 33.548 0.127 6.98 20.3 13.82
3/19/2021 7:30:00 AM 0.81 33.458 0.127 6.97 20.44 13.85
3/19/2021 7:45:00 AM 0.75 33.35 0.127 6.98 19.53 13.88
3/19/2021 8:00:00 AM 0.7 33.26 0.127 6.99 17.99 13.91
3/19/2021 8:15:00 AM 0.65 33.17 0.127 6.98 18.53 13.95
3/19/2021 8:30:00 AM 0.61 33.098 0.127 6.99 17.42 14.01
3/19/2021 8:45:00 AM 0.6 33.08 0.127 7 16.85 14.05
3/19/2021 9:00:00 AM 0.59 33.062 0.127 7.01 17.1 14.1
3/19/2021 9:15:00 AM 0.6 33.08 0.127 7.02 16.64 14.13
3/19/2021 9:30:00 AM 0.62 33.116 0.127 7.03 16.59 14.16
3/19/2021 9:45:00 AM 0.66 33.188 0.127 7.04 16.08 14.18
3/19/2021 10:00:00 AM 0.73 33.314 0.127 7.03 15.32 14.2
3/19/2021 10:15:00 AM 0.81 33.458 0.127 7.05 15.81 14.22
3/19/2021 10:30:00 AM 0.92 33.656 0.127 6.93 15.08 14.22
3/19/2021 10:45:00 AM 1.05 33.89 0.127 7.06 15 14.22
3/19/2021 11:00:00 AM 1.19 34.142 0.127 7.06 14.53 14.21
3/19/2021 11:15:00 AM 1.35 34.43 0.127 7.07 14.54 14.19
3/19/2021 11:30:00 AM 1.51 34.718 0.127 7.07 14.57 14.17
3/19/2021 11:45:00 AM 1.69 35.042 0.127 7.08 13.77 14.14
3/19/2021 12:00:00 PM 1.87 35.366 0.127 7.09 14.13 14.11
3/19/2021 12:15:00 PM 2.04 35.672 0.128 7.09 13.5 14.07
3/19/2021 12:30:00 PM 2.22 35.996 0.128 7.02 13.57 14.02
3/19/2021 12:45:00 PM 2.39 36.302 0.128 7.1 13.07 13.97
3/19/2021 1:00:00 PM 2.55 36.59 0.128 7.11 12.58 13.93
3/19/2021 1:15:00 PM 2.72 36.896 0.128 7.11 12.95 13.89
3/19/2021 1:30:00 PM 2.88 37.184 0.128 7.11 12.38 13.84
3/19/2021 1:45:00 PM 3.03 37.454 0.129 7.11 12.03 13.78
3/19/2021 2:00:00 PM 3.16 37.688 0.129 7.12 12.26 13.73
3/19/2021 2:15:00 PM 3.28 37.904 0.128 7.11 11.73 13.69
3/19/2021 2:30:00 PM 3.39 38.102 0.128 7.13 11.63 13.63
3/19/2021 2:45:00 PM 3.49 38.282 0.128 7.12 11.6 13.58
3/19/2021 3:00:00 PM 3.59 38.462 0.128 7.13 11.22 13.53
3/19/2021 3:15:00 PM 3.69 38.642 0.128 7.13 11.58 13.48
3/19/2021 3:30:00 PM 3.77 38.786 0.128 7.13 11.61 13.43
3/19/2021 3:45:00 PM 3.83 38.894 0.129 7.13 11.01 13.38
3/19/2021 4:00:00 PM 3.9 39.02 0.129 7.12 11.13 13.33
3/19/2021 4:15:00 PM 3.95 39.11 0.129 7.06 11.11 13.29
3/19/2021 4:30:00 PM 4 39.2 0.129 7.12 11.33 13.25
3/19/2021 4:45:00 PM 4.04 39.272 0.129 7.11 10.87 13.21
3/19/2021 5:00:00 PM 4.07 39.326 0.129 7.08 10.9 13.17
3/19/2021 5:15:00 PM 4.1 39.38 0.129 7.12 11.07 13.13
3/19/2021 5:30:00 PM 4.1 39.38 0.129 7.11 10.63 13.1
3/19/2021 5:45:00 PM 4.1 39.38 0.129 7.11 10.85 13.07
3/19/2021 6:00:00 PM 4.08 39.344 0.129 7.11 10.71 13.04
3/19/2021 6:15:00 PM 4.04 39.272 0.129 7.11 10.59 13.01
3/19/2021 6:30:00 PM 4 39.2 0.129 7.11 10.93 12.99
3/19/2021 6:45:00 PM 3.95 39.11 0.13 7.1 10.61 12.98
3/19/2021 7:00:00 PM 3.9 39.02 0.129 7.09 10.31 12.96
3/19/2021 7:15:00 PM 3.83 38.894 0.13 7.08 10.65 12.94
3/19/2021 7:30:00 PM 3.77 38.786 0.13 7.08 10.48 12.93
3/19/2021 7:45:00 PM 3.7 38.66 0.13 7.03 10.36 12.92
3/19/2021 8:00:00 PM 3.64 38.552 0.13 7.07 10.69 12.92
3/19/2021 8:15:00 PM 3.56 38.408 0.13 6.98 10.83 12.93
3/19/2021 8:30:00 PM 3.49 38.282 0.13 7.06 10.76 12.94
3/19/2021 8:45:00 PM 3.43 38.174 0.13 7.06 10.72 12.94
3/19/2021 9:00:00 PM 3.36 38.048 0.13 7.05 10.95 12.96
3/19/2021 9:15:00 PM 3.28 37.904 0.13 7.05 10.63 12.99
3/19/2021 9:30:00 PM 3.2 37.76 0.13 7.05 10.72 13
3/19/2021 9:45:00 PM 3.11 37.598 0.13 7.05 12.03 13.04
3/19/2021 10:00:00 PM 3.02 37.436 0.13 7.05 13.34 13.06
3/19/2021 10:15:00 PM 2.92 37.256 0.13 7.04 14.34 13.09
3/19/2021 10:30:00 PM 2.82 37.076 0.13 7.03 13.69 13.14
3/19/2021 10:45:00 PM 2.71 36.878 0.13 7.04 12.16 13.18
3/19/2021 11:00:00 PM 2.59 36.662 0.13 7.02 11.84 13.22
3/19/2021 11:15:00 PM 2.48 36.464 0.13 7.01 11.08 13.27
3/19/2021 11:30:00 PM 2.36 36.248 0.13 7.02 10.27 13.31
3/19/2021 11:45:00 PM 2.24 36.032 0.131 7.01 10.22 13.36
3/20/2021 12:00:00 AM 2.13 35.834 0.131 7.01 9.77 13.41
3/20/2021 12:15:00 AM 2.02 35.636 0.131 7.02 9.98 13.44
3/20/2021 12:30:00 AM 1.92 35.456 0.131 6.88 9.62 13.48
3/20/2021 12:45:00 AM 1.82 35.276 0.131 7.02 9.2 13.52
3/20/2021 1:00:00 AM 1.73 35.114 0.131 7.02 9.44 13.56
3/20/2021 1:15:00 AM 1.64 34.952 0.132 7.02 9.24 13.6
3/20/2021 1:30:00 AM 1.55 34.79 0.132 7 9.04 13.64
3/20/2021 1:45:00 AM 1.46 34.628 0.132 7.01 9.09 13.68
3/20/2021 2:00:00 AM 1.38 34.484 0.132 6.9 8.84 13.71
3/20/2021 2:15:00 AM 1.3 34.34 0.132 7 8.96 13.74
3/20/2021 2:30:00 AM 1.23 34.214 0.132 7.03 8.89 13.77
3/20/2021 2:45:00 AM 1.16 34.088 0.132 7.02 8.83 13.81
3/20/2021 3:00:00 AM 1.08 33.944 0.132 7.03 8.6 13.83
3/20/2021 3:15:00 AM 1.02 33.836 0.132 7.02 8.59 13.86
3/20/2021 3:30:00 AM 0.96 33.728 0.132 7.02 8.44 13.88
3/20/2021 3:45:00 AM 0.89 33.602 0.132 7.04 8.45 13.91
3/20/2021 4:00:00 AM 0.83 33.494 0.132 6.92 8.42 13.93
3/20/2021 4:15:00 AM 0.77 33.386 0.132 7.04 8.48 13.96
3/20/2021 4:30:00 AM 0.72 33.296 0.132 7.03 8.13 13.98
3/20/2021 4:45:00 AM 0.66 33.188 0.132 7.04 8.45 14
3/20/2021 5:00:00 AM 0.61 33.098 0.133 7.03 8.14 14.04
3/20/2021 5:15:00 AM 0.55 32.99 0.133 7.03 8.07 14.05
3/20/2021 5:30:00 AM 0.5 32.9 0.133 7.03 7.96 14.08
3/20/2021 5:45:00 AM 0.45 32.81 0.133 7.03 8.06 14.1
3/20/2021 6:00:00 AM 0.4 32.72 0.133 7.03 7.78 14.13
3/20/2021 6:15:00 AM 0.35 32.63 0.133 7.04 7.63 14.14
3/20/2021 6:30:00 AM 0.3 32.54 0.133 7.03 7.77 14.16
3/20/2021 6:45:00 AM 0.25 32.45 0.133 7.05 7.86 14.2
3/20/2021 7:00:00 AM 0.21 32.378 0.133 7.05 7.88 14.22
3/20/2021 7:15:00 AM 0.16 32.288 0.133 7.04 7.58 14.24
3/20/2021 7:30:00 AM 0.12 32.216 0.133 7.04 7.77 14.27
3/20/2021 7:45:00 AM 0.09 32.162 0.134 7.06 7.51 14.32
3/20/2021 8:00:00 AM 0.06 32.108 0.134 7.06 7.52 14.36
3/20/2021 8:15:00 AM 0.05 32.09 0.134 7.04 7.44 14.41
3/20/2021 8:30:00 AM 0.05 32.09 0.134 7.09 7.32 14.45
3/20/2021 8:45:00 AM 0.07 32.126 0.134 7.09 7.31 14.5
3/20/2021 9:00:00 AM 0.12 32.216 0.134 7.11 7.3 14.53
3/20/2021 9:15:00 AM 0.18 32.324 0.133 7.11 7.33 14.55
3/20/2021 9:30:00 AM 0.27 32.486 0.133 7.12 7.56 14.56
3/20/2021 9:45:00 AM 0.38 32.684 0.133 7.13 7.31 14.57
3/20/2021 10:00:00 AM 0.51 32.918 0.133 7.14 7.34 14.57
3/20/2021 10:15:00 AM 0.67 33.206 0.133 7.14 7.45 14.54
3/20/2021 10:30:00 AM 0.85 33.53 0.133 7.16 7.33 14.53
3/20/2021 10:45:00 AM 1.06 33.908 0.133 7.16 7.25 14.5
3/20/2021 11:00:00 AM 1.28 34.304 0.133 7.17 7.22 14.45
3/20/2021 11:15:00 AM 1.52 34.736 0.133 7.16 6.74 14.41
3/20/2021 11:30:00 AM 1.76 35.168 0.134 7.17 7.03 14.36
3/20/2021 11:45:00 AM 2 35.6 0.134 7.18 6.68 14.3
3/20/2021 12:00:00 PM 2.24 36.032 0.133 7.18 6.92 14.24
3/20/2021 12:15:00 PM 2.47 36.446 0.133 7.19 6.63 14.18
3/20/2021 12:30:00 PM 2.69 36.842 0.133 7.19 6.82 14.11
3/20/2021 12:45:00 PM 2.92 37.256 0.133 7.19 6.62 14.05
3/20/2021 1:00:00 PM 3.13 37.634 0.132 7.19 6.76 13.98
3/20/2021 1:15:00 PM 3.33 37.994 0.132 7.2 6.8 13.91
3/20/2021 1:30:00 PM 3.53 38.354 0.132 7.2 6.76 13.84
3/20/2021 1:45:00 PM 3.72 38.696 0.132 7.2 6.99 13.77
3/20/2021 2:00:00 PM 3.9 39.02 0.132 7.22 6.79 13.69
3/20/2021 2:15:00 PM 4.07 39.326 0.132 7.21 6.89 13.62
3/20/2021 2:30:00 PM 4.23 39.614 0.132 7.21 6.94 13.55
3/20/2021 2:45:00 PM 4.38 39.884 0.133 7.22 6.79 13.49
3/20/2021 3:00:00 PM 4.5 40.1 0.133 7.21 6.76 13.42
3/20/2021 3:15:00 PM 4.63 40.334 0.133 7.23 6.8 13.37
3/20/2021 3:30:00 PM 4.75 40.55 0.133 7.21 6.74 13.3
3/20/2021 3:45:00 PM 4.88 40.784 0.133 7.23 6.82 13.25
3/20/2021 4:00:00 PM 5 41 0.134 7.23 6.71 13.19
3/20/2021 4:15:00 PM 5.09 41.162 0.134 7.23 7 13.13
3/20/2021 4:30:00 PM 5.16 41.288 0.134 7.22 6.84 13.07
3/20/2021 4:45:00 PM 5.2 41.36 0.134 7.22 6.84 13.01
3/20/2021 5:00:00 PM 5.25 41.45 0.134 7.22 6.76 12.95
3/20/2021 5:15:00 PM 5.28 41.504 0.134 7.21 6.63 12.89
3/20/2021 5:30:00 PM 5.31 41.558 0.133 7.21 6.8 12.85
3/20/2021 5:45:00 PM 5.32 41.576 0.133 7.2 6.86 12.81
3/20/2021 6:00:00 PM 5.31 41.558 0.133 7.19 6.64 12.75
3/20/2021 6:15:00 PM 5.3 41.54 0.133 7.18 7.07 12.7
3/20/2021 6:30:00 PM 5.28 41.504 0.132 7.17 6.96 12.67
3/20/2021 6:45:00 PM 5.25 41.45 0.132 7.15 6.91 12.64
3/20/2021 7:00:00 PM 5.21 41.378 0.132 7.15 7.23 12.61
3/20/2021 7:15:00 PM 5.17 41.306 0.132 7.14 6.96 12.58
3/20/2021 7:30:00 PM 5.12 41.216 0.132 7.13 7.18 12.55
3/20/2021 7:45:00 PM 5.06 41.108 0.132 7.12 7.57 12.52
3/20/2021 8:00:00 PM 5.01 41.018 0.132 7.11 7.42 12.5
3/20/2021 8:15:00 PM 4.95 40.91 0.132 7.07 7.93 12.49
3/20/2021 8:30:00 PM 4.9 40.82 0.132 7.09 9.33 12.49
3/20/2021 8:45:00 PM 4.85 40.73 0.132 7.09 8.23 12.49
3/20/2021 9:00:00 PM 4.8 40.64 0.132 7.08 8.04 12.49
3/20/2021 9:15:00 PM 4.75 40.55 0.132 7.07 8.09 12.5
3/20/2021 9:30:00 PM 4.69 40.442 0.131 7.08 8.09 12.51
3/20/2021 9:45:00 PM 4.63 40.334 0.131 7.08 8.21 12.51
3/20/2021 10:00:00 PM 4.56 40.208 0.131 7.07 8.55 12.53
3/20/2021 10:15:00 PM 4.49 40.082 0.131 7.07 8.19 12.55
3/20/2021 10:30:00 PM 4.41 39.938 0.131 7.04 8.21 12.57
3/20/2021 10:45:00 PM 4.32 39.776 0.131 7.04 8.63 12.6
3/20/2021 11:00:00 PM 4.22 39.596 0.131 7.03 9.09 12.62
3/20/2021 11:15:00 PM 4.13 39.434 0.131 7.05 8.46 12.66
3/20/2021 11:30:00 PM 4.02 39.236 0.131 7.03 8.17 12.69
3/20/2021 11:45:00 PM 3.92 39.056 0.131 7.05 8 12.73
3/21/2021 12:00:00 AM 3.8 38.84 0.131 6.95 8 12.77
3/21/2021 12:15:00 AM 3.69 38.642 0.131 7.05 8.43 12.82
3/21/2021 12:30:00 AM 3.57 38.426 0.131 7.04 8.11 12.86
3/21/2021 12:45:00 AM 3.45 38.21 0.131 7.05 7.87 12.9
3/21/2021 1:00:00 AM 3.34 38.012 0.131 7.05 7.89 12.95
3/21/2021 1:15:00 AM 3.22 37.796 0.131 7.05 8.13 12.98
3/21/2021 1:30:00 AM 3.11 37.598 0.131 7.04 7.78 13.03
3/21/2021 1:45:00 AM 3.01 37.418 0.131 7.04 7.88 13.07
3/21/2021 2:00:00 AM 2.9 37.22 0.131 7.04 8 13.1
3/21/2021 2:15:00 AM 2.79 37.022 0.131 7.04 7.45 13.15
3/21/2021 2:30:00 AM 2.69 36.842 0.131 7.04 7.7 13.19
3/21/2021 2:45:00 AM 2.6 36.68 0.132 7.04 7.68 13.22
3/21/2021 3:00:00 AM 2.5 36.5 0.132 7.04 7.63 13.25
3/21/2021 3:15:00 AM 2.41 36.338 0.132 7.04 7.35 13.3
3/21/2021 3:30:00 AM 2.32 36.176 0.132 7.04 7.26 13.33
3/21/2021 3:45:00 AM 2.23 36.014 0.132 7.04 7.19 13.36
3/21/2021 4:00:00 AM 2.15 35.87 0.132 7.04 7.27 13.39
3/21/2021 4:15:00 AM 2.07 35.726 0.132 7.04 7.07 13.43
3/21/2021 4:30:00 AM 1.99 35.582 0.132 7.04 7.01 13.46
3/21/2021 4:45:00 AM 1.92 35.456 0.132 7.04 7.15 13.48
3/21/2021 5:00:00 AM 1.84 35.312 0.132 7.04 6.94 13.52
3/21/2021 5:15:00 AM 1.77 35.186 0.132 7.04 7.05 13.55
3/21/2021 5:30:00 AM 1.7 35.06 0.132 7.04 6.73 13.58
3/21/2021 5:45:00 AM 1.63 34.934 0.132 7.05 6.93 13.6
3/21/2021 6:00:00 AM 1.56 34.808 0.132 7.05 6.75 13.63
3/21/2021 6:15:00 AM 1.5 34.7 0.133 7.05 6.75 13.66
3/21/2021 6:30:00 AM 1.43 34.574 0.132 7.05 6.83 13.69
3/21/2021 6:45:00 AM 1.37 34.466 0.133 7.05 6.84 13.71
3/21/2021 7:00:00 AM 1.3 34.34 0.133 7.06 6.89 13.74
3/21/2021 7:15:00 AM 1.25 34.25 0.132 7.06 7.19 13.77
3/21/2021 7:30:00 AM 1.19 34.142 0.133 7.04 7.88 13.82
3/21/2021 7:45:00 AM 1.14 34.052 0.133 7.07 6.49 13.87
3/21/2021 8:00:00 AM 1.11 33.998 0.133 7.08 6.56 13.93
3/21/2021 8:15:00 AM 1.09 33.962 0.133 7.1 6.53 13.99
3/21/2021 8:30:00 AM 1.08 33.944 0.133 7.11 6.37 14.04
3/21/2021 8:45:00 AM 1.09 33.962 0.133 7.12 6.37 14.09
3/21/2021 9:00:00 AM 1.13 34.034 0.133 7.13 6.18 14.14
3/21/2021 9:15:00 AM 1.19 34.142 0.133 7.14 6.28 14.17
3/21/2021 9:30:00 AM 1.27 34.286 0.133 7.14 6.05 14.18
3/21/2021 9:45:00 AM 1.36 34.448 0.133 7.15 6.24 14.2
3/21/2021 10:00:00 AM 1.47 34.646 0.132 7.16 6.34 14.21
3/21/2021 10:15:00 AM 1.62 34.916 0.132 7.17 6.29 14.21
3/21/2021 10:30:00 AM 1.8 35.24 0.132 7.05 6.13 14.2
3/21/2021 10:45:00 AM 2 35.6 0.132 7.19 6.15 14.17
3/21/2021 11:00:00 AM 2.22 35.996 0.132 7.21 6.07 14.14
3/21/2021 11:15:00 AM 2.45 36.41 0.132 7.21 6.01 14.1
3/21/2021 11:30:00 AM 2.7 36.86 0.132 7.22 5.99 14.05
3/21/2021 11:45:00 AM 2.96 37.328 0.132 7.22 6.15 14
3/21/2021 12:00:00 PM 3.22 37.796 0.132 7.22 6.39 13.93
3/21/2021 12:15:00 PM 3.48 38.264 0.132 7.23 6.41 13.86
3/21/2021 12:30:00 PM 3.74 38.732 0.132 7.24 6.16 13.8
3/21/2021 12:45:00 PM 3.98 39.164 0.132 7.25 6.12 13.73
3/21/2021 1:00:00 PM 4.23 39.614 0.132 7.25 6.17 13.65
3/21/2021 1:15:00 PM 4.46 40.028 0.132 7.24 5.87 13.57
3/21/2021 1:30:00 PM 4.69 40.442 0.132 7.2 5.91 13.5
3/21/2021 1:45:00 PM 4.9 40.82 0.131 7.26 5.92 13.42
3/21/2021 2:00:00 PM 5.1 41.18 0.131 7.26 5.8 13.35
3/21/2021 2:15:00 PM 5.28 41.504 0.131 7.23 5.93 13.27
3/21/2021 2:30:00 PM 5.44 41.792 0.131 7.26 5.72 13.21
3/21/2021 2:45:00 PM 5.58 42.044 0.131 7.26 5.71 13.14
3/21/2021 3:00:00 PM 5.7 42.26 0.131 7.26 5.78 13.07
3/21/2021 3:15:00 PM 5.81 42.458 0.131 7.27 5.69 13.01
3/21/2021 3:30:00 PM 5.9 42.62 0.131 7.26 5.84 12.95
3/21/2021 3:45:00 PM 5.98 42.764 0.131 7.26 5.8 12.9
3/21/2021 4:00:00 PM 6.05 42.89 0.131 7.27 5.69 12.84
3/21/2021 4:15:00 PM 6.11 42.998 0.131 7.25 5.68 12.79
3/21/2021 4:30:00 PM 6.16 43.088 0.131 7.26 5.7 12.73
3/21/2021 4:45:00 PM 6.21 43.178 0.131 7.26 5.71 12.69
3/21/2021 5:00:00 PM 6.25 43.25 0.131 7.25 5.7 12.64
3/21/2021 5:15:00 PM 6.27 43.286 0.131 7.25 5.75 12.59
3/21/2021 5:30:00 PM 6.29 43.322 0.131 7.24 5.7 12.55
3/21/2021 5:45:00 PM 6.3 43.34 0.131 7.24 5.72 12.5
3/21/2021 6:00:00 PM 6.3 43.34 0.131 7.24 5.79 12.45
3/21/2021 6:15:00 PM 6.28 43.304 0.131 7.22 5.7 12.4
3/21/2021 6:30:00 PM 6.27 43.286 0.131 7.2 5.73 12.36
3/21/2021 6:45:00 PM 6.25 43.25 0.131 7.19 5.82 12.31
3/21/2021 7:00:00 PM 6.22 43.196 0.131 7.19 5.95 12.28
3/21/2021 7:15:00 PM 6.19 43.142 0.131 7.17 5.88 12.24
3/21/2021 7:30:00 PM 6.15 43.07 0.131 7.15 5.83 12.2
3/21/2021 7:45:00 PM 6.1 42.98 0.131 7.13 5.95 12.16
3/21/2021 8:00:00 PM 6.04 42.872 0.131 7.13 6.08 12.13
3/21/2021 8:15:00 PM 5.98 42.764 0.132 7.12 6.13 12.12
3/21/2021 8:30:00 PM 5.92 42.656 0.131 7.12 5.94 12.11
3/21/2021 8:45:00 PM 5.86 42.548 0.131 7.11 6.28 12.11
3/21/2021 9:00:00 PM 5.8 42.44 0.132 7.11 6.56 12.11
3/21/2021 9:15:00 PM 5.74 42.332 0.132 7.1 6.51 12.11
3/21/2021 9:30:00 PM 5.69 42.242 0.132 7.1 6.61 12.12
3/21/2021 9:45:00 PM 5.63 42.134 0.131 7.09 6.5 12.12
3/21/2021 10:00:00 PM 5.58 42.044 0.131 7.1 6.47 12.13
3/21/2021 10:15:00 PM 5.51 41.918 0.132 7.09 6.44 12.14
3/21/2021 10:30:00 PM 5.45 41.81 0.131 7.09 6.6 12.15
3/21/2021 10:45:00 PM 5.38 41.684 0.132 7.08 6.62 12.17
3/21/2021 11:00:00 PM 5.31 41.558 0.131 7.08 6.84 12.19
3/21/2021 11:15:00 PM 5.22 41.396 0.131 7.07 6.87 12.21
3/21/2021 11:30:00 PM 5.14 41.252 0.131 7.08 7.28 12.24
3/21/2021 11:45:00 PM 5.05 41.09 0.131 7.08 7.56 12.26
3/22/2021 12:00:00 AM 4.96 40.928 0.131 7.08 7.98 12.3
3/22/2021 12:15:00 AM 4.85 40.73 0.131 7.07 8.6 12.33
3/22/2021 12:30:00 AM 4.75 40.55 0.131 7.07 8.95 12.37
3/22/2021 12:45:00 AM 4.63 40.334 0.131 7.07 8.93 12.41
3/22/2021 1:00:00 AM 4.52 40.136 0.131 7.06 9.23 12.44
3/22/2021 1:15:00 AM 4.4 39.92 0.132 7.07 8.86 12.48
3/22/2021 1:30:00 AM 4.29 39.722 0.132 7.07 8.31 12.52
3/22/2021 1:45:00 AM 4.17 39.506 0.132 7.06 8 12.56
3/22/2021 2:00:00 AM 4.06 39.308 0.132 7.07 8.19 12.6
3/22/2021 2:15:00 AM 3.94 39.092 0.132 7.07 8.53 12.65
3/22/2021 2:30:00 AM 3.83 38.894 0.132 7.07 7.75 12.68
3/22/2021 2:45:00 AM 3.72 38.696 0.132 7.06 7.45 12.73
3/22/2021 3:00:00 AM 3.62 38.516 0.132 7.07 7.26 12.76
3/22/2021 3:15:00 AM 3.51 38.318 0.132 7.07 7.07 12.8
3/22/2021 3:30:00 AM 3.41 38.138 0.132 7.07 7 12.84
3/22/2021 3:45:00 AM 3.31 37.958 0.132 7.07 7.01 12.88
3/22/2021 4:00:00 AM 3.21 37.778 0.132 7.07 6.78 12.91
3/22/2021 4:15:00 AM 3.12 37.616 0.132 7.07 6.77 12.94
3/22/2021 4:30:00 AM 3.03 37.454 0.132 7.07 6.8 12.98
3/22/2021 4:45:00 AM 2.94 37.292 0.132 7.07 6.68 13.02
3/22/2021 5:00:00 AM 2.85 37.13 0.132 7.07 6.63 13.05
3/22/2021 5:15:00 AM 2.76 36.968 0.132 7.07 6.44 13.09
3/22/2021 5:30:00 AM 2.68 36.824 0.132 7.07 6.52 13.12
3/22/2021 5:45:00 AM 2.6 36.68 0.133 7.07 6.36 13.14
3/22/2021 6:00:00 AM 2.52 36.536 0.132 7.06 6.3 13.17
3/22/2021 6:15:00 AM 2.44 36.392 0.133 7.07 6.14 13.21
3/22/2021 6:30:00 AM 2.37 36.266 0.133 7.08 6.27 13.24
3/22/2021 6:45:00 AM 2.29 36.122 0.133 7.08 6.19 13.26
3/22/2021 7:00:00 AM 2.23 36.014 0.133 7.08 6.15 13.29
3/22/2021 7:15:00 AM 2.16 35.888 0.133 7.07 6.21 13.33
3/22/2021 7:30:00 AM 2.1 35.78 0.133 7.08 6.28 13.38
3/22/2021 7:45:00 AM 2.05 35.69 0.133 7.09 6.25 13.44
3/22/2021 8:00:00 AM 2.01 35.618 0.133 7.1 6.04 13.51
3/22/2021 8:15:00 AM 1.99 35.582 0.133 7.13 6.25 13.58
3/22/2021 8:30:00 AM 1.98 35.564 0.133 7.14 6.67 13.64
3/22/2021 8:45:00 AM 2 35.6 0.133 7.15 6.64 13.71
3/22/2021 9:00:00 AM 2.04 35.672 0.133 7.16 6.27 13.75
3/22/2021 9:15:00 AM 2.1 35.78 0.133 7.18 6.28 13.79
3/22/2021 9:30:00 AM 2.19 35.942 0.133 7.19 6 13.82
3/22/2021 9:45:00 AM 2.29 36.122 0.133 7.2 6.18 13.83
3/22/2021 10:00:00 AM 2.41 36.338 0.133 7.21 6.18 13.83
3/22/2021 10:15:00 AM 2.56 36.608 0.133 7.22 6.13 13.84
3/22/2021 10:30:00 AM 2.75 36.95 0.133 7.23 5.93 13.82
3/22/2021 10:45:00 AM 2.96 37.328 0.133 7.24 6.02 13.8
3/22/2021 11:00:00 AM 3.18 37.724 0.133 7.25 5.84 13.77
3/22/2021 11:15:00 AM 3.42 38.156 0.133 7.26 5.74 13.73
3/22/2021 11:30:00 AM 3.67 38.606 0.133 7.27 5.99 13.69
3/22/2021 11:45:00 AM 3.93 39.074 0.132 7.28 5.72 13.64
3/22/2021 12:00:00 PM 4.19 39.542 0.132 7.29 5.75 13.58
3/22/2021 12:15:00 PM 4.46 40.028 0.132 7.15 6.23 13.51
3/22/2021 12:30:00 PM 4.71 40.478 0.132 7.29 5.66 13.45
3/22/2021 12:45:00 PM 4.97 40.946 0.132 7.3 5.61 13.38
3/22/2021 1:00:00 PM 5.21 41.378 0.132 7.3 5.53 13.31
3/22/2021 1:15:00 PM 5.44 41.792 0.132 7.31 5.49 13.24
3/22/2021 1:30:00 PM 5.66 42.188 0.132 7.32 5.66 13.17
3/22/2021 1:45:00 PM 5.86 42.548 0.132 7.32 5.55 13.09
3/22/2021 2:00:00 PM 6.06 42.908 0.132 7.33 5.67 13.02
3/22/2021 2:15:00 PM 6.23 43.214 0.132 7.33 5.71 12.96
3/22/2021 2:30:00 PM 6.39 43.502 0.132 7.33 5.73 12.88
3/22/2021 2:45:00 PM 6.53 43.754 0.132 7.33 6.22 12.82
3/22/2021 3:00:00 PM 6.63 43.934 0.132 7.34 7.84 12.77
3/22/2021 3:15:00 PM 6.73 44.114 0.132 7.32 11.05 12.71
3/22/2021 3:30:00 PM 6.8 44.24 0.132 7.34 14.76 12.65
3/22/2021 3:45:00 PM 6.85 44.33 0.132 7.32 20.58 12.59
3/22/2021 4:00:00 PM 6.9 44.42 0.132 7.31 43.16 12.53
3/22/2021 4:15:00 PM 6.93 44.474 0.132 7.3 39.21 12.46
3/22/2021 4:30:00 PM 6.97 44.546 0.132 7.3 34.3 12.41
3/22/2021 4:45:00 PM 7 44.6 0.132 7.3 24.31 12.37
3/22/2021 5:00:00 PM 7.03 44.654 0.132 7.3 22.34 12.33
3/22/2021 5:15:00 PM 7.05 44.69 0.132 7.28 21.88 12.3
3/22/2021 5:30:00 PM 7.07 44.726 0.132 7.3 16.92 12.26
3/22/2021 5:45:00 PM 7.08 44.744 0.132 7.29 14.22 12.22
3/22/2021 6:00:00 PM 7.08 44.744 0.132 7.28 12.8 12.17
3/22/2021 6:15:00 PM 7.07 44.726 0.132 7.27 11.73 12.12
3/22/2021 6:30:00 PM 7.06 44.708 0.132 7.26 11.74 12.07
3/22/2021 6:45:00 PM 7.05 44.69 0.132 7.25 12.19 12.02
3/22/2021 7:00:00 PM 7.02 44.636 0.132 7.23 12.29 11.96
3/22/2021 7:15:00 PM 6.99 44.582 0.132 7.21 21.46 11.91
3/22/2021 7:30:00 PM 6.95 44.51 0.132 7.2 25.85 11.85
3/22/2021 7:45:00 PM 6.91 44.438 0.132 7.18 27.09 11.81
3/22/2021 8:00:00 PM 6.85 44.33 0.132 7.16 23.53 11.78
3/22/2021 8:15:00 PM 6.79 44.222 0.132 7.15 29.89 11.77
3/22/2021 8:30:00 PM 6.73 44.114 0.132 7.14 16.59 11.77
3/22/2021 8:45:00 PM 6.67 44.006 0.132 7.13 12.68 11.77
3/22/2021 9:00:00 PM 6.61 43.898 0.132 7.13 11.35 11.77
3/22/2021 9:15:00 PM 6.54 43.772 0.132 7.13 9.82 11.78
3/22/2021 9:30:00 PM 6.48 43.664 0.132 7.12 8.89 11.78
3/22/2021 9:45:00 PM 6.42 43.556 0.133 7.12 8.39 11.79
3/22/2021 10:00:00 PM 6.36 43.448 0.132 7.11 8 11.79
3/22/2021 10:15:00 PM 6.3 43.34 0.132 7.11 8.05 11.8
3/22/2021 10:30:00 PM 6.25 43.25 0.132 7.11 7.81 11.81
3/22/2021 10:45:00 PM 6.19 43.142 0.133 7.1 7.64 11.82
3/22/2021 11:00:00 PM 6.13 43.034 0.132 7.1 7.36 11.83
3/22/2021 11:15:00 PM 6.06 42.908 0.132 7.11 7.33 11.85
3/22/2021 11:30:00 PM 6 42.8 0.132 7.1 7.23 11.87
3/22/2021 11:45:00 PM 5.92 42.656 0.132 7.1 7.38 11.89
3/23/2021 12:00:00 AM 5.85 42.53 0.133 7.1 7.18 11.91
3/23/2021 12:15:00 AM 5.76 42.368 0.133 7.09 7.06 11.94
3/23/2021 12:30:00 AM 5.67 42.206 0.133 7.08 7.19 11.97
3/23/2021 12:45:00 AM 5.58 42.044 0.133 7.1 7.13 12
3/23/2021 1:00:00 AM 5.48 41.864 0.133 7.09 7.16 12.03
3/23/2021 1:15:00 AM 5.37 41.666 0.133 7.09 7.24 12.07
3/23/2021 1:30:00 AM 5.26 41.468 0.133 7.09 7.02 12.11
3/23/2021 1:45:00 AM 5.15 41.27 0.133 7.08 6.96 12.15
3/23/2021 2:00:00 AM 5.04 41.072 0.133 7.08 7.01 12.18
3/23/2021 2:15:00 AM 4.93 40.874 0.133 7.09 7.18 12.22
3/23/2021 2:30:00 AM 4.82 40.676 0.133 7.08 7.07 12.26
3/23/2021 2:45:00 AM 4.71 40.478 0.133 7.09 6.76 12.3
3/23/2021 3:00:00 AM 4.6 40.28 0.133 7.09 6.85 12.34
3/23/2021 3:15:00 AM 4.49 40.082 0.133 7.1 6.88 12.37
3/23/2021 3:30:00 AM 4.38 39.884 0.133 7.09 6.66 12.42
3/23/2021 3:45:00 AM 4.28 39.704 0.133 7.09 6.8 12.45
3/23/2021 4:00:00 AM 4.18 39.524 0.134 7.1 6.71 12.49
3/23/2021 4:15:00 AM 4.08 39.344 0.133 7.1 6.98 12.52
3/23/2021 4:30:00 AM 3.99 39.182 0.134 7.1 6.77 12.56
3/23/2021 4:45:00 AM 3.89 39.002 0.134 7.1 6.53 12.59
3/23/2021 5:00:00 AM 3.8 38.84 0.134 7.1 6.74 12.62
3/23/2021 5:15:00 AM 3.71 38.678 0.134 7.09 6.72 12.66
3/23/2021 5:30:00 AM 3.61 38.498 0.134 7.1 6.65 12.7
3/23/2021 5:45:00 AM 3.52 38.336 0.134 7.1 6.53 12.73
3/23/2021 6:00:00 AM 3.44 38.192 0.134 6.93 6.54 12.77
3/23/2021 6:15:00 AM 3.35 38.03 0.134 7.1 6.82 12.8
3/23/2021 6:30:00 AM 3.27 37.886 0.134 7.09 6.79 12.82
3/23/2021 6:45:00 AM 3.19 37.742 0.134 7.1 6.44 12.85
3/23/2021 7:00:00 AM 3.11 37.598 0.134 7.1 6.48 12.89
3/23/2021 7:15:00 AM 3.04 37.472 0.134 7.1 6.38 12.92
3/23/2021 7:30:00 AM 2.96 37.328 0.134 7.1 6.44 12.99
3/23/2021 7:45:00 AM 2.91 37.238 0.134 7.11 6.22 13.06
3/23/2021 8:00:00 AM 2.86 37.148 0.134 7.13 6.16 13.14
3/23/2021 8:15:00 AM 2.83 37.094 0.134 7.14 6.34 13.22
3/23/2021 8:30:00 AM 2.83 37.094 0.134 7.16 5.79 13.29
3/23/2021 8:45:00 AM 2.84 37.112 0.134 7.17 6.22 13.36
3/23/2021 9:00:00 AM 2.88 37.184 0.134 7.2 6.08 13.42
3/23/2021 9:15:00 AM 2.95 37.31 0.134 7.23 6 13.46
3/23/2021 9:30:00 AM 3.04 37.472 0.134 7.24 5.94 13.49
3/23/2021 9:45:00 AM 3.14 37.652 0.134 7.25 5.8 13.52
3/23/2021 10:00:00 AM 3.26 37.868 0.134 7.27 5.67 13.53
3/23/2021 10:15:00 AM 3.4 38.12 0.134 7.27 5.62 13.54
3/23/2021 10:30:00 AM 3.56 38.408 0.134 7.28 5.65 13.53
3/23/2021 10:45:00 AM 3.78 38.804 0.134 7.29 5.71 13.51
3/23/2021 11:00:00 AM 4 39.2 0.134 7.28 5.71 13.48
3/23/2021 11:15:00 AM 4.25 39.65 0.134 7.31 5.56 13.45
3/23/2021 11:30:00 AM 4.52 40.136 0.134 7.31 5.65 13.41
3/23/2021 11:45:00 AM 4.78 40.604 0.134 7.31 5.76 13.37
3/23/2021 12:00:00 PM 5.05 41.09 0.134 7.32 5.46 13.31
3/23/2021 12:15:00 PM 5.32 41.576 0.134 7.34 5.47 13.26
3/23/2021 12:30:00 PM 5.57 42.026 0.134 7.34 5.73 13.2
3/23/2021 12:45:00 PM 5.8 42.44 0.134 7.34 5.68 13.13
3/23/2021 1:00:00 PM 6.03 42.854 0.134 7.29 5.66 13.07
3/23/2021 1:15:00 PM 6.22 43.196 0.133 7.36 5.59 13.01
3/23/2021 1:30:00 PM 6.39 43.502 0.133 7.36 5.67 12.95
3/23/2021 1:45:00 PM 6.57 43.826 0.133 7.38 5.85 12.9
3/23/2021 2:00:00 PM 6.75 44.15 0.133 7.39 5.76 12.84
3/23/2021 2:15:00 PM 6.91 44.438 0.133 7.4 5.49 12.79
3/23/2021 2:30:00 PM 7 44.6 0.134 7.4 5.51 12.73
3/23/2021 2:45:00 PM 7.15 44.87 0.133 7.41 5.78 12.68
3/23/2021 3:00:00 PM 7.27 45.086 0.133 7.41 5.68 12.62
3/23/2021 3:15:00 PM 7.41 45.338 0.133 7.42 5.63 12.58
3/23/2021 3:30:00 PM 7.46 45.428 0.134 7.42 5.38 12.53
3/23/2021 3:45:00 PM 7.5 45.5 0.134 7.41 5.4 12.48
3/23/2021 4:00:00 PM 7.59 45.662 0.134 7.42 5.35 12.44
3/23/2021 4:15:00 PM 7.63 45.734 0.134 7.42 5.56 12.39
3/23/2021 4:30:00 PM 7.66 45.788 0.134 7.42 5.2 12.37
3/23/2021 4:45:00 PM 7.7 45.86 0.134 7.42 5.41 12.33
3/23/2021 5:00:00 PM 7.68 45.824 0.134 7.4 5.31 12.29
3/23/2021 5:15:00 PM 7.68 45.824 0.134 7.4 5.56 12.25
3/23/2021 5:30:00 PM 7.7 45.86 0.134 7.4 5.54 12.22
3/23/2021 5:45:00 PM 7.66 45.788 0.134 7.38 5.53 12.18
3/23/2021 6:00:00 PM 7.65 45.77 0.134 7.37 5.52 12.13
3/23/2021 6:15:00 PM 7.63 45.734 0.134 7.36 5.42 12.1
3/23/2021 6:30:00 PM 7.61 45.698 0.134 7.35 5.52 12.07
3/23/2021 6:45:00 PM 7.57 45.626 0.134 7.34 5.27 12.03
3/23/2021 7:00:00 PM 7.52 45.536 0.134 7.32 5.51 11.95
3/23/2021 7:15:00 PM 7.48 45.464 0.134 7.3 5.61 11.87
3/23/2021 7:30:00 PM 7.42 45.356 0.134 7.27 5.84 11.79
3/23/2021 7:45:00 PM 7.36 45.248 0.134 7.25 5.8 11.73
3/23/2021 8:00:00 PM 7.31 45.158 0.134 7.22 6.06 11.69
3/23/2021 8:15:00 PM 7.25 45.05 0.135 7.21 6.35 11.66
3/23/2021 8:30:00 PM 7.19 44.942 0.135 7.19 6.38 11.64
3/23/2021 8:45:00 PM 7.14 44.852 0.135 7.19 6 11.63
3/23/2021 9:00:00 PM 7.09 44.762 0.135 7.19 6.19 11.62
3/23/2021 9:15:00 PM 7.05 44.69 0.135 7.19 6.07 11.62
3/23/2021 9:30:00 PM 7.01 44.618 0.135 7.17 6.06 11.61
3/23/2021 9:45:00 PM 6.97 44.546 0.135 7.16 6.14 11.61
3/23/2021 10:00:00 PM 6.94 44.492 0.135 7.15 6.15 11.61
3/23/2021 10:15:00 PM 6.9 44.42 0.135 7.14 6.46 11.61
3/23/2021 10:30:00 PM 6.86 44.348 0.135 7.14 6.28 11.62
3/23/2021 10:45:00 PM 6.82 44.276 0.135 7.14 6.24 11.62
3/23/2021 11:00:00 PM 6.77 44.186 0.135 7.14 6.26 11.62
3/23/2021 11:15:00 PM 6.72 44.096 0.135 7.14 6.22 11.63
3/23/2021 11:30:00 PM 6.67 44.006 0.135 7.14 6.12 11.64
3/23/2021 11:45:00 PM 6.61 43.898 0.135 7.15 6.21 11.65
3/24/2021 12:00:00 AM 6.55 43.79 0.135 7.15 6.28 11.67
3/24/2021 12:15:00 AM 6.49 43.682 0.135 7.15 6.29 11.68
3/24/2021 12:30:00 AM 6.44 43.592 0.135 7.14 6.49 11.69
3/24/2021 12:45:00 AM 6.38 43.484 0.135 7.14 6.32 11.71
3/24/2021 1:00:00 AM 6.32 43.376 0.135 7.14 6.47 11.73
3/24/2021 1:15:00 AM 6.26 43.268 0.135 7.13 8.57 11.75
3/24/2021 1:30:00 AM 6.21 43.178 0.135 7.13 11.12 11.77
3/24/2021 1:45:00 AM 6.17 43.106 0.135 7.13 9.75 11.78
3/24/2021 2:00:00 AM 6.13 43.034 0.135 7.13 8.05 11.8
3/24/2021 2:15:00 AM 6.09 42.962 0.135 7.13 7.4 11.82
3/24/2021 2:30:00 AM 6.05 42.89 0.135 7.13 6.99 11.84
3/24/2021 2:45:00 AM 6.01 42.818 0.135 7.13 6.87 11.86
3/24/2021 3:00:00 AM 5.96 42.728 0.135 7.14 6.85 11.87
3/24/2021 3:15:00 AM 5.9 42.62 0.135 7.13 6.7 11.89
3/24/2021 3:30:00 AM 5.86 42.548 0.135 7.13 7.08 11.9
3/24/2021 3:45:00 AM 5.82 42.476 0.135 7.14 7.02 11.91
3/24/2021 4:00:00 AM 5.78 42.404 0.136 7.14 6.97 11.93
3/24/2021 4:15:00 AM 5.74 42.332 0.136 7.14 7.46 11.95
3/24/2021 4:30:00 AM 5.71 42.278 0.136 7.14 8.08 11.97
3/24/2021 4:45:00 AM 5.67 42.206 0.136 7.14 8.34 11.98
3/24/2021 5:00:00 AM 5.64 42.152 0.136 7.15 8.46 11.99
3/24/2021 5:15:00 AM 5.61 42.098 0.136 7.14 8.75 12.01
3/24/2021 5:30:00 AM 5.57 42.026 0.136 7.15 8.84 12.02
3/24/2021 5:45:00 AM 5.54 41.972 0.136 7.15 8.61 12.03
3/24/2021 6:00:00 AM 5.51 41.918 0.136 7.16 8.19 12.04
3/24/2021 6:15:00 AM 5.48 41.864 0.136 7.17 8.32 12.05
3/24/2021 6:30:00 AM 5.46 41.828 0.136 7.17 8 12.06
3/24/2021 6:45:00 AM 5.44 41.792 0.136 7.17 7.62 12.07
3/24/2021 7:00:00 AM 5.42 41.756 0.136 7.18 7.6 12.08
3/24/2021 7:15:00 AM 5.41 41.738 0.136 7.17 7.46 12.09
3/24/2021 7:30:00 AM 5.4 41.72 0.136 7.17 7.35 12.11
3/24/2021 7:45:00 AM 5.39 41.702 0.136 7.18 7.37 12.14
3/24/2021 8:00:00 AM 5.38 41.684 0.136 7.19 7.39 12.17
3/24/2021 8:15:00 AM 5.37 41.666 0.136 7.19 6.84 12.2
3/24/2021 8:30:00 AM 5.37 41.666 0.136 7.2 6.91 12.24
3/24/2021 8:45:00 AM 5.37 41.666 0.136 7.21 6.83 12.28
3/24/2021 9:00:00 AM 5.38 41.684 0.136 7.22 6.45 12.32
3/24/2021 9:15:00 AM 5.38 41.684 0.135 7.24 6.19 12.36
3/24/2021 9:30:00 AM 5.39 41.702 0.135 7.25 6.22 12.41
3/24/2021 9:45:00 AM 5.41 41.738 0.135 7.26 6.46 12.46
3/24/2021 10:00:00 AM 5.44 41.792 0.135 7.28 6.38 12.51
3/24/2021 10:15:00 AM 5.47 41.846 0.135 7.29 6.16 12.53
3/24/2021 10:30:00 AM 5.5 41.9 0.135 7.29 6.33 12.55
3/24/2021 10:45:00 AM 5.54 41.972 0.135 7.31 6.77 12.58
3/24/2021 11:00:00 AM 5.57 42.026 0.134 7.32 6.64 12.6
3/24/2021 11:15:00 AM 5.58 42.044 0.134 7.32 6.41 12.58
3/24/2021 11:30:00 AM 5.6 42.08 0.134 7.32 6.16 12.56
3/24/2021 11:45:00 AM 5.61 42.098 0.134 7.32 6.42 12.54
3/24/2021 12:00:00 PM 5.62 42.116 0.134 7.32 6.73 12.54
3/24/2021 12:15:00 PM 5.67 42.206 0.135 7.33 6.26 12.57
3/24/2021 12:30:00 PM 5.74 42.332 0.135 7.34 6.57 12.61
3/24/2021 12:45:00 PM 5.81 42.458 0.135 7.36 6.63 12.64
3/24/2021 1:00:00 PM 5.91 42.638 0.136 7.37 6.83 12.66
3/24/2021 1:15:00 PM 5.99 42.782 0.137 7.39 7.72 12.65
3/24/2021 1:30:00 PM 6.05 42.89 0.137 7.38 9.03 12.64
3/24/2021 1:45:00 PM 6.15 43.07 0.137 7.39 8.27 12.63
3/24/2021 2:00:00 PM 6.23 43.214 0.137 7.4 7.52 12.62
3/24/2021 2:15:00 PM 6.29 43.322 0.137 7.41 7.57 12.61
3/24/2021 2:30:00 PM 6.32 43.376 0.137 7.4 7.62 12.56
3/24/2021 2:45:00 PM 6.33 43.394 0.137 7.39 7.67 12.51
3/24/2021 3:00:00 PM 6.35 43.43 0.137 7.38 7.77 12.47
3/24/2021 3:15:00 PM 6.39 43.502 0.136 7.38 8.12 12.46
3/24/2021 3:30:00 PM 6.44 43.592 0.136 7.38 8.62 12.45
3/24/2021 3:45:00 PM 6.49 43.682 0.136 7.38 9.11 12.43
3/24/2021 4:00:00 PM 6.54 43.772 0.136 7.37 9.04 12.39
3/24/2021 4:15:00 PM 6.6 43.88 0.136 7.37 9.73 12.37
3/24/2021 4:30:00 PM 6.65 43.97 0.136 7.37 10.15 12.36
3/24/2021 4:45:00 PM 6.7 44.06 0.135 7.37 10.87 12.33
3/24/2021 5:00:00 PM 6.73 44.114 0.135 7.36 11.63 12.28
3/24/2021 5:15:00 PM 6.73 44.114 0.135 7.34 12.3 12.21
3/24/2021 5:30:00 PM 6.73 44.114 0.135 7.32 12.54 12.15
3/24/2021 5:45:00 PM 6.74 44.132 0.135 7.31 13.29 12.1
3/24/2021 6:00:00 PM 6.76 44.168 0.136 7.29 13.67 12.05
3/24/2021 6:15:00 PM 6.77 44.186 0.136 7.27 14.48 12
3/24/2021 6:30:00 PM 6.79 44.222 0.137 7.27 15.18 11.96
3/24/2021 6:45:00 PM 6.81 44.258 0.137 7.26 14.3 11.93
3/24/2021 7:00:00 PM 6.83 44.294 0.137 7.26 15.63 11.9
3/24/2021 7:15:00 PM 6.84 44.312 0.137 7.24 16.28 11.86
3/24/2021 7:30:00 PM 6.85 44.33 0.137 7.23 16.43 11.81
3/24/2021 7:45:00 PM 6.85 44.33 0.137 7.22 17.58 11.78
3/24/2021 8:00:00 PM 6.85 44.33 0.136 7.21 17.17 11.75
3/24/2021 8:15:00 PM 6.85 44.33 0.136 7.2 18.11 11.73
3/24/2021 8:30:00 PM 6.85 44.33 0.136 7.18 23.24 11.71
3/24/2021 8:45:00 PM 6.85 44.33 0.135 7.17 18.19 11.7
3/24/2021 9:00:00 PM 6.85 44.33 0.135 7.17 18.03 11.69
3/24/2021 9:15:00 PM 6.85 44.33 0.135 7.17 17.72 11.68
3/24/2021 9:30:00 PM 6.85 44.33 0.134 7.17 18.71 11.67
3/24/2021 9:45:00 PM 6.85 44.33 0.134 7.17 18.53 11.67
3/24/2021 10:00:00 PM 6.85 44.33 0.134 7.16 18.13 11.66
3/24/2021 10:15:00 PM 6.84 44.312 0.134 7.11 20.1 11.66
3/24/2021 10:30:00 PM 6.83 44.294 0.134 7.15 17.93 11.65
3/24/2021 10:45:00 PM 6.82 44.276 0.133 7.14 18.84 11.66
3/24/2021 11:00:00 PM 6.81 44.258 0.133 7.14 18.01 11.66
3/24/2021 11:15:00 PM 6.8 44.24 0.133 7.14 17.84 11.66
3/24/2021 11:30:00 PM 6.79 44.222 0.133 7.14 18.08 11.66
3/24/2021 11:45:00 PM 6.78 44.204 0.133 7.14 15.6 11.66
3/25/2021 12:00:00 AM 6.75 44.15 0.133 7.14 17.5 11.66
3/25/2021 12:15:00 AM 6.73 44.114 0.133 7.13 19.01 11.67
3/25/2021 12:30:00 AM 6.71 44.078 0.133 7.12 17 11.68
3/25/2021 12:45:00 AM 6.7 44.06 0.133 7.13 16.42 11.68
3/25/2021 1:00:00 AM 6.68 44.024 0.133 7.12 15.87 11.68
3/25/2021 1:15:00 AM 6.66 43.988 0.133 7.13 15.94 11.68
3/25/2021 1:30:00 AM 6.65 43.97 0.133 7.13 15.69 11.69
3/25/2021 1:45:00 AM 6.63 43.934 0.133 7.13 15 11.7
3/25/2021 2:00:00 AM 6.61 43.898 0.133 7.13 15.52 11.7
3/25/2021 2:15:00 AM 6.59 43.862 0.133 7.13 15.58 11.71
3/25/2021 2:30:00 AM 6.57 43.826 0.134 7.12 14.84 11.71
3/25/2021 2:45:00 AM 6.55 43.79 0.134 7.13 13.7 11.71
3/25/2021 3:00:00 AM 6.52 43.736 0.134 7.13 14.39 11.72
3/25/2021 3:15:00 AM 6.5 43.7 0.134 7.12 13.86 11.72
3/25/2021 3:30:00 AM 6.48 43.664 0.134 7.12 13.15 11.72
3/25/2021 3:45:00 AM 6.47 43.646 0.134 7.12 13.45 11.73
3/25/2021 4:00:00 AM 6.45 43.61 0.134 7.12 13.38 11.73
3/25/2021 4:15:00 AM 6.44 43.592 0.134 7.12 13.16 11.74
3/25/2021 4:30:00 AM 6.43 43.574 0.134 7.12 12.95 11.74
3/25/2021 4:45:00 AM 6.42 43.556 0.134 7.12 12.71 11.74
3/25/2021 5:00:00 AM 6.41 43.538 0.135 7.12 12.52 11.74
3/25/2021 5:15:00 AM 6.39 43.502 0.134 7.12 12.57 11.74
3/25/2021 5:30:00 AM 6.37 43.466 0.135 7.12 12.46 11.75
3/25/2021 5:45:00 AM 6.36 43.448 0.135 7.12 12.29 11.76
3/25/2021 6:00:00 AM 6.34 43.412 0.135 7.12 12.45 11.77
3/25/2021 6:15:00 AM 6.32 43.376 0.135 7.11 12.27 11.77
3/25/2021 6:30:00 AM 6.29 43.322 0.135 7.11 11.69 11.78
3/25/2021 6:45:00 AM 6.25 43.25 0.135 7.11 11.81 11.79
3/25/2021 7:00:00 AM 6.21 43.178 0.135 7.1 11.57 11.8
3/25/2021 7:15:00 AM 6.17 43.106 0.135 7.1 11.08 11.82
3/25/2021 7:30:00 AM 6.14 43.052 0.135 7.12 10.97 11.87
3/25/2021 7:45:00 AM 6.11 42.998 0.135 7.13 10.73 11.93
3/25/2021 8:00:00 AM 6.1 42.98 0.135 7.14 10.73 12
3/25/2021 8:15:00 AM 6.11 42.998 0.135 7.17 10.66 12.07
3/25/2021 8:30:00 AM 6.12 43.016 0.135 7.18 10.82 12.14
3/25/2021 8:45:00 AM 6.12 43.016 0.135 7.19 10.52 12.2
3/25/2021 9:00:00 AM 6.13 43.034 0.135 7.21 10.7 12.25
3/25/2021 9:15:00 AM 6.17 43.106 0.135 7.23 10.52 12.3
3/25/2021 9:30:00 AM 6.25 43.25 0.135 7.25 11.95 12.35
3/25/2021 9:45:00 AM 6.37 43.466 0.135 7.28 12.92 12.37
3/25/2021 10:00:00 AM 6.49 43.682 0.135 7.3 12.09 12.4
3/25/2021 10:15:00 AM 6.66 43.988 0.135 7.33 10.86 12.41
3/25/2021 10:30:00 AM 6.85 44.33 0.135 7.35 10.82 12.41
3/25/2021 10:45:00 AM 7.04 44.672 0.135 7.38 10.4 12.41
3/25/2021 11:00:00 AM 7.21 44.978 0.135 7.37 10.35 12.4
3/25/2021 11:15:00 AM 7.39 45.302 0.135 7.39 10.6 12.39
3/25/2021 11:30:00 AM 7.57 45.626 0.134 7.4 9.99 12.37
3/25/2021 11:45:00 AM 7.77 45.986 0.134 7.41 9.97 12.35
3/25/2021 12:00:00 PM 8.01 46.418 0.134 7.42 10.02 12.31
3/25/2021 12:15:00 PM 8.27 46.886 0.134 7.43 9.94 12.27
3/25/2021 12:30:00 PM 8.55 47.39 0.134 7.44 9.79 12.22
3/25/2021 12:45:00 PM 8.82 47.876 0.134 7.45 9.83 12.16
3/25/2021 1:00:00 PM 9.07 48.326 0.134 7.46 10.02 12.11
3/25/2021 1:15:00 PM 9.33 48.794 0.134 7.47 9.85 12.06
3/25/2021 1:30:00 PM 9.53 49.154 0.134 7.47 9.99 11.99
3/25/2021 1:45:00 PM 9.71 49.478 0.134 7.47 9.81 11.95
3/25/2021 2:00:00 PM 9.89 49.802 0.134 7.48 9.87 11.9
3/25/2021 2:15:00 PM 10.07 50.126 0.134 7.49 9.59 11.85
3/25/2021 2:30:00 PM 10.2 50.36 0.134 7.49 9.79 11.79
3/25/2021 2:45:00 PM 10.31 50.558 0.134 7.49 9.78 11.76
3/25/2021 3:00:00 PM 10.42 50.756 0.134 7.49 9.78 11.71
3/25/2021 3:15:00 PM 10.51 50.918 0.134 7.48 10.15 11.65
3/25/2021 3:30:00 PM 10.61 51.098 0.134 7.48 10.25 11.61
3/25/2021 3:45:00 PM 10.69 51.242 0.134 7.49 9.91 11.56
3/25/2021 4:00:00 PM 10.78 51.404 0.134 7.5 10.29 11.51
3/25/2021 4:15:00 PM 10.84 51.512 0.134 7.49 10.51 11.47
3/25/2021 4:30:00 PM 10.88 51.584 0.134 7.48 10.08 11.44
3/25/2021 4:45:00 PM 10.94 51.692 0.134 7.48 10.1 11.39
3/25/2021 5:00:00 PM 10.99 51.782 0.135 7.48 9.97 11.35
3/25/2021 5:15:00 PM 11.02 51.836 0.135 7.47 9.86 11.3
3/25/2021 5:30:00 PM 11.04 51.872 0.135 7.45 9.76 11.24
3/25/2021 5:45:00 PM 11.05 51.89 0.135 7.43 9.87 11.18
3/25/2021 6:00:00 PM 11.04 51.872 0.135 7.41 9.51 11.12
3/25/2021 6:15:00 PM 11.04 51.872 0.135 7.38 9.7 11.06
3/25/2021 6:30:00 PM 11.01 51.818 0.135 7.36 10.25 10.99
3/25/2021 6:45:00 PM 10.98 51.764 0.135 7.34 10.01 10.92
3/25/2021 7:00:00 PM 10.94 51.692 0.135 7.3 10.24 10.84
3/25/2021 7:15:00 PM 10.9 51.62 0.135 7.27 10.13 10.76
3/25/2021 7:30:00 PM 10.86 51.548 0.136 7.25 10.12 10.69
3/25/2021 7:45:00 PM 10.82 51.476 0.136 7.22 10.35 10.63
3/25/2021 8:00:00 PM 10.79 51.422 0.136 7.2 10.44 10.58
3/25/2021 8:15:00 PM 10.75 51.35 0.136 7.19 10.09 10.55
3/25/2021 8:30:00 PM 10.73 51.314 0.136 7.2 10.17 10.53
3/25/2021 8:45:00 PM 10.72 51.296 0.136 7.19 9.79 10.51
3/25/2021 9:00:00 PM 10.69 51.242 0.136 7.19 9.9 10.5
3/25/2021 9:15:00 PM 10.67 51.206 0.136 7.18 9.96 10.5
3/25/2021 9:30:00 PM 10.66 51.188 0.136 7.18 9.91 10.49
3/25/2021 9:45:00 PM 10.64 51.152 0.136 7.18 9.92 10.47
3/25/2021 10:00:00 PM 10.64 51.152 0.136 7.19 9.92 10.47
3/25/2021 10:15:00 PM 10.62 51.116 0.136 7.18 10.94 10.47
3/25/2021 10:30:00 PM 10.6 51.08 0.136 7.18 9.84 10.47
3/25/2021 10:45:00 PM 10.57 51.026 0.137 7.18 9.72 10.47
3/25/2021 11:00:00 PM 10.54 50.972 0.137 7.18 9.52 10.47
3/25/2021 11:15:00 PM 10.51 50.918 0.137 7.17 9.46 10.47
3/25/2021 11:30:00 PM 10.48 50.864 0.137 7.17 9.67 10.48
3/25/2021 11:45:00 PM 10.45 50.81 0.137 7.17 9.22 10.49
3/26/2021 12:00:00 AM 10.42 50.756 0.137 7.17 9.01 10.49
3/26/2021 12:15:00 AM 10.39 50.702 0.137 7.17 9.23 10.5
3/26/2021 12:30:00 AM 10.36 50.648 0.137 7.18 9.24 10.51
3/26/2021 12:45:00 AM 10.33 50.594 0.137 7.18 9.18 10.52
3/26/2021 1:00:00 AM 10.3 50.54 0.137 7.18 8.99 10.52
3/26/2021 1:15:00 AM 10.27 50.486 0.137 7.16 9.08 10.52
3/26/2021 1:30:00 AM 10.23 50.414 0.137 7.15 9.05 10.54
3/26/2021 1:45:00 AM 10.2 50.36 0.137 7.15 9.09 10.55
3/26/2021 2:00:00 AM 10.16 50.288 0.138 7.15 9.27 10.54
3/26/2021 2:15:00 AM 10.11 50.198 0.138 7.14 9.14 10.56
3/26/2021 2:30:00 AM 10.07 50.126 0.138 7.14 9.25 10.57
3/26/2021 2:45:00 AM 10.03 50.054 0.138 7.15 9.08 10.58
3/26/2021 3:00:00 AM 10 50 0.138 7.14 9 10.59
3/26/2021 3:15:00 AM 9.96 49.928 0.138 7.15 8.99 10.59
3/26/2021 3:30:00 AM 9.94 49.892 0.138 7.15 8.98 10.6
3/26/2021 3:45:00 AM 9.9 49.82 0.138 7.15 9.28 10.6
3/26/2021 4:00:00 AM 9.86 49.748 0.138 7.15 8.89 10.61
3/26/2021 4:15:00 AM 9.85 49.73 0.138 7.16 9.08 10.61
3/26/2021 4:30:00 AM 9.82 49.676 0.138 7.15 9.08 10.62
3/26/2021 4:45:00 AM 9.77 49.586 0.138 7.15 9.26 10.62
3/26/2021 5:00:00 AM 9.71 49.478 0.138 7.15 8.98 10.62
3/26/2021 5:15:00 AM 9.66 49.388 0.138 7.15 8.99 10.63
3/26/2021 5:30:00 AM 9.62 49.316 0.139 7.15 8.74 10.64
3/26/2021 5:45:00 AM 9.57 49.226 0.139 7.15 8.76 10.65
3/26/2021 6:00:00 AM 9.52 49.136 0.139 7.15 8.87 10.65
3/26/2021 6:15:00 AM 9.48 49.064 0.139 7.15 9.08 10.66
3/26/2021 6:30:00 AM 9.45 49.01 0.139 7.16 8.92 10.66
3/26/2021 6:45:00 AM 9.44 48.992 0.139 7.17 9.08 10.67
3/26/2021 7:00:00 AM 9.44 48.992 0.139 7.17 8.68 10.68
3/26/2021 7:15:00 AM 9.43 48.974 0.139 7.18 8.8 10.69
3/26/2021 7:30:00 AM 9.43 48.974 0.14 7.19 8.73 10.73
3/26/2021 7:45:00 AM 9.46 49.028 0.14 7.21 8.63 10.8
3/26/2021 8:00:00 AM 9.49 49.082 0.14 7.23 8.91 10.85
3/26/2021 8:15:00 AM 9.51 49.118 0.14 7.25 8.89 10.94
3/26/2021 8:30:00 AM 9.56 49.208 0.139 7.28 8.35 11.05
3/26/2021 8:45:00 AM 9.64 49.352 0.14 7.32 8.63 11.13
3/26/2021 9:00:00 AM 9.75 49.55 0.139 7.36 8.3 11.22
3/26/2021 9:15:00 AM 9.89 49.802 0.139 7.39 8.06 11.27
3/26/2021 9:30:00 AM 10.03 50.054 0.14 7.41 8.32 11.3
3/26/2021 9:45:00 AM 10.11 50.198 0.14 7.42 8 11.29
3/26/2021 10:00:00 AM 10.18 50.324 0.14 7.43 8.13 11.27
3/26/2021 10:15:00 AM 10.35 50.63 0.14 7.46 8.08 11.3
3/26/2021 10:30:00 AM 10.57 51.026 0.14 7.49 8.08 11.32
3/26/2021 10:45:00 AM 10.75 51.35 0.14 7.51 8.37 11.33
3/26/2021 11:00:00 AM 10.85 51.53 0.14 7.51 8.14 11.32
3/26/2021 11:15:00 AM 10.9 51.62 0.14 7.52 8.27 11.31
3/26/2021 11:30:00 AM 11.06 51.908 0.14 7.54 8.05 11.31
3/26/2021 11:45:00 AM 11.19 52.142 0.14 7.56 7.63 11.3
3/26/2021 12:00:00 PM 11.25 52.25 0.14 7.55 7.48 11.27
3/26/2021 12:15:00 PM 11.28 52.304 0.14 7.55 7.6 11.25
3/26/2021 12:30:00 PM 11.37 52.466 0.14 7.58 7.52 11.24
3/26/2021 12:45:00 PM 11.39 52.502 0.14 7.57 7.39 11.24
3/26/2021 1:00:00 PM 11.39 52.502 0.14 7.57 7.53 11.21
3/26/2021 1:15:00 PM 11.51 52.718 0.14 7.59 7.77 11.22
3/26/2021 1:30:00 PM 11.74 53.132 0.14 7.63 7.92 11.24
3/26/2021 1:45:00 PM 11.87 53.366 0.14 7.63 8.01 11.22
3/26/2021 2:00:00 PM 12 53.6 0.14 7.63 8.39 11.19
3/26/2021 2:15:00 PM 12.03 53.654 0.14 7.64 8.27 11.16
3/26/2021 2:30:00 PM 11.97 53.546 0.141 7.61 8.55 11.12
3/26/2021 2:45:00 PM 11.91 53.438 0.141 7.59 8.51 11.1
3/26/2021 3:00:00 PM 11.82 53.276 0.141 7.58 8.09 11.07
3/26/2021 3:15:00 PM 11.73 53.114 0.141 7.54 8.06 11.01
3/26/2021 3:30:00 PM 11.65 52.97 0.141 7.52 7.88 11
3/26/2021 3:45:00 PM 11.54 52.772 0.141 7.51 7.76 10.96
3/26/2021 4:00:00 PM 11.43 52.574 0.141 7.48 7.73 10.92
3/26/2021 4:15:00 PM 11.34 52.412 0.141 7.46 7.64 10.91
3/26/2021 4:30:00 PM 11.25 52.25 0.141 7.46 7.62 10.92
3/26/2021 4:45:00 PM 11.18 52.124 0.141 7.46 7.31 10.94
3/26/2021 5:00:00 PM 11.12 52.016 0.141 7.46 7.46 10.97
3/26/2021 5:15:00 PM 11.05 51.89 0.141 7.46 7.14 10.96
3/26/2021 5:30:00 PM 10.97 51.746 0.141 7.44 7.36 10.89
3/26/2021 5:45:00 PM 10.89 51.602 0.141 7.39 7.24 10.84
3/26/2021 6:00:00 PM 10.81 51.458 0.141 7.38 7.1 10.81
3/26/2021 6:15:00 PM 10.73 51.314 0.141 7.36 6.94 10.78
3/26/2021 6:30:00 PM 10.65 51.17 0.141 7.35 7.2 10.77
3/26/2021 6:45:00 PM 10.57 51.026 0.142 7.34 6.97 10.77
3/26/2021 7:00:00 PM 10.5 50.9 0.142 7.33 6.96 10.76
3/26/2021 7:15:00 PM 10.42 50.756 0.142 7.31 6.9 10.72
3/26/2021 7:30:00 PM 10.35 50.63 0.142 7.29 6.87 10.69
3/26/2021 7:45:00 PM 10.28 50.504 0.142 7.27 7.07 10.65
3/26/2021 8:00:00 PM 10.21 50.378 0.142 7.26 7.02 10.64
3/26/2021 8:15:00 PM 10.15 50.27 0.142 7.24 6.8 10.63
3/26/2021 8:30:00 PM 10.09 50.162 0.142 7.25 7.09 10.62
3/26/2021 8:45:00 PM 10.04 50.072 0.142 7.23 7.08 10.62
3/26/2021 9:00:00 PM 9.98 49.964 0.142 7.24 6.77 10.64
3/26/2021 9:15:00 PM 9.92 49.856 0.143 7.22 6.96 10.64
3/26/2021 9:30:00 PM 9.87 49.766 0.143 7.23 6.56 10.65
3/26/2021 9:45:00 PM 9.8 49.64 0.143 7.21 6.82 10.67
3/26/2021 10:00:00 PM 9.74 49.532 0.143 7.22 6.5 10.68
3/26/2021 10:15:00 PM 9.67 49.406 0.143 7.21 6.85 10.7
3/26/2021 10:30:00 PM 9.59 49.262 0.143 7.21 6.76 10.71
3/26/2021 10:45:00 PM 9.52 49.136 0.144 7.2 6.55 10.73
3/26/2021 11:00:00 PM 9.45 49.01 0.143 7.21 6.54 10.75
3/26/2021 11:15:00 PM 9.37 48.866 0.144 7.21 6.44 10.77
3/26/2021 11:30:00 PM 9.3 48.74 0.144 7.21 6.22 10.79
3/26/2021 11:45:00 PM 9.23 48.614 0.144 7.19 6.38 10.81
3/27/2021 12:00:00 AM 9.15 48.47 0.144 7.2 6.52 10.83
3/27/2021 12:15:00 AM 9.07 48.326 0.144 7.2 6.68 10.85
3/27/2021 12:30:00 AM 9.01 48.218 0.144 7.21 6.22 10.86
3/27/2021 12:45:00 AM 8.94 48.092 0.144 7.21 6.08 10.88
3/27/2021 1:00:00 AM 8.86 47.948 0.144 7.19 6.29 10.9
3/27/2021 1:15:00 AM 8.77 47.786 0.144 7.19 6.14 10.92
3/27/2021 1:30:00 AM 8.69 47.642 0.144 7.18 6.12 10.95
3/27/2021 1:45:00 AM 8.62 47.516 0.144 7.18 6.11 10.97
3/27/2021 2:00:00 AM 8.55 47.39 0.144 7.18 6.28 10.99
3/27/2021 2:15:00 AM 8.49 47.282 0.144 7.18 6.21 11.01
3/27/2021 2:30:00 AM 8.43 47.174 0.144 7.18 6.37 11.03
3/27/2021 2:45:00 AM 8.39 47.102 0.144 7.19 6.22 11.04
3/27/2021 3:00:00 AM 8.35 47.03 0.144 7.19 6.44 11.06
3/27/2021 3:15:00 AM 8.31 46.958 0.145 7.18 6.47 11.07
3/27/2021 3:30:00 AM 8.28 46.904 0.145 7.19 6.24 11.08
3/27/2021 3:45:00 AM 8.24 46.832 0.145 7.19 6.02 11.1
3/27/2021 4:00:00 AM 8.2 46.76 0.145 7.19 6.31 11.11
3/27/2021 4:15:00 AM 8.16 46.688 0.145 7.2 6.21 11.13
3/27/2021 4:30:00 AM 8.11 46.598 0.145 7.19 6.11 11.14
3/27/2021 4:45:00 AM 8.07 46.526 0.145 7.2 5.92 11.16
3/27/2021 5:00:00 AM 8.04 46.472 0.145 7.2 5.85 11.17
3/27/2021 5:15:00 AM 8 46.4 0.145 7.2 5.99 11.18
3/27/2021 5:30:00 AM 7.96 46.328 0.145 7.2 5.72 11.2
3/27/2021 5:45:00 AM 7.93 46.274 0.145 7.2 5.82 11.21
3/27/2021 6:00:00 AM 7.9 46.22 0.145 7.2 5.94 11.22
3/27/2021 6:15:00 AM 7.87 46.166 0.145 7.21 6.14 11.23
3/27/2021 6:30:00 AM 7.84 46.112 0.145 7.21 6.03 11.25
3/27/2021 6:45:00 AM 7.81 46.058 0.145 7.21 6.06 11.26
3/27/2021 7:00:00 AM 7.78 46.004 0.145 7.22 5.84 11.27
3/27/2021 7:15:00 AM 7.76 45.968 0.145 7.23 5.65 11.29
3/27/2021 7:30:00 AM 7.73 45.914 0.145 7.24 5.85 11.32
3/27/2021 7:45:00 AM 7.71 45.878 0.145 7.24 5.73 11.38
3/27/2021 8:00:00 AM 7.69 45.842 0.145 7.25 5.77 11.45
3/27/2021 8:15:00 AM 7.68 45.824 0.146 7.27 5.66 11.54
3/27/2021 8:30:00 AM 7.68 45.824 0.146 7.3 5.59 11.66
3/27/2021 8:45:00 AM 7.69 45.842 0.145 7.32 6.15 11.75
3/27/2021 9:00:00 AM 7.68 45.824 0.146 7.34 6.96 11.82
3/27/2021 9:15:00 AM 7.7 45.86 0.145 7.36 7.18 11.89
3/27/2021 9:30:00 AM 7.73 45.914 0.146 7.38 6.89 11.96
3/27/2021 9:45:00 AM 7.78 46.004 0.146 7.41 6.98 12.03
3/27/2021 10:00:00 AM 7.89 46.202 0.146 7.45 6.82 12.11
3/27/2021 10:15:00 AM 8.03 46.454 0.146 7.49 6.44 12.17
3/27/2021 10:30:00 AM 8.17 46.706 0.145 7.52 6.06 12.19
3/27/2021 10:45:00 AM 8.28 46.904 0.145 7.54 6.43 12.21
3/27/2021 11:00:00 AM 8.42 47.156 0.145 7.55 6.78 12.22
3/27/2021 11:15:00 AM 8.65 47.57 0.145 7.58 6.32 12.22
3/27/2021 11:30:00 AM 8.92 48.056 0.145 7.61 5.89 12.19
3/27/2021 11:45:00 AM 9.14 48.452 0.146 7.61 5.74 12.17
3/27/2021 12:00:00 PM 9.34 48.812 0.146 7.62 6.04 12.14
3/27/2021 12:15:00 PM 9.52 49.136 0.146 7.62 5.56 12.1
3/27/2021 12:30:00 PM 9.69 49.442 0.146 7.63 5.7 12.07
3/27/2021 12:45:00 PM 9.81 49.658 0.146 7.65 5.65 12.03
3/27/2021 1:00:00 PM 10.04 50.072 0.146 7.67 5.42 12.01
3/27/2021 1:15:00 PM 10.16 50.288 0.146 7.67 5.42 11.96
3/27/2021 1:30:00 PM 10.33 50.594 0.146 7.69 5.25 11.95
3/27/2021 1:45:00 PM 10.52 50.936 0.146 7.7 5.32 11.92
3/27/2021 2:00:00 PM 10.69 51.242 0.146 7.7 5.28 11.88
3/27/2021 2:15:00 PM 10.79 51.422 0.146 7.7 5.28 11.83
3/27/2021 2:30:00 PM 10.9 51.62 0.146 7.71 5.18 11.8
3/27/2021 2:45:00 PM 10.99 51.782 0.146 7.72 5.24 11.76
3/27/2021 3:00:00 PM 11.06 51.908 0.146 7.72 5.24 11.72
3/27/2021 3:15:00 PM 11.11 51.998 0.146 7.72 5.11 11.69
3/27/2021 3:30:00 PM 11.17 52.106 0.146 7.72 5.25 11.65
3/27/2021 3:45:00 PM 11.21 52.178 0.146 7.72 5.06 11.61
3/27/2021 4:00:00 PM 11.24 52.232 0.146 7.72 5.22 11.58
3/27/2021 4:15:00 PM 11.26 52.268 0.146 7.72 5.25 11.56
3/27/2021 4:30:00 PM 11.29 52.322 0.146 7.73 4.92 11.53
3/27/2021 4:45:00 PM 11.32 52.376 0.146 7.72 4.96 11.5
3/27/2021 5:00:00 PM 11.34 52.412 0.146 7.72 4.96 11.46
3/27/2021 5:15:00 PM 11.34 52.412 0.146 7.71 4.98 11.42
3/27/2021 5:30:00 PM 11.36 52.448 0.146 7.71 5.1 11.39
3/27/2021 5:45:00 PM 11.36 52.448 0.146 7.68 5.04 11.35
3/27/2021 6:00:00 PM 11.31 52.358 0.146 7.64 4.91 11.29
3/27/2021 6:15:00 PM 11.24 52.232 0.146 7.6 5.04 11.21
3/27/2021 6:30:00 PM 11.15 52.07 0.146 7.54 5.08 11.1
3/27/2021 6:45:00 PM 11.07 51.926 0.146 7.5 5.09 11.02
3/27/2021 7:00:00 PM 10.99 51.782 0.146 7.45 5.01 10.94
3/27/2021 7:15:00 PM 10.9 51.62 0.146 7.42 5.09 10.88
3/27/2021 7:30:00 PM 10.81 51.458 0.146 7.38 5.03 10.8
3/27/2021 7:45:00 PM 10.73 51.314 0.146 7.35 5.38 10.72
3/27/2021 8:00:00 PM 10.65 51.17 0.146 7.31 5.22 10.66
3/27/2021 8:15:00 PM 10.57 51.026 0.147 7.29 5.3 10.62
3/27/2021 8:30:00 PM 10.49 50.882 0.147 7.27 5.12 10.6
3/27/2021 8:45:00 PM 10.4 50.72 0.147 7.26 5.19 10.59
3/27/2021 9:00:00 PM 10.32 50.576 0.148 7.24 5.13 10.58
3/27/2021 9:15:00 PM 10.25 50.45 0.148 7.24 5.2 10.58
3/27/2021 9:30:00 PM 10.18 50.324 0.148 7.23 5.24 10.58
3/27/2021 9:45:00 PM 10.1 50.18 0.148 7.23 5.3 10.59
3/27/2021 10:00:00 PM 10.03 50.054 0.148 7.23 5.33 10.59
3/27/2021 10:15:00 PM 9.96 49.928 0.148 7.21 5.09 10.6
3/27/2021 10:30:00 PM 9.87 49.766 0.149 7.22 5.47 10.61
3/27/2021 10:45:00 PM 9.8 49.64 0.149 7.21 5.37 10.62
3/27/2021 11:00:00 PM 9.72 49.496 0.149 7.21 5.1 10.63
3/27/2021 11:15:00 PM 9.65 49.37 0.149 7.2 5.03 10.64
3/27/2021 11:30:00 PM 9.57 49.226 0.149 7.2 5.06 10.64
3/27/2021 11:45:00 PM 9.5 49.1 0.149 7.19 4.98 10.65
3/28/2021 12:00:00 AM 9.43 48.974 0.149 7.18 4.89 10.67
3/28/2021 12:15:00 AM 9.36 48.848 0.149 7.18 4.91 10.68
3/28/2021 12:30:00 AM 9.3 48.74 0.149 7.18 4.83 10.69
3/28/2021 12:45:00 AM 9.23 48.614 0.149 7.18 4.85 10.71
3/28/2021 1:00:00 AM 9.17 48.506 0.149 7.19 4.87 10.72
3/28/2021 1:15:00 AM 9.11 48.398 0.149 7.18 4.86 10.73
3/28/2021 1:30:00 AM 9.05 48.29 0.149 7.19 4.84 10.75
3/28/2021 1:45:00 AM 8.99 48.182 0.149 7.19 5.05 10.76
3/28/2021 2:00:00 AM 8.94 48.092 0.149 7.19 4.9 10.77
3/28/2021 2:15:00 AM 8.88 47.984 0.149 7.19 4.91 10.78
3/28/2021 2:30:00 AM 8.79 47.822 0.149 7.19 4.94 10.8
3/28/2021 2:45:00 AM 8.71 47.678 0.149 7.19 4.85 10.83
3/28/2021 3:00:00 AM 8.64 47.552 0.149 7.19 4.9 10.84
3/28/2021 3:15:00 AM 8.57 47.426 0.149 7.2 4.86 10.86
3/28/2021 3:30:00 AM 8.51 47.318 0.149 7.2 5.09 10.88
3/28/2021 3:45:00 AM 8.44 47.192 0.149 7.19 5.05 10.9
3/28/2021 4:00:00 AM 8.39 47.102 0.149 7.2 4.98 10.92
3/28/2021 4:15:00 AM 8.34 47.012 0.149 7.2 5.03 10.93
3/28/2021 4:30:00 AM 8.3 46.94 0.149 7.2 4.81 10.94
3/28/2021 4:45:00 AM 8.26 46.868 0.15 7.2 5.06 10.95
3/28/2021 5:00:00 AM 8.22 46.796 0.15 7.2 5 10.97
3/28/2021 5:15:00 AM 8.19 46.742 0.15 7.21 5.31 10.98
3/28/2021 5:30:00 AM 8.16 46.688 0.15 7.21 5.01 11
3/28/2021 5:45:00 AM 8.13 46.634 0.15 7.21 4.74 11.01
3/28/2021 6:00:00 AM 8.11 46.598 0.15 7.23 4.98 11.02
3/28/2021 6:15:00 AM 8.08 46.544 0.15 7.22 4.77 11.03
3/28/2021 6:30:00 AM 8.07 46.526 0.15 7.23 5.06 11.04
3/28/2021 6:45:00 AM 8.05 46.49 0.15 7.23 4.73 11.05
3/28/2021 7:00:00 AM 8.05 46.49 0.15 7.23 4.7 11.05
3/28/2021 7:15:00 AM 8.04 46.472 0.15 7.23 4.56 11.07
3/28/2021 7:30:00 AM 8.03 46.454 0.15 7.23 4.76 11.08
3/28/2021 7:45:00 AM 8.03 46.454 0.15 7.23 4.56 11.11
3/28/2021 8:00:00 AM 8.03 46.454 0.15 7.24 4.6 11.15
3/28/2021 8:15:00 AM 8.04 46.472 0.15 7.25 4.53 11.18
3/28/2021 8:30:00 AM 8.04 46.472 0.15 7.26 4.7 11.21
3/28/2021 8:45:00 AM 8.05 46.49 0.15 7.27 4.64 11.23
3/28/2021 9:00:00 AM 8.08 46.544 0.15 7.29 4.67 11.29
3/28/2021 9:15:00 AM 8.1 46.58 0.15 7.31 4.48 11.36
3/28/2021 9:30:00 AM 8.11 46.598 0.149 7.31 4.54 11.38
3/28/2021 9:45:00 AM 8.11 46.598 0.149 7.32 4.48 11.36
3/28/2021 10:00:00 AM 8.13 46.634 0.149 7.33 4.5 11.37
3/28/2021 10:15:00 AM 8.14 46.652 0.149 7.3 4.6 11.42
3/28/2021 10:30:00 AM 8.17 46.706 0.149 7.36 4.5 11.49
3/28/2021 10:45:00 AM 8.2 46.76 0.149 7.38 4.53 11.55
3/28/2021 11:00:00 AM 8.23 46.814 0.149 7.41 4.65 11.63
3/28/2021 11:15:00 AM 8.27 46.886 0.149 7.43 4.52 11.68
3/28/2021 11:30:00 AM 8.3 46.94 0.149 7.44 4.44 11.71
3/28/2021 11:45:00 AM 8.34 47.012 0.149 7.46 4.61 11.72
3/28/2021 12:00:00 PM 8.37 47.066 0.149 7.47 4.56 11.74
3/28/2021 12:15:00 PM 8.41 47.138 0.149 7.48 4.34 11.76
3/28/2021 12:30:00 PM 8.48 47.264 0.149 7.5 4.49 11.79
3/28/2021 12:45:00 PM 8.54 47.372 0.149 7.53 4.63 11.81
3/28/2021 1:00:00 PM 8.59 47.462 0.149 7.54 4.32 11.83
3/28/2021 1:15:00 PM 8.65 47.57 0.15 7.56 4.38 11.83
3/28/2021 1:30:00 PM 8.76 47.768 0.149 7.59 4.33 11.84
3/28/2021 1:45:00 PM 8.86 47.948 0.149 7.62 4.42 11.86
3/28/2021 2:00:00 PM 8.97 48.146 0.149 7.64 5.54 11.87
3/28/2021 2:15:00 PM 9.08 48.344 0.149 7.66 6.54 11.88
3/28/2021 2:30:00 PM 9.2 48.56 0.149 7.68 6.05 11.87
3/28/2021 2:45:00 PM 9.37 48.866 0.149 7.69 5.48 11.87
3/28/2021 3:00:00 PM 9.54 49.172 0.149 7.73 5.48 11.86
3/28/2021 3:15:00 PM 9.67 49.406 0.149 7.74 5.24 11.84
3/28/2021 3:30:00 PM 9.69 49.442 0.149 7.7 5.06 11.76
3/28/2021 3:45:00 PM 9.67 49.406 0.149 7.64 5.06 11.59
3/28/2021 4:00:00 PM 9.65 49.37 0.148 7.6 5.11 11.51
3/28/2021 4:15:00 PM 9.6 49.28 0.148 7.57 5.01 11.45
3/28/2021 4:30:00 PM 9.52 49.136 0.148 7.52 5.29 11.34
3/28/2021 4:45:00 PM 9.48 49.064 0.147 7.49 5.35 11.28
3/28/2021 5:00:00 PM 9.43 48.974 0.146 7.48 5.62 11.29
3/28/2021 5:15:00 PM 9.39 48.902 0.146 7.47 6.15 11.28
3/28/2021 5:30:00 PM 9.38 48.884 0.146 7.47 6.45 11.29
3/28/2021 5:45:00 PM 9.39 48.902 0.146 7.49 6.26 11.34
3/28/2021 6:00:00 PM 9.41 48.938 0.146 7.52 6.12 11.41
3/28/2021 6:15:00 PM 9.41 48.938 0.146 7.54 5.97 11.47
3/28/2021 6:30:00 PM 9.37 48.866 0.149 7.55 5.99 11.46
3/28/2021 6:45:00 PM 9.29 48.722 0.152 7.52 6.21 11.39
3/28/2021 7:00:00 PM 9.22 48.596 0.152 7.47 6.23 11.29
3/28/2021 7:15:00 PM 9.15 48.47 0.151 7.44 6.19 11.19
3/28/2021 7:30:00 PM 9.07 48.326 0.15 7.4 5.89 11.11
3/28/2021 7:45:00 PM 8.97 48.146 0.15 7.36 6.31 11.04
3/28/2021 8:00:00 PM 8.88 47.984 0.149 7.32 6.33 10.98
3/28/2021 8:15:00 PM 8.78 47.804 0.149 7.31 6.81 10.96
3/28/2021 8:30:00 PM 8.68 47.624 0.149 7.29 7.26 10.95
3/28/2021 8:45:00 PM 8.59 47.462 0.149 7.28 7.65 10.95
3/28/2021 9:00:00 PM 8.52 47.336 0.149 7.28 8.36 10.97
3/28/2021 9:15:00 PM 8.47 47.246 0.149 7.27 8.74 10.98
3/28/2021 9:30:00 PM 8.43 47.174 0.148 7.28 8.95 10.99
3/28/2021 9:45:00 PM 8.38 47.084 0.148 7.27 9.76 11
3/28/2021 10:00:00 PM 8.32 46.976 0.149 7.27 10.4 11.01
3/28/2021 10:15:00 PM 8.27 46.886 0.15 7.26 10.59 11.01
3/28/2021 10:30:00 PM 8.2 46.76 0.151 7.25 10.95 11.03
3/28/2021 10:45:00 PM 8.14 46.652 0.151 7.25 11.21 11.05
3/28/2021 11:00:00 PM 8.07 46.526 0.151 7.24 11.33 11.06
3/28/2021 11:15:00 PM 7.99 46.382 0.151 7.24 11.93 11.08
3/28/2021 11:30:00 PM 7.92 46.256 0.151 7.24 12.15 11.1
3/28/2021 11:45:00 PM 7.85 46.13 0.151 7.25 12.84 11.13
3/29/2021 12:00:00 AM 7.75 45.95 0.151 7.24 13.4 11.15
3/29/2021 12:15:00 AM 7.65 45.77 0.15 7.23 14.77 11.18
3/29/2021 12:30:00 AM 7.54 45.572 0.15 7.23 19.38 11.2
3/29/2021 12:45:00 AM 7.43 45.374 0.149 7.22 16.13 11.23
3/29/2021 1:00:00 AM 7.32 45.176 0.149 7.22 16.51 11.26
3/29/2021 1:15:00 AM 7.22 44.996 0.149 7.22 16.05 11.29
3/29/2021 1:30:00 AM 7.14 44.852 0.148 7.22 17.13 11.32
3/29/2021 1:45:00 AM 7.07 44.726 0.148 7.21 17.76 11.34
3/29/2021 2:00:00 AM 7 44.6 0.148 7.22 16.83 11.36
3/29/2021 2:15:00 AM 6.93 44.474 0.148 7.21 15.81 11.39
3/29/2021 2:30:00 AM 6.86 44.348 0.147 7.22 17.98 11.41
3/29/2021 2:45:00 AM 6.79 44.222 0.147 7.22 17.06 11.44
3/29/2021 3:00:00 AM 6.71 44.078 0.146 7.21 17.66 11.46
3/29/2021 3:15:00 AM 6.62 43.916 0.145 7.21 16.81 11.49
3/29/2021 3:30:00 AM 6.56 43.808 0.145 7.21 16.12 11.51
3/29/2021 3:45:00 AM 6.49 43.682 0.144 7.14 16.62 11.53
3/29/2021 4:00:00 AM 6.41 43.538 0.144 7.21 16.58 11.56
3/29/2021 4:15:00 AM 6.35 43.43 0.144 7.2 15.64 11.58
3/29/2021 4:30:00 AM 6.28 43.304 0.144 7.2 15.18 11.61
3/29/2021 4:45:00 AM 6.22 43.196 0.144 7.2 15.34 11.63
3/29/2021 5:00:00 AM 6.15 43.07 0.144 7.2 14.75 11.66
3/29/2021 5:15:00 AM 6.08 42.944 0.144 7.2 13.99 11.69
3/29/2021 5:30:00 AM 6.01 42.818 0.144 7.19 13.62 11.71
3/29/2021 5:45:00 AM 5.96 42.728 0.143 7.2 13.42 11.74
3/29/2021 6:00:00 AM 5.89 42.602 0.143 7.19 13.13 11.76
3/29/2021 6:15:00 AM 5.83 42.494 0.144 7.2 12.9 11.78
3/29/2021 6:30:00 AM 5.76 42.368 0.143 7.19 12.25 11.8
3/29/2021 6:45:00 AM 5.71 42.278 0.143 7.19 12.08 11.83
3/29/2021 7:00:00 AM 5.65 42.17 0.143 7.2 11.77 11.86
3/29/2021 7:15:00 AM 5.6 42.08 0.144 7.2 11.35 11.89
3/29/2021 7:30:00 AM 5.56 42.008 0.144 7.19 11.29 11.92
3/29/2021 7:45:00 AM 5.51 41.918 0.144 7.2 11.11 11.96
3/29/2021 8:00:00 AM 5.46 41.828 0.144 7.2 10.62 12
3/29/2021 8:15:00 AM 5.42 41.756 0.144 7.21 10.35 12.06
3/29/2021 8:30:00 AM 5.37 41.666 0.144 7.22 10.16 12.12
3/29/2021 8:45:00 AM 5.34 41.612 0.144 7.23 9.91 12.17
3/29/2021 9:00:00 AM 5.31 41.558 0.144 7.24 9.5 12.23
3/29/2021 9:15:00 AM 5.29 41.522 0.144 7.26 9.36 12.29
3/29/2021 9:30:00 AM 5.27 41.486 0.144 7.28 9.07 12.34
3/29/2021 9:45:00 AM 5.26 41.468 0.144 7.28 8.61 12.4
3/29/2021 10:00:00 AM 5.25 41.45 0.144 7.3 8.53 12.46
3/29/2021 10:15:00 AM 5.27 41.486 0.144 7.33 8.54 12.53
3/29/2021 10:30:00 AM 5.3 41.54 0.143 7.34 8.63 12.62
3/29/2021 10:45:00 AM 5.4 41.72 0.143 7.37 8.22 12.69
3/29/2021 11:00:00 AM 5.59 42.062 0.143 7.41 8.23 12.74
3/29/2021 11:15:00 AM 5.79 42.422 0.143 7.44 7.83 12.75
3/29/2021 11:30:00 AM 5.91 42.638 0.143 7.45 7.76 12.76
3/29/2021 11:45:00 AM 6.18 43.124 0.143 7.47 7.77 12.75
3/29/2021 12:00:00 PM 6.3 43.34 0.143 7.47 7.73 12.74
3/29/2021 12:15:00 PM 6.37 43.466 0.142 7.26 6.9 12.65
3/29/2021 12:30:00 PM 6.48 43.664 0.141 6.96 6.91 12.67
3/29/2021 12:45:00 PM 6.72 44.096 0.141 7.1 6.22 12.66
3/29/2021 1:00:00 PM 6.95 44.51 0.141 7.14 6.64 12.64
3/29/2021 1:15:00 PM 7.16 44.888 0.141 7.21 5.97 12.6
3/29/2021 1:30:00 PM 7.26 45.068 0.141 7.21 6.07 12.55
3/29/2021 1:45:00 PM 7.4 45.32 0.141 7.24 6.05 12.53
3/29/2021 2:00:00 PM 7.58 45.644 0.141 7.25 6.04 12.49
3/29/2021 2:15:00 PM 7.74 45.932 0.141 7.25 5.79 12.45
3/29/2021 2:30:00 PM 7.89 46.202 0.141 7.26 5.79 12.4
3/29/2021 2:45:00 PM 7.99 46.382 0.141 7.29 5.54 12.36
3/29/2021 3:00:00 PM 8.1 46.58 0.141 7.28 5.74 12.31
3/29/2021 3:15:00 PM 8.19 46.742 0.141 7.29 5.69 12.27
3/29/2021 3:30:00 PM 8.24 46.832 0.141 7.28 5.76 12.23
3/29/2021 3:45:00 PM 8.27 46.886 0.141 7.27 5.74 12.18
3/29/2021 4:00:00 PM 8.33 46.994 0.141 7.27 5.74 12.15
3/29/2021 4:15:00 PM 8.37 47.066 0.141 7.26 5.81 12.1
3/29/2021 4:30:00 PM 8.39 47.102 0.141 7.25 5.75 12.05
3/29/2021 4:45:00 PM 8.41 47.138 0.141 7.24 5.62 12.01
3/29/2021 5:00:00 PM 8.41 47.138 0.141 7.23 5.63 11.97
3/29/2021 5:15:00 PM 8.42 47.156 0.141 7.22 5.87 11.93
3/29/2021 5:30:00 PM 8.41 47.138 0.141 7.22 5.83 11.89
3/29/2021 5:45:00 PM 8.4 47.12 0.141 7.2 5.81 11.85
3/29/2021 6:00:00 PM 8.37 47.066 0.141 7.18 5.99 11.8
3/29/2021 6:15:00 PM 8.32 46.976 0.141 7.16 6 11.76
3/29/2021 6:30:00 PM 8.26 46.868 0.141 7.13 6.09 11.69
3/29/2021 6:45:00 PM 8.21 46.778 0.141 7.1 5.83 11.64
3/29/2021 7:00:00 PM 8.15 46.67 0.141 7.07 5.95 11.61
3/29/2021 7:15:00 PM 8.08 46.544 0.141 7.06 6.09 11.56
3/29/2021 7:30:00 PM 8.02 46.436 0.141 7.02 5.61 11.52
3/29/2021 7:45:00 PM 7.94 46.292 0.141 7 6.02 11.46
3/29/2021 8:00:00 PM 7.86 46.148 0.141 6.96 5.81 11.42
3/29/2021 8:15:00 PM 7.78 46.004 0.142 6.95 5.95 11.39
3/29/2021 8:30:00 PM 7.7 45.86 0.142 6.93 6.03 11.37
3/29/2021 8:45:00 PM 7.63 45.734 0.142 6.91 5.96 11.37
3/29/2021 9:00:00 PM 7.55 45.59 0.142 6.91 5.79 11.37
3/29/2021 9:15:00 PM 7.48 45.464 0.142 6.89 6.15 11.37
3/29/2021 9:30:00 PM 7.41 45.338 0.142 6.9 6 11.37
3/29/2021 9:45:00 PM 7.34 45.212 0.142 6.88 5.89 11.38
3/29/2021 10:00:00 PM 7.27 45.086 0.142 6.88 5.85 11.38
3/29/2021 10:15:00 PM 7.21 44.978 0.142 6.87 5.52 11.39
3/29/2021 10:30:00 PM 7.15 44.87 0.142 6.86 5.57 11.4
3/29/2021 10:45:00 PM 7.09 44.762 0.142 6.86 5.71 11.4
3/29/2021 11:00:00 PM 7.03 44.654 0.142 6.86 5.54 11.42
3/29/2021 11:15:00 PM 6.97 44.546 0.143 6.85 5.98 11.43
3/29/2021 11:30:00 PM 6.91 44.438 0.143 6.86 5.57 11.44
3/29/2021 11:45:00 PM 6.84 44.312 0.143 6.86 5.5 11.46
3/30/2021 12:00:00 AM 6.76 44.168 0.143 6.85 5.75 11.48
3/30/2021 12:15:00 AM 6.69 44.042 0.143 6.85 5.69 11.5
3/30/2021 12:30:00 AM 6.6 43.88 0.143 6.84 5.46 11.52
3/30/2021 12:45:00 AM 6.51 43.718 0.143 6.83 5.35 11.56
3/30/2021 1:00:00 AM 6.42 43.556 0.143 6.83 5.11 11.59
3/30/2021 1:15:00 AM 6.32 43.376 0.143 6.82 5.43 11.62
3/30/2021 1:30:00 AM 6.22 43.196 0.143 6.83 5.12 11.65
3/30/2021 1:45:00 AM 6.12 43.016 0.144 6.82 5.13 11.68
3/30/2021 2:00:00 AM 6.01 42.818 0.144 6.82 5.42 11.72
3/30/2021 2:15:00 AM 5.91 42.638 0.144 6.81 5.24 11.75
3/30/2021 2:30:00 AM 5.81 42.458 0.144 6.81 5.15 11.78
3/30/2021 2:45:00 AM 5.7 42.26 0.144 6.81 5.19 11.82
3/30/2021 3:00:00 AM 5.6 42.08 0.145 6.81 5.16 11.86
3/30/2021 3:15:00 AM 5.5 41.9 0.145 6.81 5.06 11.88
3/30/2021 3:30:00 AM 5.41 41.738 0.145 6.81 4.71 11.93
3/30/2021 3:45:00 AM 5.31 41.558 0.145 6.81 4.83 11.95
3/30/2021 4:00:00 AM 5.21 41.378 0.145 6.81 4.62 11.98
3/30/2021 4:15:00 AM 5.11 41.198 0.146 6.8 4.69 12.01
3/30/2021 4:30:00 AM 5.02 41.036 0.146 6.8 4.96 12.06
3/30/2021 4:45:00 AM 4.94 40.892 0.147 6.81 4.73 12.08
3/30/2021 5:00:00 AM 4.85 40.73 0.147 6.81 4.82 12.12
3/30/2021 5:15:00 AM 4.76 40.568 0.147 6.81 4.82 12.15
3/30/2021 5:30:00 AM 4.68 40.424 0.148 6.81 4.84 12.18
3/30/2021 5:45:00 AM 4.6 40.28 0.148 6.81 4.77 12.2
3/30/2021 6:00:00 AM 4.52 40.136 0.148 6.81 4.54 12.24
3/30/2021 6:15:00 AM 4.44 39.992 0.148 6.82 4.66 12.26
3/30/2021 6:30:00 AM 4.37 39.866 0.148 6.82 4.62 12.29
3/30/2021 6:45:00 AM 4.3 39.74 0.148 6.82 4.71 12.32
3/30/2021 7:00:00 AM 4.22 39.596 0.148 6.82 4.64 12.36
3/30/2021 7:15:00 AM 4.16 39.488 0.148 6.83 4.62 12.42
3/30/2021 7:30:00 AM 4.09 39.362 0.148 6.84 4.65 12.5
3/30/2021 7:45:00 AM 4.05 39.29 0.148 6.86 4.59 12.61
3/30/2021 8:00:00 AM 4.02 39.236 0.147 6.89 4.76 12.71
3/30/2021 8:15:00 AM 4.01 39.218 0.147 6.91 4.43 12.8
3/30/2021 8:30:00 AM 4.02 39.236 0.147 6.93 4.55 12.9
3/30/2021 8:45:00 AM 4.05 39.29 0.147 6.95 4.4 12.97
3/30/2021 9:00:00 AM 4.12 39.416 0.147 6.99 4.71 13.05
3/30/2021 9:15:00 AM 4.24 39.632 0.147 7.02 4.34 13.1
3/30/2021 9:30:00 AM 4.37 39.866 0.147 7.06 4.71 13.13
3/30/2021 9:45:00 AM 4.52 40.136 0.147 7.09 13.72 13.13
3/30/2021 10:00:00 AM 4.69 40.442 0.147 7.12 30.1 13.1
3/30/2021 10:15:00 AM 4.89 40.802 0.147 7.15 36.5 13.11
3/30/2021 10:30:00 AM 5.13 41.234 0.147 7.16 26.25 13.08
3/30/2021 10:45:00 AM 5.39 41.702 0.147 7.16 78.97 13.01
3/30/2021 11:00:00 AM 5.68 42.224 0.147 7.2 51.5 13
3/30/2021 11:15:00 AM 5.96 42.728 0.147 7.21 44.05 12.94
3/30/2021 11:30:00 AM 6.26 43.268 0.147 7.25 24.03 12.91
3/30/2021 11:45:00 AM 6.55 43.79 0.147 7.28 36.52 12.84
3/30/2021 12:00:00 PM 6.84 44.312 0.147 7.29 61.59 12.79
3/30/2021 12:15:00 PM 7.12 44.816 0.147 7.3 42.06 12.75
3/30/2021 12:30:00 PM 7.38 45.284 0.146 7.32 19.04 12.69
3/30/2021 12:45:00 PM 7.65 45.77 0.146 7.34 9.12 12.64
3/30/2021 1:00:00 PM 7.91 46.238 0.146 7.37 5.86 12.58
3/30/2021 1:15:00 PM 8.15 46.67 0.147 7.38 4.97 12.52
3/30/2021 1:30:00 PM 8.38 47.084 0.147 7.39 4.93 12.45
3/30/2021 1:45:00 PM 8.6 47.48 0.147 7.39 4.59 12.38
3/30/2021 2:00:00 PM 8.8 47.84 0.147 7.39 4.39 12.32
3/30/2021 2:15:00 PM 8.99 48.182 0.147 7.4 9.1 12.25
3/30/2021 2:30:00 PM 9.14 48.452 0.147 7.38 13.4 12.18
3/30/2021 2:45:00 PM 9.28 48.704 0.147 7.4 7.8 12.13
3/30/2021 3:00:00 PM 9.41 48.938 0.147 7.39 12.57 12.06
3/30/2021 3:15:00 PM 9.51 49.118 0.147 7.36 23.27 11.96
3/30/2021 3:30:00 PM 9.58 49.244 0.147 7.38 9.93 11.94
3/30/2021 3:45:00 PM 9.66 49.388 0.147 7.37 21.36 11.86
3/30/2021 4:00:00 PM 9.71 49.478 0.147 7.36 12.46 11.83
3/30/2021 4:15:00 PM 9.75 49.55 0.147 7.33 29.79 11.74
3/30/2021 4:30:00 PM 9.77 49.586 0.147 7.32 29.28 11.69
3/30/2021 4:45:00 PM 9.8 49.64 0.147 7.33 14.79 11.67
3/30/2021 5:00:00 PM 9.77 49.586 0.147 7.3 20.9 11.6
3/30/2021 5:15:00 PM 9.77 49.586 0.147 7.28 32.35 11.56
3/30/2021 5:30:00 PM 9.82 49.676 0.147 7.29 22.34 11.56
3/30/2021 5:45:00 PM 9.82 49.676 0.147 7.29 27.24 11.53
3/30/2021 6:00:00 PM 9.77 49.586 0.147 7.27 23.32 11.47
3/30/2021 6:15:00 PM 9.73 49.514 0.147 7.22 37.56 11.37
3/30/2021 6:30:00 PM 9.68 49.424 0.147 7.21 29.11 11.31
3/30/2021 6:45:00 PM 9.64 49.352 0.147 7.17 32.25 11.25
3/30/2021 7:00:00 PM 9.6 49.28 0.147 7.15 28.93 11.19
3/30/2021 7:15:00 PM 9.57 49.226 0.147 7.14 12.19 11.16
3/30/2021 7:30:00 PM 9.52 49.136 0.147 7.11 18.84 11.09
3/30/2021 7:45:00 PM 9.48 49.064 0.147 7.09 7.75 11.03
3/30/2021 8:00:00 PM 9.43 48.974 0.147 7.06 5.51 10.97
3/30/2021 8:15:00 PM 9.38 48.884 0.147 7.04 5.13 10.93
3/30/2021 8:30:00 PM 9.32 48.776 0.147 7.02 11.13 10.89
3/30/2021 8:45:00 PM 9.27 48.686 0.148 7 7.01 10.87
3/30/2021 9:00:00 PM 9.22 48.596 0.148 6.99 12.84 10.86
3/30/2021 9:15:00 PM 9.17 48.506 0.148 6.98 8.55 10.86
3/30/2021 9:30:00 PM 9.13 48.434 0.148 6.97 6.33 10.85
3/30/2021 9:45:00 PM 9.08 48.344 0.148 6.96 4.91 10.84
3/30/2021 10:00:00 PM 9.04 48.272 0.148 6.96 4.75 10.85
3/30/2021 10:15:00 PM 9 48.2 0.148 6.95 4.76 10.85
3/30/2021 10:30:00 PM 8.97 48.146 0.148 6.94 4.75 10.85
3/30/2021 10:45:00 PM 8.94 48.092 0.148 6.95 4.65 10.85
3/30/2021 11:00:00 PM 8.91 48.038 0.148 6.94 4.69 10.85
3/30/2021 11:15:00 PM 8.9 48.02 0.148 6.94 4.72 10.85
3/30/2021 11:30:00 PM 8.89 48.002 0.148 6.94 4.94 10.84
3/30/2021 11:45:00 PM 8.88 47.984 0.148 6.95 4.7 10.85
3/31/2021 12:00:00 AM 8.87 47.966 0.147 6.94 4.86 10.84
3/31/2021 12:15:00 AM 8.86 47.948 0.147 6.95 4.84 10.84
3/31/2021 12:30:00 AM 8.85 47.93 0.146 6.95 4.69 10.84
3/31/2021 12:45:00 AM 8.83 47.894 0.146 6.95 4.57 10.84
3/31/2021 1:00:00 AM 8.82 47.876 0.145 6.95 4.65 10.84
3/31/2021 1:15:00 AM 8.8 47.84 0.145 6.94 4.6 10.84
3/31/2021 1:30:00 AM 8.78 47.804 0.145 6.94 4.76 10.85
3/31/2021 1:45:00 AM 8.75 47.75 0.145 6.95 4.56 10.86
3/31/2021 2:00:00 AM 8.71 47.678 0.145 6.93 4.56 10.86
3/31/2021 2:15:00 AM 8.67 47.606 0.145 6.93 4.62 10.88
3/31/2021 2:30:00 AM 8.63 47.534 0.145 6.94 4.64 10.89
3/31/2021 2:45:00 AM 8.59 47.462 0.145 6.93 4.57 10.9
3/31/2021 3:00:00 AM 8.55 47.39 0.145 6.93 4.43 10.91
3/31/2021 3:15:00 AM 8.5 47.3 0.145 6.93 4.48 10.93
3/31/2021 3:30:00 AM 8.44 47.192 0.146 6.92 4.55 10.94
3/31/2021 3:45:00 AM 8.38 47.084 0.146 6.92 4.62 10.96
3/31/2021 4:00:00 AM 8.33 46.994 0.146 6.92 4.53 10.98
3/31/2021 4:15:00 AM 8.27 46.886 0.146 6.91 4.45 10.99
3/31/2021 4:30:00 AM 8.22 46.796 0.146 6.91 4.39 11.01
3/31/2021 4:45:00 AM 8.17 46.706 0.146 6.91 4.4 11.02
3/31/2021 5:00:00 AM 8.12 46.616 0.146 6.91 4.49 11.04
3/31/2021 5:15:00 AM 8.07 46.526 0.146 6.91 4.49 11.05
3/31/2021 5:30:00 AM 8.02 46.436 0.146 6.91 4.4 11.07
3/31/2021 5:45:00 AM 7.97 46.346 0.146 6.9 4.35 11.09
3/31/2021 6:00:00 AM 7.93 46.274 0.145 6.91 4.52 11.09
3/31/2021 6:15:00 AM 7.88 46.184 0.145 6.91 4.49 11.11
3/31/2021 6:30:00 AM 7.84 46.112 0.144 6.9 4.26 11.12
3/31/2021 6:45:00 AM 7.81 46.058 0.144 6.91 4.41 11.12
3/31/2021 7:00:00 AM 7.77 45.986 0.144 6.92 4.62 11.14
3/31/2021 7:15:00 AM 7.74 45.932 0.144 6.92 4.4 11.16
3/31/2021 7:30:00 AM 7.72 45.896 0.144 6.93 4.33 11.21
3/31/2021 7:45:00 AM 7.71 45.878 0.144 6.94 4.42 11.28
3/31/2021 8:00:00 AM 7.7 45.86 0.144 6.97 4.56 11.38
3/31/2021 8:15:00 AM 7.71 45.878 0.144 7 4.45 11.48
3/31/2021 8:30:00 AM 7.72 45.896 0.144 7.02 12.2 11.55
3/31/2021 8:45:00 AM 7.73 45.914 0.144 7.04 13.47 11.59
3/31/2021 9:00:00 AM 7.75 45.95 0.144 7.05 23.54 11.62
3/31/2021 9:15:00 AM 7.77 45.986 0.145 7.07 21.92 11.68
3/31/2021 9:30:00 AM 7.8 46.04 0.145 7.09 22.47 11.71
3/31/2021 9:45:00 AM 7.83 46.094 0.145 7.13 25.7 11.77
3/31/2021 10:00:00 AM 7.86 46.148 0.145 7.15 18.88 11.81
3/31/2021 10:15:00 AM 7.89 46.202 0.145 7.16 19.32 11.83
3/31/2021 10:30:00 AM 7.92 46.256 0.145 7.18 17.18 11.85
3/31/2021 10:45:00 AM 7.94 46.292 0.146 7.19 19.15 11.86
3/31/2021 11:00:00 AM 7.96 46.328 0.146 7.2 19.48 11.86
3/31/2021 11:15:00 AM 7.98 46.364 0.146 7.19 19.54 11.85
3/31/2021 11:30:00 AM 8 46.4 0.146 7.2 19.26 11.85
3/31/2021 11:45:00 AM 8.02 46.436 0.146 7.21 18.36 11.85
3/31/2021 12:00:00 PM 8.04 46.472 0.146 7.21 16.73 11.83